<?xml version="1.0" encoding="UTF-8" standalone="no" ?>
<gpx xmlns="http://www.topografix.com/GPX/1/1" xmlns:xsi="http://www.w3.org/2001/XMLSchema-instance" xsi:schemaLocation="http://www.topografix.com/GPX/1/1 http://www.topografix.com/GPX/1/1/gpx.xsd" version="1.1" creator="VisuGPX - https://www.visugpx.com">
  <metadata>
    <name>Chemin Faisant à Saint Philippe d'Aiguille</name>
    <desc><![CDATA[Balade au milieu des vignes et de nombreux châteaux.]]></desc>
  </metadata>
  <trk>
    <name><![CDATA[2016-04-03 15:50:57]]></name>
    <trkseg>
      <trkpt lat="44.91406" lon="-0.03145">
        <ele>113.09</ele>
        <time>2016-04-03T06:59:03Z</time>
      </trkpt>
      <trkpt lat="44.91406" lon="-0.03144">
        <ele>113.09</ele>
        <time>2016-04-03T06:59:04Z</time>
      </trkpt>
      <trkpt lat="44.91405" lon="-0.03142">
        <ele>112.61</ele>
        <time>2016-04-03T06:59:26Z</time>
      </trkpt>
      <trkpt lat="44.91403" lon="-0.03147">
        <ele>113.09</ele>
        <time>2016-04-03T07:00:46Z</time>
      </trkpt>
      <trkpt lat="44.91406" lon="-0.03147">
        <ele>113.09</ele>
        <time>2016-04-03T07:01:18Z</time>
      </trkpt>
      <trkpt lat="44.91407" lon="-0.03143">
        <ele>113.09</ele>
        <time>2016-04-03T07:01:26Z</time>
      </trkpt>
      <trkpt lat="44.91409" lon="-0.03128">
        <ele>113.09</ele>
        <time>2016-04-03T07:01:37Z</time>
      </trkpt>
      <trkpt lat="44.91411" lon="-0.03104">
        <ele>112.61</ele>
        <time>2016-04-03T07:01:53Z</time>
      </trkpt>
      <trkpt lat="44.91406" lon="-0.03095">
        <ele>112.61</ele>
        <time>2016-04-03T07:02:05Z</time>
      </trkpt>
      <trkpt lat="44.91414" lon="-0.0309">
        <ele>111.17</ele>
        <time>2016-04-03T07:02:19Z</time>
      </trkpt>
      <trkpt lat="44.91427" lon="-0.03089">
        <ele>110.69</ele>
        <time>2016-04-03T07:02:35Z</time>
      </trkpt>
      <trkpt lat="44.91445" lon="-0.03093">
        <ele>110.69</ele>
        <time>2016-04-03T07:02:53Z</time>
      </trkpt>
      <trkpt lat="44.91457" lon="-0.03095">
        <ele>110.69</ele>
        <time>2016-04-03T07:03:10Z</time>
      </trkpt>
      <trkpt lat="44.91471" lon="-0.03097">
        <ele>110.21</ele>
        <time>2016-04-03T07:03:27Z</time>
      </trkpt>
      <trkpt lat="44.91486" lon="-0.03103">
        <ele>111.65</ele>
        <time>2016-04-03T07:03:45Z</time>
      </trkpt>
      <trkpt lat="44.91507" lon="-0.03105">
        <ele>111.65</ele>
        <time>2016-04-03T07:04:02Z</time>
      </trkpt>
      <trkpt lat="44.91532" lon="-0.03105">
        <ele>112.13</ele>
        <time>2016-04-03T07:04:21Z</time>
      </trkpt>
      <trkpt lat="44.91552" lon="-0.03105">
        <ele>112.13</ele>
        <time>2016-04-03T07:04:37Z</time>
      </trkpt>
      <trkpt lat="44.91574" lon="-0.03102">
        <ele>112.13</ele>
        <time>2016-04-03T07:04:55Z</time>
      </trkpt>
      <trkpt lat="44.91599" lon="-0.03099">
        <ele>112.13</ele>
        <time>2016-04-03T07:05:13Z</time>
      </trkpt>
      <trkpt lat="44.9162" lon="-0.03093">
        <ele>112.13</ele>
        <time>2016-04-03T07:05:31Z</time>
      </trkpt>
      <trkpt lat="44.91642" lon="-0.03087">
        <ele>112.13</ele>
        <time>2016-04-03T07:05:49Z</time>
      </trkpt>
      <trkpt lat="44.91659" lon="-0.03081">
        <ele>112.13</ele>
        <time>2016-04-03T07:06:04Z</time>
      </trkpt>
      <trkpt lat="44.91664" lon="-0.03079">
        <ele>112.13</ele>
        <time>2016-04-03T07:06:08Z</time>
      </trkpt>
      <trkpt lat="44.91685" lon="-0.03073">
        <ele>112.13</ele>
        <time>2016-04-03T07:06:28Z</time>
      </trkpt>
      <trkpt lat="44.91697" lon="-0.03068">
        <ele>112.13</ele>
        <time>2016-04-03T07:06:40Z</time>
      </trkpt>
      <trkpt lat="44.9171" lon="-0.03065">
        <ele>110.69</ele>
        <time>2016-04-03T07:06:51Z</time>
      </trkpt>
      <trkpt lat="44.91731" lon="-0.0306">
        <ele>110.69</ele>
        <time>2016-04-03T07:07:09Z</time>
      </trkpt>
      <trkpt lat="44.91757" lon="-0.03051">
        <ele>110.69</ele>
        <time>2016-04-03T07:07:31Z</time>
      </trkpt>
      <trkpt lat="44.91779" lon="-0.03037">
        <ele>110.21</ele>
        <time>2016-04-03T07:07:51Z</time>
      </trkpt>
      <trkpt lat="44.91791" lon="-0.03008">
        <ele>109.25</ele>
        <time>2016-04-03T07:08:10Z</time>
      </trkpt>
      <trkpt lat="44.91796" lon="-0.02975">
        <ele>108.77</ele>
        <time>2016-04-03T07:08:30Z</time>
      </trkpt>
      <trkpt lat="44.91799" lon="-0.02946">
        <ele>108.77</ele>
        <time>2016-04-03T07:08:47Z</time>
      </trkpt>
      <trkpt lat="44.91802" lon="-0.02918">
        <ele>108.29</ele>
        <time>2016-04-03T07:09:03Z</time>
      </trkpt>
      <trkpt lat="44.91805" lon="-0.02888">
        <ele>108.29</ele>
        <time>2016-04-03T07:09:21Z</time>
      </trkpt>
      <trkpt lat="44.91808" lon="-0.02857">
        <ele>107.81</ele>
        <time>2016-04-03T07:09:40Z</time>
      </trkpt>
      <trkpt lat="44.91811" lon="-0.02828">
        <ele>106.84</ele>
        <time>2016-04-03T07:09:57Z</time>
      </trkpt>
      <trkpt lat="44.91818" lon="-0.02795">
        <ele>105.88</ele>
        <time>2016-04-03T07:10:18Z</time>
      </trkpt>
      <trkpt lat="44.91826" lon="-0.02766">
        <ele>105.4</ele>
        <time>2016-04-03T07:10:36Z</time>
      </trkpt>
      <trkpt lat="44.91834" lon="-0.02733">
        <ele>104.92</ele>
        <time>2016-04-03T07:10:56Z</time>
      </trkpt>
      <trkpt lat="44.91841" lon="-0.02704">
        <ele>104.92</ele>
        <time>2016-04-03T07:11:15Z</time>
      </trkpt>
      <trkpt lat="44.9185" lon="-0.02691">
        <ele>104.44</ele>
        <time>2016-04-03T07:11:30Z</time>
      </trkpt>
      <trkpt lat="44.91851" lon="-0.02689">
        <ele>104.44</ele>
        <time>2016-04-03T07:11:31Z</time>
      </trkpt>
      <trkpt lat="44.91856" lon="-0.02671">
        <ele>104.44</ele>
        <time>2016-04-03T07:11:44Z</time>
      </trkpt>
      <trkpt lat="44.91857" lon="-0.02666">
        <ele>104.44</ele>
        <time>2016-04-03T07:11:47Z</time>
      </trkpt>
      <trkpt lat="44.9186" lon="-0.02654">
        <ele>105.4</ele>
        <time>2016-04-03T07:12:02Z</time>
      </trkpt>
      <trkpt lat="44.91861" lon="-0.02644">
        <ele>105.4</ele>
        <time>2016-04-03T07:12:08Z</time>
      </trkpt>
      <trkpt lat="44.91863" lon="-0.0263">
        <ele>103.96</ele>
        <time>2016-04-03T07:12:17Z</time>
      </trkpt>
      <trkpt lat="44.91864" lon="-0.02619">
        <ele>103.96</ele>
        <time>2016-04-03T07:12:23Z</time>
      </trkpt>
      <trkpt lat="44.91865" lon="-0.02614">
        <ele>105.4</ele>
        <time>2016-04-03T07:12:26Z</time>
      </trkpt>
      <trkpt lat="44.91868" lon="-0.02587">
        <ele>105.4</ele>
        <time>2016-04-03T07:12:43Z</time>
      </trkpt>
      <trkpt lat="44.9187" lon="-0.02579">
        <ele>105.4</ele>
        <time>2016-04-03T07:12:49Z</time>
      </trkpt>
      <trkpt lat="44.91872" lon="-0.02558">
        <ele>105.88</ele>
        <time>2016-04-03T07:13:05Z</time>
      </trkpt>
      <trkpt lat="44.91877" lon="-0.02538">
        <ele>106.36</ele>
        <time>2016-04-03T07:13:18Z</time>
      </trkpt>
      <trkpt lat="44.91881" lon="-0.02517">
        <ele>106.36</ele>
        <time>2016-04-03T07:13:32Z</time>
      </trkpt>
      <trkpt lat="44.91883" lon="-0.02505">
        <ele>106.36</ele>
        <time>2016-04-03T07:13:40Z</time>
      </trkpt>
      <trkpt lat="44.91885" lon="-0.0249">
        <ele>105.88</ele>
        <time>2016-04-03T07:13:50Z</time>
      </trkpt>
      <trkpt lat="44.91886" lon="-0.02487">
        <ele>105.88</ele>
        <time>2016-04-03T07:13:52Z</time>
      </trkpt>
      <trkpt lat="44.9189" lon="-0.02464">
        <ele>104.92</ele>
        <time>2016-04-03T07:14:07Z</time>
      </trkpt>
      <trkpt lat="44.91893" lon="-0.0245">
        <ele>105.4</ele>
        <time>2016-04-03T07:14:17Z</time>
      </trkpt>
      <trkpt lat="44.91896" lon="-0.02436">
        <ele>103.48</ele>
        <time>2016-04-03T07:14:26Z</time>
      </trkpt>
      <trkpt lat="44.91899" lon="-0.02419">
        <ele>103</ele>
        <time>2016-04-03T07:14:37Z</time>
      </trkpt>
      <trkpt lat="44.91903" lon="-0.02399">
        <ele>102.52</ele>
        <time>2016-04-03T07:14:51Z</time>
      </trkpt>
      <trkpt lat="44.91908" lon="-0.02375">
        <ele>101.56</ele>
        <time>2016-04-03T07:15:07Z</time>
      </trkpt>
      <trkpt lat="44.9191" lon="-0.02366">
        <ele>101.08</ele>
        <time>2016-04-03T07:15:13Z</time>
      </trkpt>
      <trkpt lat="44.91911" lon="-0.02344">
        <ele>100.6</ele>
        <time>2016-04-03T07:15:29Z</time>
      </trkpt>
      <trkpt lat="44.91906" lon="-0.02322">
        <ele>100.11</ele>
        <time>2016-04-03T07:15:44Z</time>
      </trkpt>
      <trkpt lat="44.91905" lon="-0.02312">
        <ele>99.63</ele>
        <time>2016-04-03T07:15:52Z</time>
      </trkpt>
      <trkpt lat="44.91907" lon="-0.02308">
        <ele>99.63</ele>
        <time>2016-04-03T07:15:57Z</time>
      </trkpt>
      <trkpt lat="44.91921" lon="-0.02311">
        <ele>101.08</ele>
        <time>2016-04-03T07:16:10Z</time>
      </trkpt>
      <trkpt lat="44.91928" lon="-0.02312">
        <ele>101.56</ele>
        <time>2016-04-03T07:16:16Z</time>
      </trkpt>
      <trkpt lat="44.91945" lon="-0.02316">
        <ele>102.52</ele>
        <time>2016-04-03T07:16:32Z</time>
      </trkpt>
      <trkpt lat="44.91959" lon="-0.02321">
        <ele>102.52</ele>
        <time>2016-04-03T07:16:47Z</time>
      </trkpt>
      <trkpt lat="44.91974" lon="-0.02326">
        <ele>103.48</ele>
        <time>2016-04-03T07:17:02Z</time>
      </trkpt>
      <trkpt lat="44.91993" lon="-0.02331">
        <ele>103.96</ele>
        <time>2016-04-03T07:17:19Z</time>
      </trkpt>
      <trkpt lat="44.92012" lon="-0.02336">
        <ele>104.92</ele>
        <time>2016-04-03T07:17:37Z</time>
      </trkpt>
      <trkpt lat="44.92026" lon="-0.02339">
        <ele>106.36</ele>
        <time>2016-04-03T07:17:51Z</time>
      </trkpt>
      <trkpt lat="44.92035" lon="-0.02342">
        <ele>106.84</ele>
        <time>2016-04-03T07:18:01Z</time>
      </trkpt>
      <trkpt lat="44.92049" lon="-0.02345">
        <ele>107.81</ele>
        <time>2016-04-03T07:18:15Z</time>
      </trkpt>
      <trkpt lat="44.92051" lon="-0.02345">
        <ele>107.81</ele>
        <time>2016-04-03T07:18:16Z</time>
      </trkpt>
      <trkpt lat="44.92065" lon="-0.02349">
        <ele>109.25</ele>
        <time>2016-04-03T07:18:29Z</time>
      </trkpt>
      <trkpt lat="44.92079" lon="-0.02353">
        <ele>110.21</ele>
        <time>2016-04-03T07:18:44Z</time>
      </trkpt>
      <trkpt lat="44.92094" lon="-0.02356">
        <ele>112.13</ele>
        <time>2016-04-03T07:18:59Z</time>
      </trkpt>
      <trkpt lat="44.92103" lon="-0.02358">
        <ele>112.13</ele>
        <time>2016-04-03T07:19:11Z</time>
      </trkpt>
      <trkpt lat="44.92104" lon="-0.0236">
        <ele>112.61</ele>
        <time>2016-04-03T07:19:22Z</time>
      </trkpt>
      <trkpt lat="44.92104" lon="-0.0236">
        <ele>112.61</ele>
        <time>2016-04-03T07:19:34Z</time>
      </trkpt>
      <trkpt lat="44.92112" lon="-0.02354">
        <ele>112.61</ele>
        <time>2016-04-03T07:19:42Z</time>
      </trkpt>
      <trkpt lat="44.92114" lon="-0.02351">
        <ele>112.61</ele>
        <time>2016-04-03T07:19:44Z</time>
      </trkpt>
      <trkpt lat="44.92121" lon="-0.02351">
        <ele>114.05</ele>
        <time>2016-04-03T07:19:51Z</time>
      </trkpt>
      <trkpt lat="44.92135" lon="-0.02358">
        <ele>115.01</ele>
        <time>2016-04-03T07:20:06Z</time>
      </trkpt>
      <trkpt lat="44.92145" lon="-0.02368">
        <ele>115.01</ele>
        <time>2016-04-03T07:22:02Z</time>
      </trkpt>
      <trkpt lat="44.92149" lon="-0.02357">
        <ele>115.01</ele>
        <time>2016-04-03T07:22:17Z</time>
      </trkpt>
      <trkpt lat="44.92151" lon="-0.02354">
        <ele>114.05</ele>
        <time>2016-04-03T07:23:37Z</time>
      </trkpt>
      <trkpt lat="44.9216" lon="-0.02343">
        <ele>114.05</ele>
        <time>2016-04-03T07:23:50Z</time>
      </trkpt>
      <trkpt lat="44.92161" lon="-0.02343">
        <ele>113.57</ele>
        <time>2016-04-03T07:23:52Z</time>
      </trkpt>
      <trkpt lat="44.92172" lon="-0.02339">
        <ele>113.57</ele>
        <time>2016-04-03T07:24:06Z</time>
      </trkpt>
      <trkpt lat="44.92184" lon="-0.02334">
        <ele>113.09</ele>
        <time>2016-04-03T07:24:18Z</time>
      </trkpt>
      <trkpt lat="44.92186" lon="-0.02333">
        <ele>113.09</ele>
        <time>2016-04-03T07:24:20Z</time>
      </trkpt>
      <trkpt lat="44.92195" lon="-0.02331">
        <ele>112.61</ele>
        <time>2016-04-03T07:24:28Z</time>
      </trkpt>
      <trkpt lat="44.9221" lon="-0.02325">
        <ele>111.17</ele>
        <time>2016-04-03T07:24:42Z</time>
      </trkpt>
      <trkpt lat="44.92226" lon="-0.0232">
        <ele>110.21</ele>
        <time>2016-04-03T07:24:57Z</time>
      </trkpt>
      <trkpt lat="44.92244" lon="-0.0232">
        <ele>108.29</ele>
        <time>2016-04-03T07:25:12Z</time>
      </trkpt>
      <trkpt lat="44.92262" lon="-0.02327">
        <ele>107.32</ele>
        <time>2016-04-03T07:25:28Z</time>
      </trkpt>
      <trkpt lat="44.92281" lon="-0.02335">
        <ele>107.32</ele>
        <time>2016-04-03T07:25:45Z</time>
      </trkpt>
      <trkpt lat="44.92298" lon="-0.0234">
        <ele>105.88</ele>
        <time>2016-04-03T07:25:59Z</time>
      </trkpt>
      <trkpt lat="44.92314" lon="-0.02339">
        <ele>105.88</ele>
        <time>2016-04-03T07:26:12Z</time>
      </trkpt>
      <trkpt lat="44.9233" lon="-0.02339">
        <ele>105.88</ele>
        <time>2016-04-03T07:26:25Z</time>
      </trkpt>
      <trkpt lat="44.92346" lon="-0.02341">
        <ele>104.92</ele>
        <time>2016-04-03T07:26:41Z</time>
      </trkpt>
      <trkpt lat="44.92365" lon="-0.02349">
        <ele>104.44</ele>
        <time>2016-04-03T07:26:59Z</time>
      </trkpt>
      <trkpt lat="44.92382" lon="-0.02358">
        <ele>103.48</ele>
        <time>2016-04-03T07:27:16Z</time>
      </trkpt>
      <trkpt lat="44.92397" lon="-0.02367">
        <ele>103</ele>
        <time>2016-04-03T07:27:30Z</time>
      </trkpt>
      <trkpt lat="44.92408" lon="-0.02373">
        <ele>102.52</ele>
        <time>2016-04-03T07:27:45Z</time>
      </trkpt>
      <trkpt lat="44.92423" lon="-0.02383">
        <ele>102.52</ele>
        <time>2016-04-03T07:28:01Z</time>
      </trkpt>
      <trkpt lat="44.92441" lon="-0.02395">
        <ele>102.04</ele>
        <time>2016-04-03T07:28:18Z</time>
      </trkpt>
      <trkpt lat="44.92443" lon="-0.02397">
        <ele>101.56</ele>
        <time>2016-04-03T07:28:20Z</time>
      </trkpt>
      <trkpt lat="44.92446" lon="-0.02397">
        <ele>101.56</ele>
        <time>2016-04-03T07:28:23Z</time>
      </trkpt>
      <trkpt lat="44.92449" lon="-0.02395">
        <ele>101.56</ele>
        <time>2016-04-03T07:28:26Z</time>
      </trkpt>
      <trkpt lat="44.92457" lon="-0.02385">
        <ele>100.6</ele>
        <time>2016-04-03T07:28:36Z</time>
      </trkpt>
      <trkpt lat="44.92463" lon="-0.02381">
        <ele>100.11</ele>
        <time>2016-04-03T07:28:41Z</time>
      </trkpt>
      <trkpt lat="44.92475" lon="-0.02367">
        <ele>99.15</ele>
        <time>2016-04-03T07:28:56Z</time>
      </trkpt>
      <trkpt lat="44.92487" lon="-0.02377">
        <ele>99.15</ele>
        <time>2016-04-03T07:29:10Z</time>
      </trkpt>
      <trkpt lat="44.92493" lon="-0.02387">
        <ele>99.15</ele>
        <time>2016-04-03T07:29:18Z</time>
      </trkpt>
      <trkpt lat="44.92504" lon="-0.02412">
        <ele>99.15</ele>
        <time>2016-04-03T07:29:35Z</time>
      </trkpt>
      <trkpt lat="44.92507" lon="-0.02414">
        <ele>100.11</ele>
        <time>2016-04-03T07:29:38Z</time>
      </trkpt>
      <trkpt lat="44.92511" lon="-0.0242">
        <ele>100.11</ele>
        <time>2016-04-03T07:29:53Z</time>
      </trkpt>
      <trkpt lat="44.92512" lon="-0.02421">
        <ele>100.11</ele>
        <time>2016-04-03T07:29:54Z</time>
      </trkpt>
      <trkpt lat="44.92513" lon="-0.02425">
        <ele>100.11</ele>
        <time>2016-04-03T07:29:57Z</time>
      </trkpt>
      <trkpt lat="44.9252" lon="-0.02442">
        <ele>100.11</ele>
        <time>2016-04-03T07:30:11Z</time>
      </trkpt>
      <trkpt lat="44.92532" lon="-0.02447">
        <ele>99.63</ele>
        <time>2016-04-03T07:30:25Z</time>
      </trkpt>
      <trkpt lat="44.92549" lon="-0.0245">
        <ele>99.63</ele>
        <time>2016-04-03T07:30:41Z</time>
      </trkpt>
      <trkpt lat="44.92554" lon="-0.02451">
        <ele>99.63</ele>
        <time>2016-04-03T07:30:46Z</time>
      </trkpt>
      <trkpt lat="44.92576" lon="-0.02456">
        <ele>99.63</ele>
        <time>2016-04-03T07:31:04Z</time>
      </trkpt>
      <trkpt lat="44.92594" lon="-0.02463">
        <ele>99.63</ele>
        <time>2016-04-03T07:31:20Z</time>
      </trkpt>
      <trkpt lat="44.92611" lon="-0.02468">
        <ele>98.19</ele>
        <time>2016-04-03T07:31:35Z</time>
      </trkpt>
      <trkpt lat="44.92627" lon="-0.02474">
        <ele>98.19</ele>
        <time>2016-04-03T07:31:50Z</time>
      </trkpt>
      <trkpt lat="44.92649" lon="-0.0248">
        <ele>97.71</ele>
        <time>2016-04-03T07:32:06Z</time>
      </trkpt>
      <trkpt lat="44.92659" lon="-0.02481">
        <ele>97.71</ele>
        <time>2016-04-03T07:32:18Z</time>
      </trkpt>
      <trkpt lat="44.92676" lon="-0.02488">
        <ele>97.71</ele>
        <time>2016-04-03T07:32:33Z</time>
      </trkpt>
      <trkpt lat="44.92685" lon="-0.02492">
        <ele>97.23</ele>
        <time>2016-04-03T07:32:46Z</time>
      </trkpt>
      <trkpt lat="44.92688" lon="-0.02492">
        <ele>97.23</ele>
        <time>2016-04-03T07:32:49Z</time>
      </trkpt>
      <trkpt lat="44.92706" lon="-0.02494">
        <ele>96.75</ele>
        <time>2016-04-03T07:33:04Z</time>
      </trkpt>
      <trkpt lat="44.92719" lon="-0.02495">
        <ele>95.79</ele>
        <time>2016-04-03T07:33:16Z</time>
      </trkpt>
      <trkpt lat="44.92738" lon="-0.02494">
        <ele>94.35</ele>
        <time>2016-04-03T07:33:34Z</time>
      </trkpt>
      <trkpt lat="44.92742" lon="-0.02497">
        <ele>94.35</ele>
        <time>2016-04-03T07:33:38Z</time>
      </trkpt>
      <trkpt lat="44.92746" lon="-0.02501">
        <ele>94.35</ele>
        <time>2016-04-03T07:33:42Z</time>
      </trkpt>
      <trkpt lat="44.92751" lon="-0.0251">
        <ele>94.35</ele>
        <time>2016-04-03T07:33:48Z</time>
      </trkpt>
      <trkpt lat="44.92762" lon="-0.02528">
        <ele>95.79</ele>
        <time>2016-04-03T07:34:03Z</time>
      </trkpt>
      <trkpt lat="44.92768" lon="-0.02535">
        <ele>96.27</ele>
        <time>2016-04-03T07:34:11Z</time>
      </trkpt>
      <trkpt lat="44.92773" lon="-0.02541">
        <ele>96.27</ele>
        <time>2016-04-03T07:34:24Z</time>
      </trkpt>
      <trkpt lat="44.92774" lon="-0.02546">
        <ele>96.75</ele>
        <time>2016-04-03T07:37:57Z</time>
      </trkpt>
      <trkpt lat="44.92777" lon="-0.0256">
        <ele>96.75</ele>
        <time>2016-04-03T07:38:08Z</time>
      </trkpt>
      <trkpt lat="44.92774" lon="-0.02578">
        <ele>96.75</ele>
        <time>2016-04-03T07:38:22Z</time>
      </trkpt>
      <trkpt lat="44.92775" lon="-0.02579">
        <ele>96.75</ele>
        <time>2016-04-03T07:38:43Z</time>
      </trkpt>
      <trkpt lat="44.92772" lon="-0.02593">
        <ele>97.23</ele>
        <time>2016-04-03T07:38:56Z</time>
      </trkpt>
      <trkpt lat="44.92771" lon="-0.026">
        <ele>97.71</ele>
        <time>2016-04-03T07:39:03Z</time>
      </trkpt>
      <trkpt lat="44.92767" lon="-0.02615">
        <ele>98.67</ele>
        <time>2016-04-03T07:39:17Z</time>
      </trkpt>
      <trkpt lat="44.92766" lon="-0.02632">
        <ele>99.63</ele>
        <time>2016-04-03T07:39:31Z</time>
      </trkpt>
      <trkpt lat="44.92764" lon="-0.02653">
        <ele>100.6</ele>
        <time>2016-04-03T07:39:47Z</time>
      </trkpt>
      <trkpt lat="44.92765" lon="-0.02673">
        <ele>101.08</ele>
        <time>2016-04-03T07:40:02Z</time>
      </trkpt>
      <trkpt lat="44.92767" lon="-0.02692">
        <ele>101.56</ele>
        <time>2016-04-03T07:40:16Z</time>
      </trkpt>
      <trkpt lat="44.92768" lon="-0.02706">
        <ele>101.56</ele>
        <time>2016-04-03T07:40:29Z</time>
      </trkpt>
      <trkpt lat="44.92769" lon="-0.02731">
        <ele>102.52</ele>
        <time>2016-04-03T07:40:46Z</time>
      </trkpt>
      <trkpt lat="44.92772" lon="-0.02747">
        <ele>103</ele>
        <time>2016-04-03T07:40:59Z</time>
      </trkpt>
      <trkpt lat="44.92775" lon="-0.02745">
        <ele>103</ele>
        <time>2016-04-03T07:41:03Z</time>
      </trkpt>
      <trkpt lat="44.92781" lon="-0.02744">
        <ele>101.56</ele>
        <time>2016-04-03T07:41:09Z</time>
      </trkpt>
      <trkpt lat="44.92799" lon="-0.02748">
        <ele>100.6</ele>
        <time>2016-04-03T07:41:26Z</time>
      </trkpt>
      <trkpt lat="44.92801" lon="-0.02748">
        <ele>100.6</ele>
        <time>2016-04-03T07:41:27Z</time>
      </trkpt>
      <trkpt lat="44.92804" lon="-0.02752">
        <ele>100.6</ele>
        <time>2016-04-03T07:41:43Z</time>
      </trkpt>
      <trkpt lat="44.92808" lon="-0.0276">
        <ele>100.11</ele>
        <time>2016-04-03T07:42:01Z</time>
      </trkpt>
      <trkpt lat="44.92815" lon="-0.02776">
        <ele>100.11</ele>
        <time>2016-04-03T07:42:15Z</time>
      </trkpt>
      <trkpt lat="44.92819" lon="-0.02783">
        <ele>100.11</ele>
        <time>2016-04-03T07:42:22Z</time>
      </trkpt>
      <trkpt lat="44.9283" lon="-0.02799">
        <ele>100.11</ele>
        <time>2016-04-03T07:42:37Z</time>
      </trkpt>
      <trkpt lat="44.92842" lon="-0.02814">
        <ele>100.11</ele>
        <time>2016-04-03T07:42:53Z</time>
      </trkpt>
      <trkpt lat="44.92856" lon="-0.0283">
        <ele>99.63</ele>
        <time>2016-04-03T07:43:09Z</time>
      </trkpt>
      <trkpt lat="44.92859" lon="-0.02833">
        <ele>99.63</ele>
        <time>2016-04-03T07:43:13Z</time>
      </trkpt>
      <trkpt lat="44.92872" lon="-0.02842">
        <ele>99.63</ele>
        <time>2016-04-03T07:43:27Z</time>
      </trkpt>
      <trkpt lat="44.92886" lon="-0.02849">
        <ele>98.67</ele>
        <time>2016-04-03T07:43:41Z</time>
      </trkpt>
      <trkpt lat="44.92895" lon="-0.02852">
        <ele>98.67</ele>
        <time>2016-04-03T07:43:54Z</time>
      </trkpt>
      <trkpt lat="44.92901" lon="-0.02862">
        <ele>98.67</ele>
        <time>2016-04-03T07:44:07Z</time>
      </trkpt>
      <trkpt lat="44.92901" lon="-0.02864">
        <ele>98.67</ele>
        <time>2016-04-03T07:44:09Z</time>
      </trkpt>
      <trkpt lat="44.929" lon="-0.02871">
        <ele>98.67</ele>
        <time>2016-04-03T07:44:15Z</time>
      </trkpt>
      <trkpt lat="44.92901" lon="-0.02875">
        <ele>98.67</ele>
        <time>2016-04-03T07:44:19Z</time>
      </trkpt>
      <trkpt lat="44.92901" lon="-0.02888">
        <ele>99.63</ele>
        <time>2016-04-03T07:44:28Z</time>
      </trkpt>
      <trkpt lat="44.92901" lon="-0.02905">
        <ele>101.56</ele>
        <time>2016-04-03T07:44:42Z</time>
      </trkpt>
      <trkpt lat="44.92898" lon="-0.02922">
        <ele>103</ele>
        <time>2016-04-03T07:44:56Z</time>
      </trkpt>
      <trkpt lat="44.92898" lon="-0.0294">
        <ele>103.96</ele>
        <time>2016-04-03T07:45:08Z</time>
      </trkpt>
      <trkpt lat="44.92897" lon="-0.02943">
        <ele>104.44</ele>
        <time>2016-04-03T07:45:10Z</time>
      </trkpt>
      <trkpt lat="44.92896" lon="-0.02968">
        <ele>104.44</ele>
        <time>2016-04-03T07:45:26Z</time>
      </trkpt>
      <trkpt lat="44.92894" lon="-0.02994">
        <ele>104.92</ele>
        <time>2016-04-03T07:45:42Z</time>
      </trkpt>
      <trkpt lat="44.92893" lon="-0.03025">
        <ele>104.92</ele>
        <time>2016-04-03T07:46:00Z</time>
      </trkpt>
      <trkpt lat="44.92891" lon="-0.03052">
        <ele>102.52</ele>
        <time>2016-04-03T07:46:16Z</time>
      </trkpt>
      <trkpt lat="44.92893" lon="-0.03064">
        <ele>102.04</ele>
        <time>2016-04-03T07:46:23Z</time>
      </trkpt>
      <trkpt lat="44.92912" lon="-0.03066">
        <ele>102.04</ele>
        <time>2016-04-03T07:46:40Z</time>
      </trkpt>
      <trkpt lat="44.9293" lon="-0.03067">
        <ele>102.04</ele>
        <time>2016-04-03T07:46:55Z</time>
      </trkpt>
      <trkpt lat="44.92947" lon="-0.03067">
        <ele>102.04</ele>
        <time>2016-04-03T07:47:10Z</time>
      </trkpt>
      <trkpt lat="44.92957" lon="-0.03068">
        <ele>102.04</ele>
        <time>2016-04-03T07:47:18Z</time>
      </trkpt>
      <trkpt lat="44.92974" lon="-0.03069">
        <ele>102.04</ele>
        <time>2016-04-03T07:47:34Z</time>
      </trkpt>
      <trkpt lat="44.92995" lon="-0.0307">
        <ele>101.56</ele>
        <time>2016-04-03T07:47:51Z</time>
      </trkpt>
      <trkpt lat="44.93014" lon="-0.03071">
        <ele>101.08</ele>
        <time>2016-04-03T07:48:09Z</time>
      </trkpt>
      <trkpt lat="44.93034" lon="-0.03072">
        <ele>101.08</ele>
        <time>2016-04-03T07:48:27Z</time>
      </trkpt>
      <trkpt lat="44.93052" lon="-0.03073">
        <ele>100.6</ele>
        <time>2016-04-03T07:48:44Z</time>
      </trkpt>
      <trkpt lat="44.9307" lon="-0.03069">
        <ele>100.6</ele>
        <time>2016-04-03T07:49:01Z</time>
      </trkpt>
      <trkpt lat="44.9307" lon="-0.03068">
        <ele>100.6</ele>
        <time>2016-04-03T07:49:02Z</time>
      </trkpt>
      <trkpt lat="44.9307" lon="-0.03036">
        <ele>99.15</ele>
        <time>2016-04-03T07:49:21Z</time>
      </trkpt>
      <trkpt lat="44.93069" lon="-0.03008">
        <ele>101.08</ele>
        <time>2016-04-03T07:49:38Z</time>
      </trkpt>
      <trkpt lat="44.93068" lon="-0.02982">
        <ele>101.56</ele>
        <time>2016-04-03T07:49:53Z</time>
      </trkpt>
      <trkpt lat="44.93066" lon="-0.02954">
        <ele>102.04</ele>
        <time>2016-04-03T07:50:10Z</time>
      </trkpt>
      <trkpt lat="44.93063" lon="-0.02925">
        <ele>102.04</ele>
        <time>2016-04-03T07:50:27Z</time>
      </trkpt>
      <trkpt lat="44.93062" lon="-0.02902">
        <ele>103</ele>
        <time>2016-04-03T07:50:42Z</time>
      </trkpt>
      <trkpt lat="44.93062" lon="-0.029">
        <ele>102.52</ele>
        <time>2016-04-03T07:50:43Z</time>
      </trkpt>
      <trkpt lat="44.93062" lon="-0.02895">
        <ele>102.52</ele>
        <time>2016-04-03T07:50:46Z</time>
      </trkpt>
      <trkpt lat="44.93062" lon="-0.0287">
        <ele>101.56</ele>
        <time>2016-04-03T07:51:01Z</time>
      </trkpt>
      <trkpt lat="44.93063" lon="-0.02867">
        <ele>101.56</ele>
        <time>2016-04-03T07:51:03Z</time>
      </trkpt>
      <trkpt lat="44.93065" lon="-0.02855">
        <ele>101.08</ele>
        <time>2016-04-03T07:51:12Z</time>
      </trkpt>
      <trkpt lat="44.93075" lon="-0.02843">
        <ele>100.11</ele>
        <time>2016-04-03T07:51:24Z</time>
      </trkpt>
      <trkpt lat="44.93093" lon="-0.02839">
        <ele>98.19</ele>
        <time>2016-04-03T07:51:41Z</time>
      </trkpt>
      <trkpt lat="44.93108" lon="-0.02834">
        <ele>97.23</ele>
        <time>2016-04-03T07:51:56Z</time>
      </trkpt>
      <trkpt lat="44.93121" lon="-0.02821">
        <ele>95.79</ele>
        <time>2016-04-03T07:52:12Z</time>
      </trkpt>
      <trkpt lat="44.93121" lon="-0.02819">
        <ele>95.31</ele>
        <time>2016-04-03T07:52:14Z</time>
      </trkpt>
      <trkpt lat="44.93121" lon="-0.02802">
        <ele>92.9</ele>
        <time>2016-04-03T07:52:29Z</time>
      </trkpt>
      <trkpt lat="44.93108" lon="-0.02792">
        <ele>90.02</ele>
        <time>2016-04-03T07:52:46Z</time>
      </trkpt>
      <trkpt lat="44.93093" lon="-0.02782">
        <ele>87.62</ele>
        <time>2016-04-03T07:53:03Z</time>
      </trkpt>
      <trkpt lat="44.93087" lon="-0.02775">
        <ele>87.14</ele>
        <time>2016-04-03T07:53:09Z</time>
      </trkpt>
      <trkpt lat="44.93074" lon="-0.02762">
        <ele>85.69</ele>
        <time>2016-04-03T07:53:23Z</time>
      </trkpt>
      <trkpt lat="44.93059" lon="-0.02754">
        <ele>83.29</ele>
        <time>2016-04-03T07:53:37Z</time>
      </trkpt>
      <trkpt lat="44.93044" lon="-0.02741">
        <ele>81.85</ele>
        <time>2016-04-03T07:53:52Z</time>
      </trkpt>
      <trkpt lat="44.93045" lon="-0.02725">
        <ele>79.45</ele>
        <time>2016-04-03T07:54:07Z</time>
      </trkpt>
      <trkpt lat="44.93048" lon="-0.02725">
        <ele>78.97</ele>
        <time>2016-04-03T07:54:10Z</time>
      </trkpt>
      <trkpt lat="44.93069" lon="-0.02724">
        <ele>77.52</ele>
        <time>2016-04-03T07:54:29Z</time>
      </trkpt>
      <trkpt lat="44.9308" lon="-0.02725">
        <ele>76.56</ele>
        <time>2016-04-03T07:54:38Z</time>
      </trkpt>
      <trkpt lat="44.93097" lon="-0.02724">
        <ele>75.12</ele>
        <time>2016-04-03T07:54:53Z</time>
      </trkpt>
      <trkpt lat="44.93113" lon="-0.0272">
        <ele>73.2</ele>
        <time>2016-04-03T07:55:07Z</time>
      </trkpt>
      <trkpt lat="44.93128" lon="-0.02706">
        <ele>70.31</ele>
        <time>2016-04-03T07:55:21Z</time>
      </trkpt>
      <trkpt lat="44.93141" lon="-0.02692">
        <ele>68.87</ele>
        <time>2016-04-03T07:55:36Z</time>
      </trkpt>
      <trkpt lat="44.93152" lon="-0.02673">
        <ele>66.95</ele>
        <time>2016-04-03T07:55:51Z</time>
      </trkpt>
      <trkpt lat="44.93163" lon="-0.02654">
        <ele>65.51</ele>
        <time>2016-04-03T07:56:06Z</time>
      </trkpt>
      <trkpt lat="44.93164" lon="-0.02652">
        <ele>66.95</ele>
        <time>2016-04-03T07:56:09Z</time>
      </trkpt>
      <trkpt lat="44.93178" lon="-0.02649">
        <ele>67.43</ele>
        <time>2016-04-03T07:56:25Z</time>
      </trkpt>
      <trkpt lat="44.93197" lon="-0.02647">
        <ele>65.99</ele>
        <time>2016-04-03T07:56:43Z</time>
      </trkpt>
      <trkpt lat="44.93214" lon="-0.02644">
        <ele>65.03</ele>
        <time>2016-04-03T07:56:57Z</time>
      </trkpt>
      <trkpt lat="44.93235" lon="-0.02637">
        <ele>63.58</ele>
        <time>2016-04-03T07:57:13Z</time>
      </trkpt>
      <trkpt lat="44.93252" lon="-0.02632">
        <ele>63.58</ele>
        <time>2016-04-03T07:57:28Z</time>
      </trkpt>
      <trkpt lat="44.93271" lon="-0.02626">
        <ele>63.58</ele>
        <time>2016-04-03T07:57:45Z</time>
      </trkpt>
      <trkpt lat="44.93291" lon="-0.02619">
        <ele>63.58</ele>
        <time>2016-04-03T07:58:03Z</time>
      </trkpt>
      <trkpt lat="44.9331" lon="-0.02617">
        <ele>63.58</ele>
        <time>2016-04-03T07:58:20Z</time>
      </trkpt>
      <trkpt lat="44.93328" lon="-0.02611">
        <ele>65.03</ele>
        <time>2016-04-03T07:58:35Z</time>
      </trkpt>
      <trkpt lat="44.93347" lon="-0.02606">
        <ele>65.51</ele>
        <time>2016-04-03T07:58:52Z</time>
      </trkpt>
      <trkpt lat="44.93366" lon="-0.02594">
        <ele>65.51</ele>
        <time>2016-04-03T07:59:09Z</time>
      </trkpt>
      <trkpt lat="44.93381" lon="-0.02588">
        <ele>65.51</ele>
        <time>2016-04-03T07:59:23Z</time>
      </trkpt>
      <trkpt lat="44.93384" lon="-0.02586">
        <ele>65.51</ele>
        <time>2016-04-03T07:59:27Z</time>
      </trkpt>
      <trkpt lat="44.93386" lon="-0.02585">
        <ele>65.51</ele>
        <time>2016-04-03T07:59:29Z</time>
      </trkpt>
      <trkpt lat="44.93391" lon="-0.02582">
        <ele>64.55</ele>
        <time>2016-04-03T07:59:34Z</time>
      </trkpt>
      <trkpt lat="44.9341" lon="-0.02569">
        <ele>62.14</ele>
        <time>2016-04-03T07:59:53Z</time>
      </trkpt>
      <trkpt lat="44.93418" lon="-0.02557">
        <ele>61.18</ele>
        <time>2016-04-03T08:00:07Z</time>
      </trkpt>
      <trkpt lat="44.93421" lon="-0.02554">
        <ele>60.7</ele>
        <time>2016-04-03T08:00:12Z</time>
      </trkpt>
      <trkpt lat="44.93421" lon="-0.02549">
        <ele>60.7</ele>
        <time>2016-04-03T08:00:15Z</time>
      </trkpt>
      <trkpt lat="44.93418" lon="-0.0253">
        <ele>59.74</ele>
        <time>2016-04-03T08:00:28Z</time>
      </trkpt>
      <trkpt lat="44.93414" lon="-0.0251">
        <ele>59.26</ele>
        <time>2016-04-03T08:00:41Z</time>
      </trkpt>
      <trkpt lat="44.93407" lon="-0.02489">
        <ele>58.78</ele>
        <time>2016-04-03T08:00:57Z</time>
      </trkpt>
      <trkpt lat="44.93406" lon="-0.02487">
        <ele>58.78</ele>
        <time>2016-04-03T08:00:59Z</time>
      </trkpt>
      <trkpt lat="44.93397" lon="-0.02479">
        <ele>58.78</ele>
        <time>2016-04-03T08:01:16Z</time>
      </trkpt>
      <trkpt lat="44.93398" lon="-0.02478">
        <ele>58.3</ele>
        <time>2016-04-03T08:01:30Z</time>
      </trkpt>
      <trkpt lat="44.93398" lon="-0.02477">
        <ele>58.3</ele>
        <time>2016-04-03T08:01:49Z</time>
      </trkpt>
      <trkpt lat="44.93399" lon="-0.02477">
        <ele>58.3</ele>
        <time>2016-04-03T08:02:04Z</time>
      </trkpt>
      <trkpt lat="44.93401" lon="-0.02477">
        <ele>58.3</ele>
        <time>2016-04-03T08:02:25Z</time>
      </trkpt>
      <trkpt lat="44.93405" lon="-0.02475">
        <ele>58.3</ele>
        <time>2016-04-03T08:02:39Z</time>
      </trkpt>
      <trkpt lat="44.9341" lon="-0.02472">
        <ele>58.3</ele>
        <time>2016-04-03T08:02:46Z</time>
      </trkpt>
      <trkpt lat="44.93426" lon="-0.02459">
        <ele>58.3</ele>
        <time>2016-04-03T08:03:02Z</time>
      </trkpt>
      <trkpt lat="44.93445" lon="-0.02445">
        <ele>59.74</ele>
        <time>2016-04-03T08:03:20Z</time>
      </trkpt>
      <trkpt lat="44.93462" lon="-0.02432">
        <ele>59.74</ele>
        <time>2016-04-03T08:03:36Z</time>
      </trkpt>
      <trkpt lat="44.9348" lon="-0.0242">
        <ele>59.74</ele>
        <time>2016-04-03T08:03:52Z</time>
      </trkpt>
      <trkpt lat="44.93501" lon="-0.0241">
        <ele>57.82</ele>
        <time>2016-04-03T08:04:10Z</time>
      </trkpt>
      <trkpt lat="44.93524" lon="-0.02401">
        <ele>57.34</ele>
        <time>2016-04-03T08:04:29Z</time>
      </trkpt>
      <trkpt lat="44.9354" lon="-0.02384">
        <ele>57.34</ele>
        <time>2016-04-03T08:04:45Z</time>
      </trkpt>
      <trkpt lat="44.93555" lon="-0.0236">
        <ele>57.34</ele>
        <time>2016-04-03T08:05:03Z</time>
      </trkpt>
      <trkpt lat="44.93569" lon="-0.02338">
        <ele>57.34</ele>
        <time>2016-04-03T08:05:19Z</time>
      </trkpt>
      <trkpt lat="44.93584" lon="-0.02316">
        <ele>57.34</ele>
        <time>2016-04-03T08:05:36Z</time>
      </trkpt>
      <trkpt lat="44.93598" lon="-0.02297">
        <ele>57.34</ele>
        <time>2016-04-03T08:05:51Z</time>
      </trkpt>
      <trkpt lat="44.93607" lon="-0.02279">
        <ele>58.3</ele>
        <time>2016-04-03T08:06:05Z</time>
      </trkpt>
      <trkpt lat="44.93618" lon="-0.02259">
        <ele>59.26</ele>
        <time>2016-04-03T08:06:19Z</time>
      </trkpt>
      <trkpt lat="44.93619" lon="-0.02236">
        <ele>60.22</ele>
        <time>2016-04-03T08:06:33Z</time>
      </trkpt>
      <trkpt lat="44.93616" lon="-0.02219">
        <ele>60.22</ele>
        <time>2016-04-03T08:06:43Z</time>
      </trkpt>
      <trkpt lat="44.93616" lon="-0.02201">
        <ele>58.78</ele>
        <time>2016-04-03T08:06:55Z</time>
      </trkpt>
      <trkpt lat="44.93616" lon="-0.02193">
        <ele>58.78</ele>
        <time>2016-04-03T08:07:11Z</time>
      </trkpt>
      <trkpt lat="44.93614" lon="-0.02194">
        <ele>58.78</ele>
        <time>2016-04-03T08:07:32Z</time>
      </trkpt>
      <trkpt lat="44.93612" lon="-0.02193">
        <ele>58.78</ele>
        <time>2016-04-03T08:07:49Z</time>
      </trkpt>
      <trkpt lat="44.93611" lon="-0.02188">
        <ele>57.82</ele>
        <time>2016-04-03T08:08:07Z</time>
      </trkpt>
      <trkpt lat="44.93611" lon="-0.02179">
        <ele>57.82</ele>
        <time>2016-04-03T08:08:26Z</time>
      </trkpt>
      <trkpt lat="44.93607" lon="-0.02173">
        <ele>57.82</ele>
        <time>2016-04-03T08:08:38Z</time>
      </trkpt>
      <trkpt lat="44.93609" lon="-0.02172">
        <ele>57.82</ele>
        <time>2016-04-03T08:08:56Z</time>
      </trkpt>
      <trkpt lat="44.93603" lon="-0.02169">
        <ele>57.34</ele>
        <time>2016-04-03T08:09:10Z</time>
      </trkpt>
      <trkpt lat="44.93589" lon="-0.02159">
        <ele>56.37</ele>
        <time>2016-04-03T08:09:29Z</time>
      </trkpt>
      <trkpt lat="44.93577" lon="-0.02153">
        <ele>55.89</ele>
        <time>2016-04-03T08:09:45Z</time>
      </trkpt>
      <trkpt lat="44.93569" lon="-0.02152">
        <ele>54.93</ele>
        <time>2016-04-03T08:09:55Z</time>
      </trkpt>
      <trkpt lat="44.93551" lon="-0.02152">
        <ele>54.45</ele>
        <time>2016-04-03T08:10:12Z</time>
      </trkpt>
      <trkpt lat="44.93543" lon="-0.02147">
        <ele>53.97</ele>
        <time>2016-04-03T08:10:26Z</time>
      </trkpt>
      <trkpt lat="44.93545" lon="-0.02143">
        <ele>53.97</ele>
        <time>2016-04-03T08:10:30Z</time>
      </trkpt>
      <trkpt lat="44.93551" lon="-0.02124">
        <ele>53.97</ele>
        <time>2016-04-03T08:10:45Z</time>
      </trkpt>
      <trkpt lat="44.93551" lon="-0.02121">
        <ele>53.97</ele>
        <time>2016-04-03T08:10:47Z</time>
      </trkpt>
      <trkpt lat="44.93561" lon="-0.02102">
        <ele>53.49</ele>
        <time>2016-04-03T08:11:03Z</time>
      </trkpt>
      <trkpt lat="44.93571" lon="-0.02085">
        <ele>53.01</ele>
        <time>2016-04-03T08:11:18Z</time>
      </trkpt>
      <trkpt lat="44.93581" lon="-0.02065">
        <ele>53.01</ele>
        <time>2016-04-03T08:11:34Z</time>
      </trkpt>
      <trkpt lat="44.93588" lon="-0.02048">
        <ele>53.01</ele>
        <time>2016-04-03T08:11:47Z</time>
      </trkpt>
      <trkpt lat="44.93594" lon="-0.02034">
        <ele>53.01</ele>
        <time>2016-04-03T08:11:57Z</time>
      </trkpt>
      <trkpt lat="44.93603" lon="-0.02011">
        <ele>53.01</ele>
        <time>2016-04-03T08:12:14Z</time>
      </trkpt>
      <trkpt lat="44.93611" lon="-0.0199">
        <ele>53.01</ele>
        <time>2016-04-03T08:12:29Z</time>
      </trkpt>
      <trkpt lat="44.93619" lon="-0.01972">
        <ele>54.93</ele>
        <time>2016-04-03T08:12:43Z</time>
      </trkpt>
      <trkpt lat="44.93627" lon="-0.01951">
        <ele>57.34</ele>
        <time>2016-04-03T08:12:59Z</time>
      </trkpt>
      <trkpt lat="44.93634" lon="-0.01934">
        <ele>57.82</ele>
        <time>2016-04-03T08:13:12Z</time>
      </trkpt>
      <trkpt lat="44.93643" lon="-0.01919">
        <ele>58.3</ele>
        <time>2016-04-03T08:13:26Z</time>
      </trkpt>
      <trkpt lat="44.93649" lon="-0.01912">
        <ele>58.3</ele>
        <time>2016-04-03T08:13:41Z</time>
      </trkpt>
      <trkpt lat="44.93651" lon="-0.01902">
        <ele>59.26</ele>
        <time>2016-04-03T08:13:55Z</time>
      </trkpt>
      <trkpt lat="44.93655" lon="-0.01905">
        <ele>59.26</ele>
        <time>2016-04-03T08:14:02Z</time>
      </trkpt>
      <trkpt lat="44.93667" lon="-0.01902">
        <ele>59.26</ele>
        <time>2016-04-03T08:14:17Z</time>
      </trkpt>
      <trkpt lat="44.93673" lon="-0.01891">
        <ele>60.7</ele>
        <time>2016-04-03T08:14:29Z</time>
      </trkpt>
      <trkpt lat="44.93687" lon="-0.01873">
        <ele>60.7</ele>
        <time>2016-04-03T08:14:45Z</time>
      </trkpt>
      <trkpt lat="44.93702" lon="-0.01862">
        <ele>61.18</ele>
        <time>2016-04-03T08:15:00Z</time>
      </trkpt>
      <trkpt lat="44.93719" lon="-0.01849">
        <ele>62.14</ele>
        <time>2016-04-03T08:15:16Z</time>
      </trkpt>
      <trkpt lat="44.93735" lon="-0.01836">
        <ele>63.1</ele>
        <time>2016-04-03T08:15:32Z</time>
      </trkpt>
      <trkpt lat="44.9375" lon="-0.01824">
        <ele>63.58</ele>
        <time>2016-04-03T08:15:48Z</time>
      </trkpt>
      <trkpt lat="44.93761" lon="-0.01816">
        <ele>63.58</ele>
        <time>2016-04-03T08:15:58Z</time>
      </trkpt>
      <trkpt lat="44.9378" lon="-0.01801">
        <ele>64.07</ele>
        <time>2016-04-03T08:16:16Z</time>
      </trkpt>
      <trkpt lat="44.93796" lon="-0.01788">
        <ele>64.07</ele>
        <time>2016-04-03T08:16:33Z</time>
      </trkpt>
      <trkpt lat="44.93813" lon="-0.01774">
        <ele>64.07</ele>
        <time>2016-04-03T08:16:50Z</time>
      </trkpt>
      <trkpt lat="44.93833" lon="-0.01759">
        <ele>64.07</ele>
        <time>2016-04-03T08:17:09Z</time>
      </trkpt>
      <trkpt lat="44.93848" lon="-0.01748">
        <ele>64.55</ele>
        <time>2016-04-03T08:17:24Z</time>
      </trkpt>
      <trkpt lat="44.93865" lon="-0.01735">
        <ele>65.03</ele>
        <time>2016-04-03T08:17:40Z</time>
      </trkpt>
      <trkpt lat="44.93884" lon="-0.01716">
        <ele>65.99</ele>
        <time>2016-04-03T08:18:00Z</time>
      </trkpt>
      <trkpt lat="44.93889" lon="-0.01704">
        <ele>65.99</ele>
        <time>2016-04-03T08:18:09Z</time>
      </trkpt>
      <trkpt lat="44.9389" lon="-0.01698">
        <ele>65.99</ele>
        <time>2016-04-03T08:18:13Z</time>
      </trkpt>
      <trkpt lat="44.9389" lon="-0.01695">
        <ele>65.99</ele>
        <time>2016-04-03T08:18:15Z</time>
      </trkpt>
      <trkpt lat="44.93886" lon="-0.01676">
        <ele>65.99</ele>
        <time>2016-04-03T08:18:29Z</time>
      </trkpt>
      <trkpt lat="44.9388" lon="-0.01658">
        <ele>65.03</ele>
        <time>2016-04-03T08:18:41Z</time>
      </trkpt>
      <trkpt lat="44.93873" lon="-0.01633">
        <ele>64.55</ele>
        <time>2016-04-03T08:18:57Z</time>
      </trkpt>
      <trkpt lat="44.93867" lon="-0.01607">
        <ele>64.55</ele>
        <time>2016-04-03T08:19:13Z</time>
      </trkpt>
      <trkpt lat="44.93865" lon="-0.01598">
        <ele>64.07</ele>
        <time>2016-04-03T08:19:19Z</time>
      </trkpt>
      <trkpt lat="44.9386" lon="-0.01572">
        <ele>64.07</ele>
        <time>2016-04-03T08:19:35Z</time>
      </trkpt>
      <trkpt lat="44.93856" lon="-0.0155">
        <ele>64.07</ele>
        <time>2016-04-03T08:19:49Z</time>
      </trkpt>
      <trkpt lat="44.93851" lon="-0.01523">
        <ele>64.07</ele>
        <time>2016-04-03T08:20:05Z</time>
      </trkpt>
      <trkpt lat="44.93847" lon="-0.01499">
        <ele>65.51</ele>
        <time>2016-04-03T08:20:20Z</time>
      </trkpt>
      <trkpt lat="44.93841" lon="-0.01471">
        <ele>65.51</ele>
        <time>2016-04-03T08:20:37Z</time>
      </trkpt>
      <trkpt lat="44.93835" lon="-0.01444">
        <ele>65.51</ele>
        <time>2016-04-03T08:20:54Z</time>
      </trkpt>
      <trkpt lat="44.93831" lon="-0.01426">
        <ele>65.99</ele>
        <time>2016-04-03T08:21:05Z</time>
      </trkpt>
      <trkpt lat="44.9383" lon="-0.01424">
        <ele>65.99</ele>
        <time>2016-04-03T08:21:07Z</time>
      </trkpt>
      <trkpt lat="44.9383" lon="-0.01394">
        <ele>67.43</ele>
        <time>2016-04-03T08:21:24Z</time>
      </trkpt>
      <trkpt lat="44.9383" lon="-0.01371">
        <ele>67.91</ele>
        <time>2016-04-03T08:21:39Z</time>
      </trkpt>
      <trkpt lat="44.9383" lon="-0.01346">
        <ele>68.39</ele>
        <time>2016-04-03T08:21:54Z</time>
      </trkpt>
      <trkpt lat="44.93832" lon="-0.01318">
        <ele>69.35</ele>
        <time>2016-04-03T08:22:11Z</time>
      </trkpt>
      <trkpt lat="44.93834" lon="-0.01304">
        <ele>69.35</ele>
        <time>2016-04-03T08:22:20Z</time>
      </trkpt>
      <trkpt lat="44.93837" lon="-0.01299">
        <ele>69.35</ele>
        <time>2016-04-03T08:22:24Z</time>
      </trkpt>
      <trkpt lat="44.93855" lon="-0.01295">
        <ele>69.83</ele>
        <time>2016-04-03T08:22:39Z</time>
      </trkpt>
      <trkpt lat="44.93869" lon="-0.01293">
        <ele>68.39</ele>
        <time>2016-04-03T08:22:54Z</time>
      </trkpt>
      <trkpt lat="44.93871" lon="-0.01294">
        <ele>69.83</ele>
        <time>2016-04-03T08:22:57Z</time>
      </trkpt>
      <trkpt lat="44.93882" lon="-0.01292">
        <ele>69.83</ele>
        <time>2016-04-03T08:23:09Z</time>
      </trkpt>
      <trkpt lat="44.939" lon="-0.01289">
        <ele>69.83</ele>
        <time>2016-04-03T08:23:25Z</time>
      </trkpt>
      <trkpt lat="44.93906" lon="-0.01284">
        <ele>69.83</ele>
        <time>2016-04-03T08:23:34Z</time>
      </trkpt>
      <trkpt lat="44.93918" lon="-0.01265">
        <ele>68.39</ele>
        <time>2016-04-03T08:23:51Z</time>
      </trkpt>
      <trkpt lat="44.93921" lon="-0.01261">
        <ele>68.39</ele>
        <time>2016-04-03T08:23:55Z</time>
      </trkpt>
      <trkpt lat="44.93925" lon="-0.01253">
        <ele>68.39</ele>
        <time>2016-04-03T08:24:02Z</time>
      </trkpt>
      <trkpt lat="44.93929" lon="-0.01245">
        <ele>68.39</ele>
        <time>2016-04-03T08:24:09Z</time>
      </trkpt>
      <trkpt lat="44.93928" lon="-0.01236">
        <ele>68.39</ele>
        <time>2016-04-03T08:24:21Z</time>
      </trkpt>
      <trkpt lat="44.9393" lon="-0.01232">
        <ele>68.39</ele>
        <time>2016-04-03T08:24:38Z</time>
      </trkpt>
      <trkpt lat="44.93933" lon="-0.01229">
        <ele>68.39</ele>
        <time>2016-04-03T08:24:54Z</time>
      </trkpt>
      <trkpt lat="44.93932" lon="-0.01228">
        <ele>68.39</ele>
        <time>2016-04-03T08:25:12Z</time>
      </trkpt>
      <trkpt lat="44.9393" lon="-0.0123">
        <ele>68.39</ele>
        <time>2016-04-03T08:25:32Z</time>
      </trkpt>
      <trkpt lat="44.93932" lon="-0.01227">
        <ele>68.39</ele>
        <time>2016-04-03T08:25:51Z</time>
      </trkpt>
      <trkpt lat="44.93932" lon="-0.01226">
        <ele>68.39</ele>
        <time>2016-04-03T08:26:16Z</time>
      </trkpt>
      <trkpt lat="44.93931" lon="-0.01227">
        <ele>68.39</ele>
        <time>2016-04-03T08:26:35Z</time>
      </trkpt>
      <trkpt lat="44.93931" lon="-0.01225">
        <ele>68.39</ele>
        <time>2016-04-03T08:26:55Z</time>
      </trkpt>
      <trkpt lat="44.93932" lon="-0.01225">
        <ele>69.35</ele>
        <time>2016-04-03T08:27:35Z</time>
      </trkpt>
      <trkpt lat="44.93932" lon="-0.01225">
        <ele>67.91</ele>
        <time>2016-04-03T08:27:38Z</time>
      </trkpt>
      <trkpt lat="44.93932" lon="-0.01225">
        <ele>69.35</ele>
        <time>2016-04-03T08:28:08Z</time>
      </trkpt>
      <trkpt lat="44.93932" lon="-0.01225">
        <ele>69.35</ele>
        <time>2016-04-03T08:28:25Z</time>
      </trkpt>
      <trkpt lat="44.93935" lon="-0.01219">
        <ele>69.35</ele>
        <time>2016-04-03T08:28:53Z</time>
      </trkpt>
      <trkpt lat="44.93938" lon="-0.01214">
        <ele>69.35</ele>
        <time>2016-04-03T08:28:58Z</time>
      </trkpt>
      <trkpt lat="44.9394" lon="-0.01212">
        <ele>69.35</ele>
        <time>2016-04-03T08:29:00Z</time>
      </trkpt>
      <trkpt lat="44.93951" lon="-0.01196">
        <ele>67.91</ele>
        <time>2016-04-03T08:29:15Z</time>
      </trkpt>
      <trkpt lat="44.93961" lon="-0.01186">
        <ele>67.91</ele>
        <time>2016-04-03T08:29:29Z</time>
      </trkpt>
      <trkpt lat="44.93966" lon="-0.01182">
        <ele>67.43</ele>
        <time>2016-04-03T08:29:46Z</time>
      </trkpt>
      <trkpt lat="44.93976" lon="-0.01171">
        <ele>67.43</ele>
        <time>2016-04-03T08:29:59Z</time>
      </trkpt>
      <trkpt lat="44.93994" lon="-0.01155">
        <ele>67.43</ele>
        <time>2016-04-03T08:30:16Z</time>
      </trkpt>
      <trkpt lat="44.94011" lon="-0.01138">
        <ele>67.43</ele>
        <time>2016-04-03T08:30:35Z</time>
      </trkpt>
      <trkpt lat="44.94031" lon="-0.01119">
        <ele>66.47</ele>
        <time>2016-04-03T08:30:56Z</time>
      </trkpt>
      <trkpt lat="44.94046" lon="-0.01105">
        <ele>65.03</ele>
        <time>2016-04-03T08:31:11Z</time>
      </trkpt>
      <trkpt lat="44.94063" lon="-0.01093">
        <ele>64.55</ele>
        <time>2016-04-03T08:31:27Z</time>
      </trkpt>
      <trkpt lat="44.94084" lon="-0.0108">
        <ele>64.07</ele>
        <time>2016-04-03T08:31:45Z</time>
      </trkpt>
      <trkpt lat="44.94091" lon="-0.01073">
        <ele>63.1</ele>
        <time>2016-04-03T08:31:54Z</time>
      </trkpt>
      <trkpt lat="44.94091" lon="-0.01052">
        <ele>61.66</ele>
        <time>2016-04-03T08:32:10Z</time>
      </trkpt>
      <trkpt lat="44.94092" lon="-0.01047">
        <ele>61.66</ele>
        <time>2016-04-03T08:32:14Z</time>
      </trkpt>
      <trkpt lat="44.94094" lon="-0.01043">
        <ele>61.18</ele>
        <time>2016-04-03T08:32:17Z</time>
      </trkpt>
      <trkpt lat="44.94098" lon="-0.01037">
        <ele>61.18</ele>
        <time>2016-04-03T08:32:23Z</time>
      </trkpt>
      <trkpt lat="44.94104" lon="-0.01025">
        <ele>59.74</ele>
        <time>2016-04-03T08:32:39Z</time>
      </trkpt>
      <trkpt lat="44.94106" lon="-0.0102">
        <ele>59.74</ele>
        <time>2016-04-03T08:32:55Z</time>
      </trkpt>
      <trkpt lat="44.94106" lon="-0.00999">
        <ele>59.26</ele>
        <time>2016-04-03T08:33:08Z</time>
      </trkpt>
      <trkpt lat="44.94112" lon="-0.00972">
        <ele>58.3</ele>
        <time>2016-04-03T08:33:25Z</time>
      </trkpt>
      <trkpt lat="44.94117" lon="-0.00954">
        <ele>58.3</ele>
        <time>2016-04-03T08:33:38Z</time>
      </trkpt>
      <trkpt lat="44.94121" lon="-0.00945">
        <ele>58.3</ele>
        <time>2016-04-03T08:33:45Z</time>
      </trkpt>
      <trkpt lat="44.94125" lon="-0.00941">
        <ele>58.3</ele>
        <time>2016-04-03T08:33:50Z</time>
      </trkpt>
      <trkpt lat="44.94142" lon="-0.00926">
        <ele>58.3</ele>
        <time>2016-04-03T08:34:08Z</time>
      </trkpt>
      <trkpt lat="44.9416" lon="-0.0091">
        <ele>58.3</ele>
        <time>2016-04-03T08:34:26Z</time>
      </trkpt>
      <trkpt lat="44.94177" lon="-0.00895">
        <ele>57.34</ele>
        <time>2016-04-03T08:34:42Z</time>
      </trkpt>
      <trkpt lat="44.94194" lon="-0.00881">
        <ele>57.34</ele>
        <time>2016-04-03T08:34:59Z</time>
      </trkpt>
      <trkpt lat="44.94214" lon="-0.00864">
        <ele>57.34</ele>
        <time>2016-04-03T08:35:17Z</time>
      </trkpt>
      <trkpt lat="44.94224" lon="-0.00853">
        <ele>57.34</ele>
        <time>2016-04-03T08:35:28Z</time>
      </trkpt>
      <trkpt lat="44.94232" lon="-0.00856">
        <ele>56.86</ele>
        <time>2016-04-03T08:35:34Z</time>
      </trkpt>
      <trkpt lat="44.94244" lon="-0.00878">
        <ele>56.86</ele>
        <time>2016-04-03T08:35:50Z</time>
      </trkpt>
      <trkpt lat="44.94258" lon="-0.009">
        <ele>56.86</ele>
        <time>2016-04-03T08:36:07Z</time>
      </trkpt>
      <trkpt lat="44.94279" lon="-0.00895">
        <ele>56.86</ele>
        <time>2016-04-03T08:36:25Z</time>
      </trkpt>
      <trkpt lat="44.94299" lon="-0.00889">
        <ele>56.86</ele>
        <time>2016-04-03T08:36:42Z</time>
      </trkpt>
      <trkpt lat="44.94321" lon="-0.00883">
        <ele>56.86</ele>
        <time>2016-04-03T08:37:00Z</time>
      </trkpt>
      <trkpt lat="44.9434" lon="-0.00878">
        <ele>56.86</ele>
        <time>2016-04-03T08:37:17Z</time>
      </trkpt>
      <trkpt lat="44.94362" lon="-0.00873">
        <ele>58.3</ele>
        <time>2016-04-03T08:37:34Z</time>
      </trkpt>
      <trkpt lat="44.94379" lon="-0.00866">
        <ele>59.74</ele>
        <time>2016-04-03T08:37:51Z</time>
      </trkpt>
      <trkpt lat="44.94389" lon="-0.00863">
        <ele>60.7</ele>
        <time>2016-04-03T08:38:05Z</time>
      </trkpt>
      <trkpt lat="44.94391" lon="-0.00861">
        <ele>60.7</ele>
        <time>2016-04-03T08:38:27Z</time>
      </trkpt>
      <trkpt lat="44.94398" lon="-0.0086">
        <ele>61.66</ele>
        <time>2016-04-03T08:38:45Z</time>
      </trkpt>
      <trkpt lat="44.94415" lon="-0.00857">
        <ele>63.1</ele>
        <time>2016-04-03T08:39:01Z</time>
      </trkpt>
      <trkpt lat="44.94433" lon="-0.00853">
        <ele>65.03</ele>
        <time>2016-04-03T08:39:18Z</time>
      </trkpt>
      <trkpt lat="44.94447" lon="-0.0085">
        <ele>66.47</ele>
        <time>2016-04-03T08:39:34Z</time>
      </trkpt>
      <trkpt lat="44.94462" lon="-0.00845">
        <ele>68.87</ele>
        <time>2016-04-03T08:39:51Z</time>
      </trkpt>
      <trkpt lat="44.94473" lon="-0.00846">
        <ele>72.24</ele>
        <time>2016-04-03T08:40:04Z</time>
      </trkpt>
      <trkpt lat="44.94491" lon="-0.0084">
        <ele>76.08</ele>
        <time>2016-04-03T08:40:22Z</time>
      </trkpt>
      <trkpt lat="44.94504" lon="-0.00838">
        <ele>78</ele>
        <time>2016-04-03T08:40:36Z</time>
      </trkpt>
      <trkpt lat="44.94512" lon="-0.00837">
        <ele>80.41</ele>
        <time>2016-04-03T08:40:44Z</time>
      </trkpt>
      <trkpt lat="44.94524" lon="-0.00817">
        <ele>82.81</ele>
        <time>2016-04-03T08:41:01Z</time>
      </trkpt>
      <trkpt lat="44.94533" lon="-0.00805">
        <ele>85.69</ele>
        <time>2016-04-03T08:41:14Z</time>
      </trkpt>
      <trkpt lat="44.94552" lon="-0.00793">
        <ele>85.69</ele>
        <time>2016-04-03T08:41:33Z</time>
      </trkpt>
      <trkpt lat="44.94552" lon="-0.0079">
        <ele>85.21</ele>
        <time>2016-04-03T08:42:46Z</time>
      </trkpt>
      <trkpt lat="44.94551" lon="-0.00786">
        <ele>85.69</ele>
        <time>2016-04-03T08:45:37Z</time>
      </trkpt>
      <trkpt lat="44.9455" lon="-0.00787">
        <ele>84.73</ele>
        <time>2016-04-03T08:46:03Z</time>
      </trkpt>
      <trkpt lat="44.94548" lon="-0.00787">
        <ele>84.73</ele>
        <time>2016-04-03T08:46:30Z</time>
      </trkpt>
      <trkpt lat="44.94542" lon="-0.0078">
        <ele>83.77</ele>
        <time>2016-04-03T08:46:42Z</time>
      </trkpt>
      <trkpt lat="44.94538" lon="-0.00763">
        <ele>83.77</ele>
        <time>2016-04-03T08:46:57Z</time>
      </trkpt>
      <trkpt lat="44.94538" lon="-0.00754">
        <ele>84.73</ele>
        <time>2016-04-03T08:47:10Z</time>
      </trkpt>
      <trkpt lat="44.94541" lon="-0.00744">
        <ele>85.21</ele>
        <time>2016-04-03T08:47:22Z</time>
      </trkpt>
      <trkpt lat="44.94541" lon="-0.00731">
        <ele>85.69</ele>
        <time>2016-04-03T08:47:36Z</time>
      </trkpt>
      <trkpt lat="44.94537" lon="-0.00721">
        <ele>86.18</ele>
        <time>2016-04-03T08:47:43Z</time>
      </trkpt>
      <trkpt lat="44.94536" lon="-0.00705">
        <ele>86.18</ele>
        <time>2016-04-03T08:47:56Z</time>
      </trkpt>
      <trkpt lat="44.94534" lon="-0.00688">
        <ele>86.18</ele>
        <time>2016-04-03T08:48:09Z</time>
      </trkpt>
      <trkpt lat="44.94532" lon="-0.0067">
        <ele>86.18</ele>
        <time>2016-04-03T08:48:22Z</time>
      </trkpt>
      <trkpt lat="44.94528" lon="-0.00658">
        <ele>86.66</ele>
        <time>2016-04-03T08:48:35Z</time>
      </trkpt>
      <trkpt lat="44.94528" lon="-0.00657">
        <ele>88.1</ele>
        <time>2016-04-03T09:05:27Z</time>
      </trkpt>
      <trkpt lat="44.94531" lon="-0.00654">
        <ele>88.1</ele>
        <time>2016-04-03T09:05:42Z</time>
      </trkpt>
      <trkpt lat="44.94537" lon="-0.0065">
        <ele>88.1</ele>
        <time>2016-04-03T09:05:50Z</time>
      </trkpt>
      <trkpt lat="44.94551" lon="-0.00639">
        <ele>89.54</ele>
        <time>2016-04-03T09:06:06Z</time>
      </trkpt>
      <trkpt lat="44.94566" lon="-0.00631">
        <ele>89.54</ele>
        <time>2016-04-03T09:06:21Z</time>
      </trkpt>
      <trkpt lat="44.94567" lon="-0.00631">
        <ele>89.54</ele>
        <time>2016-04-03T09:06:22Z</time>
      </trkpt>
      <trkpt lat="44.94584" lon="-0.00621">
        <ele>90.02</ele>
        <time>2016-04-03T09:06:37Z</time>
      </trkpt>
      <trkpt lat="44.94601" lon="-0.00613">
        <ele>90.02</ele>
        <time>2016-04-03T09:06:53Z</time>
      </trkpt>
      <trkpt lat="44.94621" lon="-0.00608">
        <ele>90.02</ele>
        <time>2016-04-03T09:07:10Z</time>
      </trkpt>
      <trkpt lat="44.94636" lon="-0.00605">
        <ele>90.02</ele>
        <time>2016-04-03T09:07:25Z</time>
      </trkpt>
      <trkpt lat="44.9464" lon="-0.00603">
        <ele>90.02</ele>
        <time>2016-04-03T09:07:29Z</time>
      </trkpt>
      <trkpt lat="44.94658" lon="-0.00603">
        <ele>90.02</ele>
        <time>2016-04-03T09:07:46Z</time>
      </trkpt>
      <trkpt lat="44.94679" lon="-0.00601">
        <ele>89.06</ele>
        <time>2016-04-03T09:08:03Z</time>
      </trkpt>
      <trkpt lat="44.9469" lon="-0.00601">
        <ele>89.06</ele>
        <time>2016-04-03T09:08:14Z</time>
      </trkpt>
      <trkpt lat="44.94694" lon="-0.006">
        <ele>89.06</ele>
        <time>2016-04-03T09:08:17Z</time>
      </trkpt>
      <trkpt lat="44.94697" lon="-0.00601">
        <ele>89.06</ele>
        <time>2016-04-03T09:08:20Z</time>
      </trkpt>
      <trkpt lat="44.94705" lon="-0.00597">
        <ele>88.1</ele>
        <time>2016-04-03T09:08:29Z</time>
      </trkpt>
      <trkpt lat="44.94705" lon="-0.00594">
        <ele>88.1</ele>
        <time>2016-04-03T09:08:31Z</time>
      </trkpt>
      <trkpt lat="44.94702" lon="-0.0058">
        <ele>88.1</ele>
        <time>2016-04-03T09:08:40Z</time>
      </trkpt>
      <trkpt lat="44.94698" lon="-0.00566">
        <ele>88.1</ele>
        <time>2016-04-03T09:08:50Z</time>
      </trkpt>
      <trkpt lat="44.94697" lon="-0.00557">
        <ele>88.1</ele>
        <time>2016-04-03T09:10:41Z</time>
      </trkpt>
      <trkpt lat="44.94696" lon="-0.00556">
        <ele>89.54</ele>
        <time>2016-04-03T09:10:57Z</time>
      </trkpt>
      <trkpt lat="44.94696" lon="-0.00555">
        <ele>89.54</ele>
        <time>2016-04-03T09:12:12Z</time>
      </trkpt>
      <trkpt lat="44.94694" lon="-0.0055">
        <ele>89.54</ele>
        <time>2016-04-03T09:12:25Z</time>
      </trkpt>
      <trkpt lat="44.94687" lon="-0.00531">
        <ele>88.1</ele>
        <time>2016-04-03T09:12:39Z</time>
      </trkpt>
      <trkpt lat="44.94681" lon="-0.00514">
        <ele>87.14</ele>
        <time>2016-04-03T09:12:53Z</time>
      </trkpt>
      <trkpt lat="44.9468" lon="-0.00497">
        <ele>85.69</ele>
        <time>2016-04-03T09:13:06Z</time>
      </trkpt>
      <trkpt lat="44.94681" lon="-0.00496">
        <ele>85.69</ele>
        <time>2016-04-03T09:13:07Z</time>
      </trkpt>
      <trkpt lat="44.94695" lon="-0.00488">
        <ele>85.21</ele>
        <time>2016-04-03T09:13:22Z</time>
      </trkpt>
      <trkpt lat="44.94699" lon="-0.00486">
        <ele>85.21</ele>
        <time>2016-04-03T09:13:26Z</time>
      </trkpt>
      <trkpt lat="44.94701" lon="-0.00486">
        <ele>85.21</ele>
        <time>2016-04-03T09:13:28Z</time>
      </trkpt>
      <trkpt lat="44.9472" lon="-0.00481">
        <ele>86.18</ele>
        <time>2016-04-03T09:13:44Z</time>
      </trkpt>
      <trkpt lat="44.94728" lon="-0.00478">
        <ele>86.18</ele>
        <time>2016-04-03T09:13:51Z</time>
      </trkpt>
      <trkpt lat="44.94732" lon="-0.00463">
        <ele>86.18</ele>
        <time>2016-04-03T09:14:01Z</time>
      </trkpt>
      <trkpt lat="44.94734" lon="-0.00457">
        <ele>86.18</ele>
        <time>2016-04-03T09:14:05Z</time>
      </trkpt>
      <trkpt lat="44.94734" lon="-0.0045">
        <ele>84.73</ele>
        <time>2016-04-03T09:14:09Z</time>
      </trkpt>
      <trkpt lat="44.94736" lon="-0.00435">
        <ele>83.29</ele>
        <time>2016-04-03T09:14:27Z</time>
      </trkpt>
      <trkpt lat="44.94737" lon="-0.00433">
        <ele>84.25</ele>
        <time>2016-04-03T09:14:37Z</time>
      </trkpt>
      <trkpt lat="44.94736" lon="-0.00433">
        <ele>82.81</ele>
        <time>2016-04-03T09:14:52Z</time>
      </trkpt>
      <trkpt lat="44.94747" lon="-0.00427">
        <ele>82.33</ele>
        <time>2016-04-03T09:15:08Z</time>
      </trkpt>
      <trkpt lat="44.94756" lon="-0.00436">
        <ele>83.77</ele>
        <time>2016-04-03T09:15:21Z</time>
      </trkpt>
      <trkpt lat="44.94762" lon="-0.00454">
        <ele>85.21</ele>
        <time>2016-04-03T09:15:36Z</time>
      </trkpt>
      <trkpt lat="44.94767" lon="-0.00463">
        <ele>85.21</ele>
        <time>2016-04-03T09:15:45Z</time>
      </trkpt>
      <trkpt lat="44.94774" lon="-0.00465">
        <ele>83.77</ele>
        <time>2016-04-03T09:15:53Z</time>
      </trkpt>
      <trkpt lat="44.94784" lon="-0.00472">
        <ele>82.81</ele>
        <time>2016-04-03T09:16:06Z</time>
      </trkpt>
      <trkpt lat="44.94788" lon="-0.00479">
        <ele>82.81</ele>
        <time>2016-04-03T09:16:13Z</time>
      </trkpt>
      <trkpt lat="44.94797" lon="-0.00492">
        <ele>81.85</ele>
        <time>2016-04-03T09:16:25Z</time>
      </trkpt>
      <trkpt lat="44.94802" lon="-0.00499">
        <ele>81.37</ele>
        <time>2016-04-03T09:16:31Z</time>
      </trkpt>
      <trkpt lat="44.94804" lon="-0.00503">
        <ele>80.89</ele>
        <time>2016-04-03T09:16:34Z</time>
      </trkpt>
      <trkpt lat="44.94817" lon="-0.0051">
        <ele>79.45</ele>
        <time>2016-04-03T09:16:49Z</time>
      </trkpt>
      <trkpt lat="44.94831" lon="-0.00503">
        <ele>76.08</ele>
        <time>2016-04-03T09:17:05Z</time>
      </trkpt>
      <trkpt lat="44.9484" lon="-0.00498">
        <ele>73.68</ele>
        <time>2016-04-03T09:17:19Z</time>
      </trkpt>
      <trkpt lat="44.94843" lon="-0.00499">
        <ele>73.2</ele>
        <time>2016-04-03T09:17:23Z</time>
      </trkpt>
      <trkpt lat="44.94858" lon="-0.00491">
        <ele>69.35</ele>
        <time>2016-04-03T09:17:39Z</time>
      </trkpt>
      <trkpt lat="44.94871" lon="-0.00484">
        <ele>65.99</ele>
        <time>2016-04-03T09:17:52Z</time>
      </trkpt>
      <trkpt lat="44.94875" lon="-0.00481">
        <ele>65.51</ele>
        <time>2016-04-03T09:17:56Z</time>
      </trkpt>
      <trkpt lat="44.94887" lon="-0.00474">
        <ele>64.07</ele>
        <time>2016-04-03T09:18:13Z</time>
      </trkpt>
      <trkpt lat="44.94896" lon="-0.00467">
        <ele>63.58</ele>
        <time>2016-04-03T09:18:28Z</time>
      </trkpt>
      <trkpt lat="44.94912" lon="-0.00463">
        <ele>63.1</ele>
        <time>2016-04-03T09:18:44Z</time>
      </trkpt>
      <trkpt lat="44.94919" lon="-0.00463">
        <ele>63.1</ele>
        <time>2016-04-03T09:18:50Z</time>
      </trkpt>
      <trkpt lat="44.94936" lon="-0.0046">
        <ele>63.1</ele>
        <time>2016-04-03T09:19:04Z</time>
      </trkpt>
      <trkpt lat="44.94939" lon="-0.00459">
        <ele>63.1</ele>
        <time>2016-04-03T09:19:07Z</time>
      </trkpt>
      <trkpt lat="44.9495" lon="-0.00462">
        <ele>64.55</ele>
        <time>2016-04-03T09:19:18Z</time>
      </trkpt>
      <trkpt lat="44.94952" lon="-0.00467">
        <ele>65.03</ele>
        <time>2016-04-03T09:19:22Z</time>
      </trkpt>
      <trkpt lat="44.94958" lon="-0.00485">
        <ele>66.47</ele>
        <time>2016-04-03T09:19:35Z</time>
      </trkpt>
      <trkpt lat="44.94959" lon="-0.00491">
        <ele>66.47</ele>
        <time>2016-04-03T09:19:39Z</time>
      </trkpt>
      <trkpt lat="44.94966" lon="-0.00516">
        <ele>67.91</ele>
        <time>2016-04-03T09:19:55Z</time>
      </trkpt>
      <trkpt lat="44.94971" lon="-0.00537">
        <ele>69.35</ele>
        <time>2016-04-03T09:20:08Z</time>
      </trkpt>
      <trkpt lat="44.94972" lon="-0.00542">
        <ele>69.83</ele>
        <time>2016-04-03T09:20:11Z</time>
      </trkpt>
      <trkpt lat="44.94979" lon="-0.00567">
        <ele>70.79</ele>
        <time>2016-04-03T09:20:27Z</time>
      </trkpt>
      <trkpt lat="44.94985" lon="-0.00589">
        <ele>71.76</ele>
        <time>2016-04-03T09:20:41Z</time>
      </trkpt>
      <trkpt lat="44.94992" lon="-0.00612">
        <ele>71.76</ele>
        <time>2016-04-03T09:20:55Z</time>
      </trkpt>
      <trkpt lat="44.94996" lon="-0.00632">
        <ele>72.24</ele>
        <time>2016-04-03T09:21:08Z</time>
      </trkpt>
      <trkpt lat="44.94997" lon="-0.00636">
        <ele>72.72</ele>
        <time>2016-04-03T09:21:11Z</time>
      </trkpt>
      <trkpt lat="44.94998" lon="-0.00644">
        <ele>72.72</ele>
        <time>2016-04-03T09:21:25Z</time>
      </trkpt>
      <trkpt lat="44.94998" lon="-0.00646">
        <ele>72.72</ele>
        <time>2016-04-03T09:21:28Z</time>
      </trkpt>
      <trkpt lat="44.94988" lon="-0.00657">
        <ele>72.72</ele>
        <time>2016-04-03T09:21:45Z</time>
      </trkpt>
      <trkpt lat="44.94989" lon="-0.00656">
        <ele>72.72</ele>
        <time>2016-04-03T09:22:03Z</time>
      </trkpt>
      <trkpt lat="44.94993" lon="-0.00654">
        <ele>72.72</ele>
        <time>2016-04-03T09:22:23Z</time>
      </trkpt>
      <trkpt lat="44.9499" lon="-0.00656">
        <ele>72.72</ele>
        <time>2016-04-03T09:22:39Z</time>
      </trkpt>
      <trkpt lat="44.94982" lon="-0.00666">
        <ele>72.72</ele>
        <time>2016-04-03T09:22:54Z</time>
      </trkpt>
      <trkpt lat="44.94982" lon="-0.00685">
        <ele>72.72</ele>
        <time>2016-04-03T09:23:08Z</time>
      </trkpt>
      <trkpt lat="44.9498" lon="-0.00695">
        <ele>72.72</ele>
        <time>2016-04-03T09:23:15Z</time>
      </trkpt>
      <trkpt lat="44.94979" lon="-0.00708">
        <ele>71.76</ele>
        <time>2016-04-03T09:23:25Z</time>
      </trkpt>
      <trkpt lat="44.94983" lon="-0.00713">
        <ele>71.76</ele>
        <time>2016-04-03T09:23:41Z</time>
      </trkpt>
      <trkpt lat="44.94986" lon="-0.00712">
        <ele>73.2</ele>
        <time>2016-04-03T09:23:53Z</time>
      </trkpt>
      <trkpt lat="44.94992" lon="-0.00714">
        <ele>73.2</ele>
        <time>2016-04-03T09:24:04Z</time>
      </trkpt>
      <trkpt lat="44.95007" lon="-0.00723">
        <ele>73.2</ele>
        <time>2016-04-03T09:24:20Z</time>
      </trkpt>
      <trkpt lat="44.95024" lon="-0.00722">
        <ele>73.68</ele>
        <time>2016-04-03T09:24:35Z</time>
      </trkpt>
      <trkpt lat="44.95025" lon="-0.00721">
        <ele>73.68</ele>
        <time>2016-04-03T09:24:36Z</time>
      </trkpt>
      <trkpt lat="44.9503" lon="-0.0072">
        <ele>73.68</ele>
        <time>2016-04-03T09:24:49Z</time>
      </trkpt>
      <trkpt lat="44.95043" lon="-0.00717">
        <ele>74.16</ele>
        <time>2016-04-03T09:25:03Z</time>
      </trkpt>
      <trkpt lat="44.95047" lon="-0.00713">
        <ele>74.16</ele>
        <time>2016-04-03T09:25:17Z</time>
      </trkpt>
      <trkpt lat="44.95048" lon="-0.00713">
        <ele>74.16</ele>
        <time>2016-04-03T09:25:18Z</time>
      </trkpt>
      <trkpt lat="44.95064" lon="-0.00711">
        <ele>75.12</ele>
        <time>2016-04-03T09:25:35Z</time>
      </trkpt>
      <trkpt lat="44.95082" lon="-0.00709">
        <ele>76.08</ele>
        <time>2016-04-03T09:25:52Z</time>
      </trkpt>
      <trkpt lat="44.95095" lon="-0.00707">
        <ele>76.56</ele>
        <time>2016-04-03T09:26:05Z</time>
      </trkpt>
      <trkpt lat="44.95109" lon="-0.00702">
        <ele>77.04</ele>
        <time>2016-04-03T09:26:19Z</time>
      </trkpt>
      <trkpt lat="44.95119" lon="-0.00705">
        <ele>78.48</ele>
        <time>2016-04-03T09:26:35Z</time>
      </trkpt>
      <trkpt lat="44.95122" lon="-0.00712">
        <ele>78.97</ele>
        <time>2016-04-03T09:26:41Z</time>
      </trkpt>
      <trkpt lat="44.95129" lon="-0.00736">
        <ele>78.97</ele>
        <time>2016-04-03T09:26:56Z</time>
      </trkpt>
      <trkpt lat="44.95132" lon="-0.00747">
        <ele>79.45</ele>
        <time>2016-04-03T09:27:08Z</time>
      </trkpt>
      <trkpt lat="44.95141" lon="-0.00763">
        <ele>79.93</ele>
        <time>2016-04-03T09:27:23Z</time>
      </trkpt>
      <trkpt lat="44.95155" lon="-0.00773">
        <ele>79.93</ele>
        <time>2016-04-03T09:27:37Z</time>
      </trkpt>
      <trkpt lat="44.95171" lon="-0.00782">
        <ele>80.41</ele>
        <time>2016-04-03T09:27:53Z</time>
      </trkpt>
      <trkpt lat="44.95178" lon="-0.00782">
        <ele>80.89</ele>
        <time>2016-04-03T09:28:05Z</time>
      </trkpt>
      <trkpt lat="44.95182" lon="-0.00785">
        <ele>80.89</ele>
        <time>2016-04-03T09:28:22Z</time>
      </trkpt>
      <trkpt lat="44.95188" lon="-0.00792">
        <ele>80.89</ele>
        <time>2016-04-03T09:28:42Z</time>
      </trkpt>
      <trkpt lat="44.95186" lon="-0.00794">
        <ele>79.45</ele>
        <time>2016-04-03T09:28:57Z</time>
      </trkpt>
      <trkpt lat="44.95185" lon="-0.00795">
        <ele>78.97</ele>
        <time>2016-04-03T09:29:14Z</time>
      </trkpt>
      <trkpt lat="44.95185" lon="-0.008">
        <ele>78.97</ele>
        <time>2016-04-03T09:29:17Z</time>
      </trkpt>
      <trkpt lat="44.95187" lon="-0.00805">
        <ele>78.97</ele>
        <time>2016-04-03T09:29:21Z</time>
      </trkpt>
      <trkpt lat="44.952" lon="-0.00818">
        <ele>79.45</ele>
        <time>2016-04-03T09:29:37Z</time>
      </trkpt>
      <trkpt lat="44.95212" lon="-0.00833">
        <ele>78.97</ele>
        <time>2016-04-03T09:29:52Z</time>
      </trkpt>
      <trkpt lat="44.95214" lon="-0.00835">
        <ele>80.41</ele>
        <time>2016-04-03T09:29:54Z</time>
      </trkpt>
      <trkpt lat="44.95216" lon="-0.00838">
        <ele>80.41</ele>
        <time>2016-04-03T09:29:57Z</time>
      </trkpt>
      <trkpt lat="44.95228" lon="-0.00855">
        <ele>80.41</ele>
        <time>2016-04-03T09:30:13Z</time>
      </trkpt>
      <trkpt lat="44.9523" lon="-0.00858">
        <ele>80.41</ele>
        <time>2016-04-03T09:30:16Z</time>
      </trkpt>
      <trkpt lat="44.95237" lon="-0.0087">
        <ele>80.89</ele>
        <time>2016-04-03T09:30:27Z</time>
      </trkpt>
      <trkpt lat="44.95249" lon="-0.00887">
        <ele>80.89</ele>
        <time>2016-04-03T09:30:44Z</time>
      </trkpt>
      <trkpt lat="44.95262" lon="-0.00903">
        <ele>80.89</ele>
        <time>2016-04-03T09:31:00Z</time>
      </trkpt>
      <trkpt lat="44.95276" lon="-0.00918">
        <ele>80.89</ele>
        <time>2016-04-03T09:31:16Z</time>
      </trkpt>
      <trkpt lat="44.9529" lon="-0.00935">
        <ele>80.89</ele>
        <time>2016-04-03T09:31:33Z</time>
      </trkpt>
      <trkpt lat="44.95303" lon="-0.00958">
        <ele>80.89</ele>
        <time>2016-04-03T09:31:51Z</time>
      </trkpt>
      <trkpt lat="44.95314" lon="-0.00972">
        <ele>80.89</ele>
        <time>2016-04-03T09:32:05Z</time>
      </trkpt>
      <trkpt lat="44.9532" lon="-0.00979">
        <ele>80.89</ele>
        <time>2016-04-03T09:32:12Z</time>
      </trkpt>
      <trkpt lat="44.95334" lon="-0.00997">
        <ele>80.89</ele>
        <time>2016-04-03T09:32:29Z</time>
      </trkpt>
      <trkpt lat="44.95348" lon="-0.01015">
        <ele>81.37</ele>
        <time>2016-04-03T09:32:46Z</time>
      </trkpt>
      <trkpt lat="44.95357" lon="-0.01028">
        <ele>81.37</ele>
        <time>2016-04-03T09:32:59Z</time>
      </trkpt>
      <trkpt lat="44.95363" lon="-0.01039">
        <ele>81.37</ele>
        <time>2016-04-03T09:33:14Z</time>
      </trkpt>
      <trkpt lat="44.9537" lon="-0.01051">
        <ele>81.37</ele>
        <time>2016-04-03T09:33:26Z</time>
      </trkpt>
      <trkpt lat="44.95375" lon="-0.01068">
        <ele>81.37</ele>
        <time>2016-04-03T09:33:41Z</time>
      </trkpt>
      <trkpt lat="44.95378" lon="-0.01083">
        <ele>81.37</ele>
        <time>2016-04-03T09:33:55Z</time>
      </trkpt>
      <trkpt lat="44.9538" lon="-0.01088">
        <ele>81.37</ele>
        <time>2016-04-03T09:33:59Z</time>
      </trkpt>
      <trkpt lat="44.95395" lon="-0.01089">
        <ele>82.33</ele>
        <time>2016-04-03T09:34:15Z</time>
      </trkpt>
      <trkpt lat="44.95401" lon="-0.01085">
        <ele>82.33</ele>
        <time>2016-04-03T09:34:33Z</time>
      </trkpt>
      <trkpt lat="44.95403" lon="-0.0109">
        <ele>82.33</ele>
        <time>2016-04-03T09:34:40Z</time>
      </trkpt>
      <trkpt lat="44.95406" lon="-0.01111">
        <ele>82.33</ele>
        <time>2016-04-03T09:34:55Z</time>
      </trkpt>
      <trkpt lat="44.95406" lon="-0.01114">
        <ele>82.33</ele>
        <time>2016-04-03T09:35:11Z</time>
      </trkpt>
      <trkpt lat="44.95404" lon="-0.01112">
        <ele>81.37</ele>
        <time>2016-04-03T09:36:04Z</time>
      </trkpt>
      <trkpt lat="44.95403" lon="-0.01112">
        <ele>81.37</ele>
        <time>2016-04-03T09:36:39Z</time>
      </trkpt>
      <trkpt lat="44.95403" lon="-0.01109">
        <ele>81.37</ele>
        <time>2016-04-03T09:36:55Z</time>
      </trkpt>
      <trkpt lat="44.95402" lon="-0.01107">
        <ele>81.37</ele>
        <time>2016-04-03T09:37:01Z</time>
      </trkpt>
      <trkpt lat="44.95391" lon="-0.01098">
        <ele>81.37</ele>
        <time>2016-04-03T09:37:17Z</time>
      </trkpt>
      <trkpt lat="44.9538" lon="-0.01085">
        <ele>81.37</ele>
        <time>2016-04-03T09:37:32Z</time>
      </trkpt>
      <trkpt lat="44.95372" lon="-0.01078">
        <ele>81.37</ele>
        <time>2016-04-03T09:37:44Z</time>
      </trkpt>
      <trkpt lat="44.95361" lon="-0.01101">
        <ele>80.41</ele>
        <time>2016-04-03T09:38:02Z</time>
      </trkpt>
      <trkpt lat="44.9535" lon="-0.01113">
        <ele>79.93</ele>
        <time>2016-04-03T09:38:16Z</time>
      </trkpt>
      <trkpt lat="44.95338" lon="-0.01128">
        <ele>79.45</ele>
        <time>2016-04-03T09:38:31Z</time>
      </trkpt>
      <trkpt lat="44.95332" lon="-0.01149">
        <ele>78.48</ele>
        <time>2016-04-03T09:38:47Z</time>
      </trkpt>
      <trkpt lat="44.95331" lon="-0.01178">
        <ele>77.04</ele>
        <time>2016-04-03T09:39:05Z</time>
      </trkpt>
      <trkpt lat="44.95333" lon="-0.01203">
        <ele>76.08</ele>
        <time>2016-04-03T09:39:21Z</time>
      </trkpt>
      <trkpt lat="44.95331" lon="-0.01214">
        <ele>75.12</ele>
        <time>2016-04-03T09:39:29Z</time>
      </trkpt>
      <trkpt lat="44.95317" lon="-0.01222">
        <ele>75.12</ele>
        <time>2016-04-03T09:39:44Z</time>
      </trkpt>
      <trkpt lat="44.953" lon="-0.01229">
        <ele>74.64</ele>
        <time>2016-04-03T09:39:59Z</time>
      </trkpt>
      <trkpt lat="44.95282" lon="-0.01236">
        <ele>73.68</ele>
        <time>2016-04-03T09:40:16Z</time>
      </trkpt>
      <trkpt lat="44.95267" lon="-0.01242">
        <ele>73.2</ele>
        <time>2016-04-03T09:40:31Z</time>
      </trkpt>
      <trkpt lat="44.95249" lon="-0.01246">
        <ele>72.24</ele>
        <time>2016-04-03T09:40:49Z</time>
      </trkpt>
      <trkpt lat="44.95247" lon="-0.01247">
        <ele>72.24</ele>
        <time>2016-04-03T09:40:51Z</time>
      </trkpt>
      <trkpt lat="44.95243" lon="-0.01254">
        <ele>71.27</ele>
        <time>2016-04-03T09:40:57Z</time>
      </trkpt>
      <trkpt lat="44.95251" lon="-0.0128">
        <ele>70.79</ele>
        <time>2016-04-03T09:41:15Z</time>
      </trkpt>
      <trkpt lat="44.95257" lon="-0.01301">
        <ele>70.79</ele>
        <time>2016-04-03T09:41:29Z</time>
      </trkpt>
      <trkpt lat="44.95264" lon="-0.01325">
        <ele>70.31</ele>
        <time>2016-04-03T09:41:45Z</time>
      </trkpt>
      <trkpt lat="44.95263" lon="-0.0134">
        <ele>70.31</ele>
        <time>2016-04-03T09:41:56Z</time>
      </trkpt>
      <trkpt lat="44.95248" lon="-0.01355">
        <ele>69.35</ele>
        <time>2016-04-03T09:42:11Z</time>
      </trkpt>
      <trkpt lat="44.95231" lon="-0.01371">
        <ele>68.39</ele>
        <time>2016-04-03T09:42:29Z</time>
      </trkpt>
      <trkpt lat="44.95226" lon="-0.01374">
        <ele>68.39</ele>
        <time>2016-04-03T09:42:33Z</time>
      </trkpt>
      <trkpt lat="44.95207" lon="-0.01387">
        <ele>68.39</ele>
        <time>2016-04-03T09:42:50Z</time>
      </trkpt>
      <trkpt lat="44.95197" lon="-0.01396">
        <ele>68.39</ele>
        <time>2016-04-03T09:43:01Z</time>
      </trkpt>
      <trkpt lat="44.95194" lon="-0.01399">
        <ele>68.39</ele>
        <time>2016-04-03T09:43:04Z</time>
      </trkpt>
      <trkpt lat="44.95192" lon="-0.01401">
        <ele>68.39</ele>
        <time>2016-04-03T09:43:07Z</time>
      </trkpt>
      <trkpt lat="44.95189" lon="-0.01404">
        <ele>68.39</ele>
        <time>2016-04-03T09:43:10Z</time>
      </trkpt>
      <trkpt lat="44.9518" lon="-0.01413">
        <ele>68.39</ele>
        <time>2016-04-03T09:43:20Z</time>
      </trkpt>
      <trkpt lat="44.95161" lon="-0.01429">
        <ele>67.91</ele>
        <time>2016-04-03T09:43:36Z</time>
      </trkpt>
      <trkpt lat="44.95145" lon="-0.01445">
        <ele>67.91</ele>
        <time>2016-04-03T09:43:52Z</time>
      </trkpt>
      <trkpt lat="44.9513" lon="-0.01463">
        <ele>67.91</ele>
        <time>2016-04-03T09:44:09Z</time>
      </trkpt>
      <trkpt lat="44.95123" lon="-0.01472">
        <ele>67.91</ele>
        <time>2016-04-03T09:44:17Z</time>
      </trkpt>
      <trkpt lat="44.95108" lon="-0.01486">
        <ele>67.91</ele>
        <time>2016-04-03T09:44:32Z</time>
      </trkpt>
      <trkpt lat="44.95088" lon="-0.01505">
        <ele>66.47</ele>
        <time>2016-04-03T09:44:51Z</time>
      </trkpt>
      <trkpt lat="44.95073" lon="-0.0152">
        <ele>65.03</ele>
        <time>2016-04-03T09:45:07Z</time>
      </trkpt>
      <trkpt lat="44.95054" lon="-0.01534">
        <ele>63.58</ele>
        <time>2016-04-03T09:45:24Z</time>
      </trkpt>
      <trkpt lat="44.95039" lon="-0.01547">
        <ele>61.66</ele>
        <time>2016-04-03T09:45:40Z</time>
      </trkpt>
      <trkpt lat="44.95022" lon="-0.01561">
        <ele>59.74</ele>
        <time>2016-04-03T09:45:56Z</time>
      </trkpt>
      <trkpt lat="44.95005" lon="-0.01572">
        <ele>58.78</ele>
        <time>2016-04-03T09:46:12Z</time>
      </trkpt>
      <trkpt lat="44.9499" lon="-0.01588">
        <ele>57.82</ele>
        <time>2016-04-03T09:46:30Z</time>
      </trkpt>
      <trkpt lat="44.94977" lon="-0.01602">
        <ele>57.34</ele>
        <time>2016-04-03T09:46:45Z</time>
      </trkpt>
      <trkpt lat="44.94962" lon="-0.01618">
        <ele>56.37</ele>
        <time>2016-04-03T09:47:01Z</time>
      </trkpt>
      <trkpt lat="44.94946" lon="-0.01631">
        <ele>55.89</ele>
        <time>2016-04-03T09:47:17Z</time>
      </trkpt>
      <trkpt lat="44.94931" lon="-0.01648">
        <ele>54.93</ele>
        <time>2016-04-03T09:47:34Z</time>
      </trkpt>
      <trkpt lat="44.94918" lon="-0.01664">
        <ele>54.93</ele>
        <time>2016-04-03T09:47:50Z</time>
      </trkpt>
      <trkpt lat="44.94904" lon="-0.01677">
        <ele>53.97</ele>
        <time>2016-04-03T09:48:06Z</time>
      </trkpt>
      <trkpt lat="44.94893" lon="-0.0169">
        <ele>53.97</ele>
        <time>2016-04-03T09:48:21Z</time>
      </trkpt>
      <trkpt lat="44.94879" lon="-0.01705">
        <ele>53.97</ele>
        <time>2016-04-03T09:48:37Z</time>
      </trkpt>
      <trkpt lat="44.94864" lon="-0.0172">
        <ele>53.97</ele>
        <time>2016-04-03T09:48:56Z</time>
      </trkpt>
      <trkpt lat="44.94862" lon="-0.01732">
        <ele>55.41</ele>
        <time>2016-04-03T09:49:09Z</time>
      </trkpt>
      <trkpt lat="44.94863" lon="-0.01742">
        <ele>54.93</ele>
        <time>2016-04-03T09:49:48Z</time>
      </trkpt>
      <trkpt lat="44.94857" lon="-0.01737">
        <ele>54.93</ele>
        <time>2016-04-03T09:50:16Z</time>
      </trkpt>
      <trkpt lat="44.94852" lon="-0.01741">
        <ele>54.93</ele>
        <time>2016-04-03T09:50:31Z</time>
      </trkpt>
      <trkpt lat="44.94838" lon="-0.01755">
        <ele>52.05</ele>
        <time>2016-04-03T09:50:47Z</time>
      </trkpt>
      <trkpt lat="44.94822" lon="-0.01771">
        <ele>51.09</ele>
        <time>2016-04-03T09:51:05Z</time>
      </trkpt>
      <trkpt lat="44.94808" lon="-0.01786">
        <ele>50.13</ele>
        <time>2016-04-03T09:51:22Z</time>
      </trkpt>
      <trkpt lat="44.94795" lon="-0.01788">
        <ele>49.65</ele>
        <time>2016-04-03T09:51:37Z</time>
      </trkpt>
      <trkpt lat="44.94791" lon="-0.01788">
        <ele>49.16</ele>
        <time>2016-04-03T09:51:50Z</time>
      </trkpt>
      <trkpt lat="44.94788" lon="-0.01794">
        <ele>49.16</ele>
        <time>2016-04-03T09:52:05Z</time>
      </trkpt>
      <trkpt lat="44.9478" lon="-0.018">
        <ele>49.16</ele>
        <time>2016-04-03T09:52:22Z</time>
      </trkpt>
      <trkpt lat="44.94772" lon="-0.01807">
        <ele>49.16</ele>
        <time>2016-04-03T09:52:39Z</time>
      </trkpt>
      <trkpt lat="44.94761" lon="-0.01816">
        <ele>49.16</ele>
        <time>2016-04-03T09:52:53Z</time>
      </trkpt>
      <trkpt lat="44.94748" lon="-0.01825">
        <ele>49.16</ele>
        <time>2016-04-03T09:53:08Z</time>
      </trkpt>
      <trkpt lat="44.94734" lon="-0.01835">
        <ele>49.16</ele>
        <time>2016-04-03T09:53:23Z</time>
      </trkpt>
      <trkpt lat="44.94719" lon="-0.01846">
        <ele>50.13</ele>
        <time>2016-04-03T09:53:39Z</time>
      </trkpt>
      <trkpt lat="44.94719" lon="-0.01847">
        <ele>50.13</ele>
        <time>2016-04-03T09:54:31Z</time>
      </trkpt>
      <trkpt lat="44.94718" lon="-0.01848">
        <ele>50.13</ele>
        <time>2016-04-03T09:56:07Z</time>
      </trkpt>
      <trkpt lat="44.94717" lon="-0.01852">
        <ele>50.13</ele>
        <time>2016-04-03T09:56:42Z</time>
      </trkpt>
      <trkpt lat="44.94717" lon="-0.01854">
        <ele>50.13</ele>
        <time>2016-04-03T09:57:46Z</time>
      </trkpt>
      <trkpt lat="44.9471" lon="-0.01855">
        <ele>50.13</ele>
        <time>2016-04-03T09:57:57Z</time>
      </trkpt>
      <trkpt lat="44.94696" lon="-0.01862">
        <ele>50.13</ele>
        <time>2016-04-03T09:58:11Z</time>
      </trkpt>
      <trkpt lat="44.9468" lon="-0.0187">
        <ele>50.61</ele>
        <time>2016-04-03T09:58:26Z</time>
      </trkpt>
      <trkpt lat="44.94669" lon="-0.01878">
        <ele>50.61</ele>
        <time>2016-04-03T09:58:38Z</time>
      </trkpt>
      <trkpt lat="44.9466" lon="-0.01886">
        <ele>50.61</ele>
        <time>2016-04-03T09:58:48Z</time>
      </trkpt>
      <trkpt lat="44.94644" lon="-0.01896">
        <ele>50.61</ele>
        <time>2016-04-03T09:59:04Z</time>
      </trkpt>
      <trkpt lat="44.94638" lon="-0.019">
        <ele>50.61</ele>
        <time>2016-04-03T09:59:10Z</time>
      </trkpt>
      <trkpt lat="44.94621" lon="-0.0191">
        <ele>51.09</ele>
        <time>2016-04-03T09:59:26Z</time>
      </trkpt>
      <trkpt lat="44.9461" lon="-0.01918">
        <ele>51.09</ele>
        <time>2016-04-03T09:59:36Z</time>
      </trkpt>
      <trkpt lat="44.94599" lon="-0.01929">
        <ele>49.65</ele>
        <time>2016-04-03T09:59:48Z</time>
      </trkpt>
      <trkpt lat="44.94593" lon="-0.01949">
        <ele>49.65</ele>
        <time>2016-04-03T10:00:03Z</time>
      </trkpt>
      <trkpt lat="44.94587" lon="-0.01977">
        <ele>49.65</ele>
        <time>2016-04-03T10:00:20Z</time>
      </trkpt>
      <trkpt lat="44.94581" lon="-0.02005">
        <ele>49.65</ele>
        <time>2016-04-03T10:00:38Z</time>
      </trkpt>
      <trkpt lat="44.94575" lon="-0.02033">
        <ele>49.65</ele>
        <time>2016-04-03T10:00:56Z</time>
      </trkpt>
      <trkpt lat="44.9457" lon="-0.0205">
        <ele>50.61</ele>
        <time>2016-04-03T10:01:09Z</time>
      </trkpt>
      <trkpt lat="44.94569" lon="-0.02051">
        <ele>50.61</ele>
        <time>2016-04-03T10:01:10Z</time>
      </trkpt>
      <trkpt lat="44.94569" lon="-0.02054">
        <ele>50.61</ele>
        <time>2016-04-03T10:01:12Z</time>
      </trkpt>
      <trkpt lat="44.94562" lon="-0.0208">
        <ele>51.09</ele>
        <time>2016-04-03T10:01:30Z</time>
      </trkpt>
      <trkpt lat="44.94553" lon="-0.02101">
        <ele>51.57</ele>
        <time>2016-04-03T10:01:46Z</time>
      </trkpt>
      <trkpt lat="44.94537" lon="-0.02116">
        <ele>52.05</ele>
        <time>2016-04-03T10:02:03Z</time>
      </trkpt>
      <trkpt lat="44.9452" lon="-0.02124">
        <ele>53.97</ele>
        <time>2016-04-03T10:02:18Z</time>
      </trkpt>
      <trkpt lat="44.94503" lon="-0.0213">
        <ele>53.97</ele>
        <time>2016-04-03T10:02:33Z</time>
      </trkpt>
      <trkpt lat="44.94484" lon="-0.02136">
        <ele>54.93</ele>
        <time>2016-04-03T10:02:51Z</time>
      </trkpt>
      <trkpt lat="44.94482" lon="-0.02136">
        <ele>55.41</ele>
        <time>2016-04-03T10:02:53Z</time>
      </trkpt>
      <trkpt lat="44.94467" lon="-0.0214">
        <ele>55.41</ele>
        <time>2016-04-03T10:03:09Z</time>
      </trkpt>
      <trkpt lat="44.94449" lon="-0.02144">
        <ele>56.37</ele>
        <time>2016-04-03T10:03:25Z</time>
      </trkpt>
      <trkpt lat="44.94431" lon="-0.02149">
        <ele>57.34</ele>
        <time>2016-04-03T10:03:41Z</time>
      </trkpt>
      <trkpt lat="44.94422" lon="-0.02152">
        <ele>57.82</ele>
        <time>2016-04-03T10:03:49Z</time>
      </trkpt>
      <trkpt lat="44.94416" lon="-0.02154">
        <ele>57.34</ele>
        <time>2016-04-03T10:03:54Z</time>
      </trkpt>
      <trkpt lat="44.944" lon="-0.02158">
        <ele>58.3</ele>
        <time>2016-04-03T10:04:10Z</time>
      </trkpt>
      <trkpt lat="44.94384" lon="-0.02163">
        <ele>59.26</ele>
        <time>2016-04-03T10:04:26Z</time>
      </trkpt>
      <trkpt lat="44.94369" lon="-0.02168">
        <ele>61.18</ele>
        <time>2016-04-03T10:04:41Z</time>
      </trkpt>
      <trkpt lat="44.94352" lon="-0.02175">
        <ele>63.1</ele>
        <time>2016-04-03T10:04:58Z</time>
      </trkpt>
      <trkpt lat="44.94336" lon="-0.0218">
        <ele>64.55</ele>
        <time>2016-04-03T10:05:13Z</time>
      </trkpt>
      <trkpt lat="44.94319" lon="-0.02179">
        <ele>66.47</ele>
        <time>2016-04-03T10:05:30Z</time>
      </trkpt>
      <trkpt lat="44.94316" lon="-0.02168">
        <ele>66.95</ele>
        <time>2016-04-03T10:05:39Z</time>
      </trkpt>
      <trkpt lat="44.94317" lon="-0.02144">
        <ele>65.51</ele>
        <time>2016-04-03T10:05:55Z</time>
      </trkpt>
      <trkpt lat="44.94319" lon="-0.02121">
        <ele>64.55</ele>
        <time>2016-04-03T10:06:11Z</time>
      </trkpt>
      <trkpt lat="44.9432" lon="-0.021">
        <ele>64.07</ele>
        <time>2016-04-03T10:06:25Z</time>
      </trkpt>
      <trkpt lat="44.94324" lon="-0.02072">
        <ele>64.07</ele>
        <time>2016-04-03T10:06:42Z</time>
      </trkpt>
      <trkpt lat="44.94324" lon="-0.02048">
        <ele>65.51</ele>
        <time>2016-04-03T10:06:58Z</time>
      </trkpt>
      <trkpt lat="44.94319" lon="-0.02027">
        <ele>66.47</ele>
        <time>2016-04-03T10:07:12Z</time>
      </trkpt>
      <trkpt lat="44.94309" lon="-0.02006">
        <ele>67.91</ele>
        <time>2016-04-03T10:07:28Z</time>
      </trkpt>
      <trkpt lat="44.94297" lon="-0.01988">
        <ele>69.35</ele>
        <time>2016-04-03T10:07:43Z</time>
      </trkpt>
      <trkpt lat="44.94282" lon="-0.01978">
        <ele>71.27</ele>
        <time>2016-04-03T10:07:59Z</time>
      </trkpt>
      <trkpt lat="44.94269" lon="-0.0197">
        <ele>73.68</ele>
        <time>2016-04-03T10:08:13Z</time>
      </trkpt>
      <trkpt lat="44.9426" lon="-0.01969">
        <ele>73.68</ele>
        <time>2016-04-03T10:08:22Z</time>
      </trkpt>
      <trkpt lat="44.94258" lon="-0.0197">
        <ele>73.68</ele>
        <time>2016-04-03T10:08:24Z</time>
      </trkpt>
      <trkpt lat="44.94242" lon="-0.01981">
        <ele>75.12</ele>
        <time>2016-04-03T10:08:39Z</time>
      </trkpt>
      <trkpt lat="44.94227" lon="-0.01998">
        <ele>76.56</ele>
        <time>2016-04-03T10:08:55Z</time>
      </trkpt>
      <trkpt lat="44.94213" lon="-0.02017">
        <ele>77.52</ele>
        <time>2016-04-03T10:09:11Z</time>
      </trkpt>
      <trkpt lat="44.94203" lon="-0.02029">
        <ele>78</ele>
        <time>2016-04-03T10:09:26Z</time>
      </trkpt>
      <trkpt lat="44.94208" lon="-0.0202">
        <ele>78</ele>
        <time>2016-04-03T10:09:42Z</time>
      </trkpt>
      <trkpt lat="44.94218" lon="-0.0201">
        <ele>78</ele>
        <time>2016-04-03T10:09:58Z</time>
      </trkpt>
      <trkpt lat="44.94221" lon="-0.02012">
        <ele>79.45</ele>
        <time>2016-04-03T10:10:13Z</time>
      </trkpt>
      <trkpt lat="44.94223" lon="-0.02016">
        <ele>79.45</ele>
        <time>2016-04-03T10:10:34Z</time>
      </trkpt>
      <trkpt lat="44.94229" lon="-0.02024">
        <ele>80.41</ele>
        <time>2016-04-03T10:10:45Z</time>
      </trkpt>
      <trkpt lat="44.94233" lon="-0.02032">
        <ele>81.37</ele>
        <time>2016-04-03T10:10:52Z</time>
      </trkpt>
      <trkpt lat="44.94236" lon="-0.02046">
        <ele>82.33</ele>
        <time>2016-04-03T10:11:06Z</time>
      </trkpt>
      <trkpt lat="44.94234" lon="-0.02056">
        <ele>82.81</ele>
        <time>2016-04-03T10:11:17Z</time>
      </trkpt>
      <trkpt lat="44.94233" lon="-0.02066">
        <ele>84.25</ele>
        <time>2016-04-03T10:11:29Z</time>
      </trkpt>
      <trkpt lat="44.9423" lon="-0.02073">
        <ele>85.69</ele>
        <time>2016-04-03T10:13:32Z</time>
      </trkpt>
      <trkpt lat="44.9423" lon="-0.02077">
        <ele>85.69</ele>
        <time>2016-04-03T10:13:51Z</time>
      </trkpt>
      <trkpt lat="44.9423" lon="-0.02096">
        <ele>85.69</ele>
        <time>2016-04-03T10:14:08Z</time>
      </trkpt>
      <trkpt lat="44.94229" lon="-0.02114">
        <ele>86.18</ele>
        <time>2016-04-03T10:14:23Z</time>
      </trkpt>
      <trkpt lat="44.94222" lon="-0.02134">
        <ele>86.18</ele>
        <time>2016-04-03T10:14:39Z</time>
      </trkpt>
      <trkpt lat="44.94216" lon="-0.02141">
        <ele>86.18</ele>
        <time>2016-04-03T10:14:52Z</time>
      </trkpt>
      <trkpt lat="44.94204" lon="-0.02146">
        <ele>86.18</ele>
        <time>2016-04-03T10:15:08Z</time>
      </trkpt>
      <trkpt lat="44.94197" lon="-0.02152">
        <ele>86.18</ele>
        <time>2016-04-03T10:15:21Z</time>
      </trkpt>
      <trkpt lat="44.94193" lon="-0.0215">
        <ele>86.18</ele>
        <time>2016-04-03T10:15:37Z</time>
      </trkpt>
      <trkpt lat="44.94187" lon="-0.02147">
        <ele>85.69</ele>
        <time>2016-04-03T10:15:50Z</time>
      </trkpt>
      <trkpt lat="44.9418" lon="-0.02146">
        <ele>85.69</ele>
        <time>2016-04-03T10:15:57Z</time>
      </trkpt>
      <trkpt lat="44.94171" lon="-0.0214">
        <ele>85.69</ele>
        <time>2016-04-03T10:16:10Z</time>
      </trkpt>
      <trkpt lat="44.94169" lon="-0.02139">
        <ele>84.73</ele>
        <time>2016-04-03T10:16:12Z</time>
      </trkpt>
      <trkpt lat="44.94161" lon="-0.02135">
        <ele>84.73</ele>
        <time>2016-04-03T10:16:20Z</time>
      </trkpt>
      <trkpt lat="44.94159" lon="-0.02133">
        <ele>84.73</ele>
        <time>2016-04-03T10:16:22Z</time>
      </trkpt>
      <trkpt lat="44.94157" lon="-0.02132">
        <ele>84.73</ele>
        <time>2016-04-03T10:16:24Z</time>
      </trkpt>
      <trkpt lat="44.94147" lon="-0.0213">
        <ele>84.73</ele>
        <time>2016-04-03T10:16:38Z</time>
      </trkpt>
      <trkpt lat="44.94146" lon="-0.0213">
        <ele>83.77</ele>
        <time>2016-04-03T10:16:51Z</time>
      </trkpt>
      <trkpt lat="44.94146" lon="-0.02132">
        <ele>85.69</ele>
        <time>2016-04-03T10:44:46Z</time>
      </trkpt>
      <trkpt lat="44.94147" lon="-0.02132">
        <ele>84.73</ele>
        <time>2016-04-03T10:46:58Z</time>
      </trkpt>
      <trkpt lat="44.94152" lon="-0.02133">
        <ele>86.18</ele>
        <time>2016-04-03T11:07:20Z</time>
      </trkpt>
      <trkpt lat="44.94153" lon="-0.02133">
        <ele>86.18</ele>
        <time>2016-04-03T11:07:38Z</time>
      </trkpt>
      <trkpt lat="44.94155" lon="-0.02134">
        <ele>86.18</ele>
        <time>2016-04-03T11:07:54Z</time>
      </trkpt>
      <trkpt lat="44.94161" lon="-0.02144">
        <ele>86.18</ele>
        <time>2016-04-03T11:08:09Z</time>
      </trkpt>
      <trkpt lat="44.94168" lon="-0.02156">
        <ele>86.66</ele>
        <time>2016-04-03T11:08:24Z</time>
      </trkpt>
      <trkpt lat="44.94172" lon="-0.0216">
        <ele>86.66</ele>
        <time>2016-04-03T11:08:31Z</time>
      </trkpt>
      <trkpt lat="44.94183" lon="-0.02172">
        <ele>86.66</ele>
        <time>2016-04-03T11:08:46Z</time>
      </trkpt>
      <trkpt lat="44.94192" lon="-0.02185">
        <ele>87.62</ele>
        <time>2016-04-03T11:09:02Z</time>
      </trkpt>
      <trkpt lat="44.94196" lon="-0.02188">
        <ele>87.62</ele>
        <time>2016-04-03T11:09:18Z</time>
      </trkpt>
      <trkpt lat="44.94198" lon="-0.02193">
        <ele>87.62</ele>
        <time>2016-04-03T11:09:38Z</time>
      </trkpt>
      <trkpt lat="44.94195" lon="-0.022">
        <ele>88.1</ele>
        <time>2016-04-03T11:09:46Z</time>
      </trkpt>
      <trkpt lat="44.94189" lon="-0.02216">
        <ele>88.1</ele>
        <time>2016-04-03T11:10:01Z</time>
      </trkpt>
      <trkpt lat="44.94187" lon="-0.02235">
        <ele>88.1</ele>
        <time>2016-04-03T11:10:18Z</time>
      </trkpt>
      <trkpt lat="44.94188" lon="-0.02253">
        <ele>88.58</ele>
        <time>2016-04-03T11:10:34Z</time>
      </trkpt>
      <trkpt lat="44.94188" lon="-0.02267">
        <ele>88.58</ele>
        <time>2016-04-03T11:10:47Z</time>
      </trkpt>
      <trkpt lat="44.94186" lon="-0.02278">
        <ele>89.06</ele>
        <time>2016-04-03T11:11:00Z</time>
      </trkpt>
      <trkpt lat="44.94179" lon="-0.0229">
        <ele>89.06</ele>
        <time>2016-04-03T11:11:16Z</time>
      </trkpt>
      <trkpt lat="44.94169" lon="-0.02298">
        <ele>89.06</ele>
        <time>2016-04-03T11:11:30Z</time>
      </trkpt>
      <trkpt lat="44.94167" lon="-0.02311">
        <ele>89.54</ele>
        <time>2016-04-03T11:11:43Z</time>
      </trkpt>
      <trkpt lat="44.94167" lon="-0.02327">
        <ele>90.02</ele>
        <time>2016-04-03T11:11:57Z</time>
      </trkpt>
      <trkpt lat="44.94168" lon="-0.02328">
        <ele>90.02</ele>
        <time>2016-04-03T11:11:58Z</time>
      </trkpt>
      <trkpt lat="44.94168" lon="-0.02332">
        <ele>90.02</ele>
        <time>2016-04-03T11:12:01Z</time>
      </trkpt>
      <trkpt lat="44.94161" lon="-0.02355">
        <ele>90.5</ele>
        <time>2016-04-03T11:12:16Z</time>
      </trkpt>
      <trkpt lat="44.94151" lon="-0.02374">
        <ele>90.5</ele>
        <time>2016-04-03T11:12:31Z</time>
      </trkpt>
      <trkpt lat="44.94141" lon="-0.02393">
        <ele>90.98</ele>
        <time>2016-04-03T11:12:46Z</time>
      </trkpt>
      <trkpt lat="44.94134" lon="-0.02407">
        <ele>90.98</ele>
        <time>2016-04-03T11:12:58Z</time>
      </trkpt>
      <trkpt lat="44.94123" lon="-0.02422">
        <ele>91.46</ele>
        <time>2016-04-03T11:13:12Z</time>
      </trkpt>
      <trkpt lat="44.94111" lon="-0.02433">
        <ele>91.46</ele>
        <time>2016-04-03T11:13:25Z</time>
      </trkpt>
      <trkpt lat="44.94099" lon="-0.0244">
        <ele>91.46</ele>
        <time>2016-04-03T11:13:36Z</time>
      </trkpt>
      <trkpt lat="44.94098" lon="-0.02443">
        <ele>91.46</ele>
        <time>2016-04-03T11:13:38Z</time>
      </trkpt>
      <trkpt lat="44.94097" lon="-0.02451">
        <ele>91.94</ele>
        <time>2016-04-03T11:13:45Z</time>
      </trkpt>
      <trkpt lat="44.941" lon="-0.02453">
        <ele>92.42</ele>
        <time>2016-04-03T11:13:48Z</time>
      </trkpt>
      <trkpt lat="44.94114" lon="-0.02449">
        <ele>92.42</ele>
        <time>2016-04-03T11:14:04Z</time>
      </trkpt>
      <trkpt lat="44.94131" lon="-0.02443">
        <ele>92.42</ele>
        <time>2016-04-03T11:14:21Z</time>
      </trkpt>
      <trkpt lat="44.94147" lon="-0.02439">
        <ele>90.5</ele>
        <time>2016-04-03T11:14:35Z</time>
      </trkpt>
      <trkpt lat="44.94163" lon="-0.02439">
        <ele>89.06</ele>
        <time>2016-04-03T11:14:50Z</time>
      </trkpt>
      <trkpt lat="44.94164" lon="-0.0244">
        <ele>88.58</ele>
        <time>2016-04-03T11:14:51Z</time>
      </trkpt>
      <trkpt lat="44.9417" lon="-0.02454">
        <ele>88.58</ele>
        <time>2016-04-03T11:15:02Z</time>
      </trkpt>
      <trkpt lat="44.9417" lon="-0.02476">
        <ele>90.02</ele>
        <time>2016-04-03T11:15:17Z</time>
      </trkpt>
      <trkpt lat="44.9417" lon="-0.02501">
        <ele>90.5</ele>
        <time>2016-04-03T11:15:33Z</time>
      </trkpt>
      <trkpt lat="44.94169" lon="-0.02527">
        <ele>91.46</ele>
        <time>2016-04-03T11:15:49Z</time>
      </trkpt>
      <trkpt lat="44.94168" lon="-0.02555">
        <ele>91.94</ele>
        <time>2016-04-03T11:16:04Z</time>
      </trkpt>
      <trkpt lat="44.94168" lon="-0.02562">
        <ele>91.94</ele>
        <time>2016-04-03T11:16:08Z</time>
      </trkpt>
      <trkpt lat="44.94165" lon="-0.02583">
        <ele>92.42</ele>
        <time>2016-04-03T11:16:23Z</time>
      </trkpt>
      <trkpt lat="44.94164" lon="-0.02604">
        <ele>91.94</ele>
        <time>2016-04-03T11:16:36Z</time>
      </trkpt>
      <trkpt lat="44.94167" lon="-0.02613">
        <ele>91.94</ele>
        <time>2016-04-03T11:16:42Z</time>
      </trkpt>
      <trkpt lat="44.94169" lon="-0.02615">
        <ele>91.94</ele>
        <time>2016-04-03T11:16:44Z</time>
      </trkpt>
      <trkpt lat="44.94179" lon="-0.02632">
        <ele>91.94</ele>
        <time>2016-04-03T11:16:58Z</time>
      </trkpt>
      <trkpt lat="44.94182" lon="-0.02636">
        <ele>91.94</ele>
        <time>2016-04-03T11:17:01Z</time>
      </trkpt>
      <trkpt lat="44.94185" lon="-0.02645">
        <ele>91.94</ele>
        <time>2016-04-03T11:17:07Z</time>
      </trkpt>
      <trkpt lat="44.94187" lon="-0.02655">
        <ele>91.94</ele>
        <time>2016-04-03T11:17:13Z</time>
      </trkpt>
      <trkpt lat="44.94184" lon="-0.02677">
        <ele>91.94</ele>
        <time>2016-04-03T11:17:28Z</time>
      </trkpt>
      <trkpt lat="44.94181" lon="-0.02691">
        <ele>92.9</ele>
        <time>2016-04-03T11:17:40Z</time>
      </trkpt>
      <trkpt lat="44.94176" lon="-0.02715">
        <ele>93.39</ele>
        <time>2016-04-03T11:17:56Z</time>
      </trkpt>
      <trkpt lat="44.94168" lon="-0.02736">
        <ele>94.35</ele>
        <time>2016-04-03T11:18:11Z</time>
      </trkpt>
      <trkpt lat="44.94165" lon="-0.02741">
        <ele>94.35</ele>
        <time>2016-04-03T11:18:15Z</time>
      </trkpt>
      <trkpt lat="44.94153" lon="-0.02756">
        <ele>94.83</ele>
        <time>2016-04-03T11:18:29Z</time>
      </trkpt>
      <trkpt lat="44.9414" lon="-0.02772">
        <ele>96.27</ele>
        <time>2016-04-03T11:18:44Z</time>
      </trkpt>
      <trkpt lat="44.94138" lon="-0.02786">
        <ele>97.23</ele>
        <time>2016-04-03T11:18:58Z</time>
      </trkpt>
      <trkpt lat="44.94144" lon="-0.02792">
        <ele>97.23</ele>
        <time>2016-04-03T11:19:07Z</time>
      </trkpt>
      <trkpt lat="44.94157" lon="-0.02812">
        <ele>97.23</ele>
        <time>2016-04-03T11:19:23Z</time>
      </trkpt>
      <trkpt lat="44.94163" lon="-0.02821">
        <ele>95.79</ele>
        <time>2016-04-03T11:19:31Z</time>
      </trkpt>
      <trkpt lat="44.94172" lon="-0.02831">
        <ele>94.83</ele>
        <time>2016-04-03T11:19:43Z</time>
      </trkpt>
      <trkpt lat="44.94183" lon="-0.02842">
        <ele>93.39</ele>
        <time>2016-04-03T11:19:57Z</time>
      </trkpt>
      <trkpt lat="44.94182" lon="-0.02861">
        <ele>92.9</ele>
        <time>2016-04-03T11:20:10Z</time>
      </trkpt>
      <trkpt lat="44.9418" lon="-0.02868">
        <ele>92.9</ele>
        <time>2016-04-03T11:20:15Z</time>
      </trkpt>
      <trkpt lat="44.94171" lon="-0.02888">
        <ele>92.9</ele>
        <time>2016-04-03T11:20:29Z</time>
      </trkpt>
      <trkpt lat="44.94165" lon="-0.02902">
        <ele>92.42</ele>
        <time>2016-04-03T11:20:38Z</time>
      </trkpt>
      <trkpt lat="44.94156" lon="-0.02919">
        <ele>91.46</ele>
        <time>2016-04-03T11:20:51Z</time>
      </trkpt>
      <trkpt lat="44.94146" lon="-0.02936">
        <ele>91.46</ele>
        <time>2016-04-03T11:21:06Z</time>
      </trkpt>
      <trkpt lat="44.94141" lon="-0.02939">
        <ele>91.46</ele>
        <time>2016-04-03T11:21:12Z</time>
      </trkpt>
      <trkpt lat="44.94126" lon="-0.02937">
        <ele>91.46</ele>
        <time>2016-04-03T11:21:28Z</time>
      </trkpt>
      <trkpt lat="44.94109" lon="-0.02931">
        <ele>92.9</ele>
        <time>2016-04-03T11:21:45Z</time>
      </trkpt>
      <trkpt lat="44.941" lon="-0.02927">
        <ele>92.9</ele>
        <time>2016-04-03T11:21:55Z</time>
      </trkpt>
      <trkpt lat="44.94094" lon="-0.02924">
        <ele>92.9</ele>
        <time>2016-04-03T11:22:00Z</time>
      </trkpt>
      <trkpt lat="44.94084" lon="-0.02916">
        <ele>93.39</ele>
        <time>2016-04-03T11:22:09Z</time>
      </trkpt>
      <trkpt lat="44.94072" lon="-0.02902">
        <ele>94.35</ele>
        <time>2016-04-03T11:22:25Z</time>
      </trkpt>
      <trkpt lat="44.94073" lon="-0.02901">
        <ele>94.35</ele>
        <time>2016-04-03T11:22:32Z</time>
      </trkpt>
      <trkpt lat="44.94081" lon="-0.02912">
        <ele>93.87</ele>
        <time>2016-04-03T11:22:46Z</time>
      </trkpt>
      <trkpt lat="44.94086" lon="-0.02916">
        <ele>93.87</ele>
        <time>2016-04-03T11:23:00Z</time>
      </trkpt>
      <trkpt lat="44.9409" lon="-0.02926">
        <ele>92.9</ele>
        <time>2016-04-03T11:23:10Z</time>
      </trkpt>
      <trkpt lat="44.9409" lon="-0.02927">
        <ele>92.9</ele>
        <time>2016-04-03T11:23:11Z</time>
      </trkpt>
      <trkpt lat="44.941" lon="-0.02943">
        <ele>92.42</ele>
        <time>2016-04-03T11:23:26Z</time>
      </trkpt>
      <trkpt lat="44.94105" lon="-0.02958">
        <ele>91.46</ele>
        <time>2016-04-03T11:23:39Z</time>
      </trkpt>
      <trkpt lat="44.94096" lon="-0.02971">
        <ele>91.46</ele>
        <time>2016-04-03T11:23:52Z</time>
      </trkpt>
      <trkpt lat="44.94085" lon="-0.02988">
        <ele>92.42</ele>
        <time>2016-04-03T11:24:07Z</time>
      </trkpt>
      <trkpt lat="44.94078" lon="-0.02999">
        <ele>93.39</ele>
        <time>2016-04-03T11:24:22Z</time>
      </trkpt>
      <trkpt lat="44.94067" lon="-0.03016">
        <ele>94.35</ele>
        <time>2016-04-03T11:24:38Z</time>
      </trkpt>
      <trkpt lat="44.94071" lon="-0.03029">
        <ele>95.31</ele>
        <time>2016-04-03T11:24:53Z</time>
      </trkpt>
      <trkpt lat="44.94076" lon="-0.03033">
        <ele>95.31</ele>
        <time>2016-04-03T11:24:59Z</time>
      </trkpt>
      <trkpt lat="44.94081" lon="-0.03048">
        <ele>95.31</ele>
        <time>2016-04-03T11:25:13Z</time>
      </trkpt>
      <trkpt lat="44.9408" lon="-0.03049">
        <ele>95.31</ele>
        <time>2016-04-03T11:25:14Z</time>
      </trkpt>
      <trkpt lat="44.94072" lon="-0.0306">
        <ele>95.31</ele>
        <time>2016-04-03T11:25:24Z</time>
      </trkpt>
      <trkpt lat="44.94058" lon="-0.03076">
        <ele>95.79</ele>
        <time>2016-04-03T11:25:41Z</time>
      </trkpt>
      <trkpt lat="44.94047" lon="-0.0309">
        <ele>95.79</ele>
        <time>2016-04-03T11:25:55Z</time>
      </trkpt>
      <trkpt lat="44.94034" lon="-0.03105">
        <ele>95.79</ele>
        <time>2016-04-03T11:26:10Z</time>
      </trkpt>
      <trkpt lat="44.94018" lon="-0.03121">
        <ele>95.79</ele>
        <time>2016-04-03T11:26:29Z</time>
      </trkpt>
      <trkpt lat="44.94016" lon="-0.03115">
        <ele>96.27</ele>
        <time>2016-04-03T11:26:36Z</time>
      </trkpt>
      <trkpt lat="44.94008" lon="-0.03093">
        <ele>96.75</ele>
        <time>2016-04-03T11:26:53Z</time>
      </trkpt>
      <trkpt lat="44.94009" lon="-0.03093">
        <ele>96.75</ele>
        <time>2016-04-03T11:27:06Z</time>
      </trkpt>
      <trkpt lat="44.94002" lon="-0.03081">
        <ele>96.75</ele>
        <time>2016-04-03T11:27:20Z</time>
      </trkpt>
      <trkpt lat="44.93996" lon="-0.03067">
        <ele>96.75</ele>
        <time>2016-04-03T11:27:34Z</time>
      </trkpt>
      <trkpt lat="44.93987" lon="-0.03051">
        <ele>97.23</ele>
        <time>2016-04-03T11:27:51Z</time>
      </trkpt>
      <trkpt lat="44.93982" lon="-0.03041">
        <ele>97.23</ele>
        <time>2016-04-03T11:28:03Z</time>
      </trkpt>
      <trkpt lat="44.9398" lon="-0.03041">
        <ele>97.71</ele>
        <time>2016-04-03T11:28:17Z</time>
      </trkpt>
      <trkpt lat="44.93982" lon="-0.03041">
        <ele>97.71</ele>
        <time>2016-04-03T11:28:33Z</time>
      </trkpt>
      <trkpt lat="44.93978" lon="-0.0304">
        <ele>97.71</ele>
        <time>2016-04-03T11:28:49Z</time>
      </trkpt>
      <trkpt lat="44.93966" lon="-0.03046">
        <ele>97.71</ele>
        <time>2016-04-03T11:29:03Z</time>
      </trkpt>
      <trkpt lat="44.9396" lon="-0.03053">
        <ele>97.71</ele>
        <time>2016-04-03T11:29:11Z</time>
      </trkpt>
      <trkpt lat="44.93958" lon="-0.03055">
        <ele>97.71</ele>
        <time>2016-04-03T11:29:13Z</time>
      </trkpt>
      <trkpt lat="44.93956" lon="-0.03056">
        <ele>96.75</ele>
        <time>2016-04-03T11:29:15Z</time>
      </trkpt>
      <trkpt lat="44.93941" lon="-0.03069">
        <ele>96.75</ele>
        <time>2016-04-03T11:29:32Z</time>
      </trkpt>
      <trkpt lat="44.93928" lon="-0.03077">
        <ele>96.75</ele>
        <time>2016-04-03T11:29:47Z</time>
      </trkpt>
      <trkpt lat="44.93916" lon="-0.03084">
        <ele>95.79</ele>
        <time>2016-04-03T11:30:00Z</time>
      </trkpt>
      <trkpt lat="44.93904" lon="-0.03092">
        <ele>95.31</ele>
        <time>2016-04-03T11:30:14Z</time>
      </trkpt>
      <trkpt lat="44.93889" lon="-0.03102">
        <ele>94.83</ele>
        <time>2016-04-03T11:30:29Z</time>
      </trkpt>
      <trkpt lat="44.93884" lon="-0.03107">
        <ele>94.83</ele>
        <time>2016-04-03T11:30:34Z</time>
      </trkpt>
      <trkpt lat="44.93882" lon="-0.03109">
        <ele>94.83</ele>
        <time>2016-04-03T11:30:36Z</time>
      </trkpt>
      <trkpt lat="44.9388" lon="-0.0311">
        <ele>94.83</ele>
        <time>2016-04-03T11:30:38Z</time>
      </trkpt>
      <trkpt lat="44.93867" lon="-0.03121">
        <ele>94.83</ele>
        <time>2016-04-03T11:30:52Z</time>
      </trkpt>
      <trkpt lat="44.93851" lon="-0.03135">
        <ele>94.83</ele>
        <time>2016-04-03T11:31:09Z</time>
      </trkpt>
      <trkpt lat="44.93839" lon="-0.03143">
        <ele>94.83</ele>
        <time>2016-04-03T11:31:22Z</time>
      </trkpt>
      <trkpt lat="44.93835" lon="-0.03137">
        <ele>94.83</ele>
        <time>2016-04-03T11:31:28Z</time>
      </trkpt>
      <trkpt lat="44.93833" lon="-0.03129">
        <ele>95.79</ele>
        <time>2016-04-03T11:31:33Z</time>
      </trkpt>
      <trkpt lat="44.9383" lon="-0.03125">
        <ele>95.79</ele>
        <time>2016-04-03T11:31:37Z</time>
      </trkpt>
      <trkpt lat="44.93823" lon="-0.03112">
        <ele>95.79</ele>
        <time>2016-04-03T11:31:46Z</time>
      </trkpt>
      <trkpt lat="44.9382" lon="-0.03105">
        <ele>95.79</ele>
        <time>2016-04-03T11:31:51Z</time>
      </trkpt>
      <trkpt lat="44.9381" lon="-0.03081">
        <ele>96.27</ele>
        <time>2016-04-03T11:32:09Z</time>
      </trkpt>
      <trkpt lat="44.93802" lon="-0.03062">
        <ele>96.75</ele>
        <time>2016-04-03T11:32:23Z</time>
      </trkpt>
      <trkpt lat="44.93794" lon="-0.03044">
        <ele>97.23</ele>
        <time>2016-04-03T11:32:37Z</time>
      </trkpt>
      <trkpt lat="44.93786" lon="-0.03022">
        <ele>97.23</ele>
        <time>2016-04-03T11:32:53Z</time>
      </trkpt>
      <trkpt lat="44.93783" lon="-0.03012">
        <ele>97.23</ele>
        <time>2016-04-03T11:33:00Z</time>
      </trkpt>
      <trkpt lat="44.93775" lon="-0.03008">
        <ele>97.71</ele>
        <time>2016-04-03T11:33:10Z</time>
      </trkpt>
      <trkpt lat="44.93773" lon="-0.03011">
        <ele>97.71</ele>
        <time>2016-04-03T11:33:13Z</time>
      </trkpt>
      <trkpt lat="44.93767" lon="-0.03024">
        <ele>97.71</ele>
        <time>2016-04-03T11:33:23Z</time>
      </trkpt>
      <trkpt lat="44.93758" lon="-0.03039">
        <ele>97.71</ele>
        <time>2016-04-03T11:33:36Z</time>
      </trkpt>
      <trkpt lat="44.93747" lon="-0.03061">
        <ele>96.27</ele>
        <time>2016-04-03T11:33:53Z</time>
      </trkpt>
      <trkpt lat="44.93737" lon="-0.03079">
        <ele>95.79</ele>
        <time>2016-04-03T11:34:07Z</time>
      </trkpt>
      <trkpt lat="44.93723" lon="-0.03102">
        <ele>95.31</ele>
        <time>2016-04-03T11:34:25Z</time>
      </trkpt>
      <trkpt lat="44.93711" lon="-0.03123">
        <ele>94.83</ele>
        <time>2016-04-03T11:34:42Z</time>
      </trkpt>
      <trkpt lat="44.93702" lon="-0.0314">
        <ele>93.87</ele>
        <time>2016-04-03T11:34:56Z</time>
      </trkpt>
      <trkpt lat="44.93692" lon="-0.03157">
        <ele>93.87</ele>
        <time>2016-04-03T11:35:09Z</time>
      </trkpt>
      <trkpt lat="44.93679" lon="-0.03174">
        <ele>93.87</ele>
        <time>2016-04-03T11:35:25Z</time>
      </trkpt>
      <trkpt lat="44.93667" lon="-0.03195">
        <ele>93.39</ele>
        <time>2016-04-03T11:35:41Z</time>
      </trkpt>
      <trkpt lat="44.93665" lon="-0.03199">
        <ele>93.39</ele>
        <time>2016-04-03T11:35:44Z</time>
      </trkpt>
      <trkpt lat="44.93652" lon="-0.03224">
        <ele>93.39</ele>
        <time>2016-04-03T11:36:04Z</time>
      </trkpt>
      <trkpt lat="44.93641" lon="-0.03244">
        <ele>93.39</ele>
        <time>2016-04-03T11:36:19Z</time>
      </trkpt>
      <trkpt lat="44.93635" lon="-0.03258">
        <ele>93.39</ele>
        <time>2016-04-03T11:36:32Z</time>
      </trkpt>
      <trkpt lat="44.93624" lon="-0.03277">
        <ele>93.39</ele>
        <time>2016-04-03T11:36:48Z</time>
      </trkpt>
      <trkpt lat="44.93615" lon="-0.03296">
        <ele>93.39</ele>
        <time>2016-04-03T11:37:02Z</time>
      </trkpt>
      <trkpt lat="44.93605" lon="-0.03318">
        <ele>93.39</ele>
        <time>2016-04-03T11:37:18Z</time>
      </trkpt>
      <trkpt lat="44.93593" lon="-0.03338">
        <ele>94.35</ele>
        <time>2016-04-03T11:37:33Z</time>
      </trkpt>
      <trkpt lat="44.93582" lon="-0.0336">
        <ele>94.35</ele>
        <time>2016-04-03T11:37:50Z</time>
      </trkpt>
      <trkpt lat="44.93581" lon="-0.03361">
        <ele>94.35</ele>
        <time>2016-04-03T11:37:51Z</time>
      </trkpt>
      <trkpt lat="44.93571" lon="-0.03381">
        <ele>94.35</ele>
        <time>2016-04-03T11:38:07Z</time>
      </trkpt>
      <trkpt lat="44.93565" lon="-0.0339">
        <ele>93.87</ele>
        <time>2016-04-03T11:38:15Z</time>
      </trkpt>
      <trkpt lat="44.93555" lon="-0.03408">
        <ele>93.87</ele>
        <time>2016-04-03T11:38:30Z</time>
      </trkpt>
      <trkpt lat="44.93544" lon="-0.03427">
        <ele>93.87</ele>
        <time>2016-04-03T11:38:45Z</time>
      </trkpt>
      <trkpt lat="44.93533" lon="-0.03449">
        <ele>93.87</ele>
        <time>2016-04-03T11:39:01Z</time>
      </trkpt>
      <trkpt lat="44.93525" lon="-0.03472">
        <ele>93.87</ele>
        <time>2016-04-03T11:39:16Z</time>
      </trkpt>
      <trkpt lat="44.93521" lon="-0.03495">
        <ele>93.87</ele>
        <time>2016-04-03T11:39:31Z</time>
      </trkpt>
      <trkpt lat="44.9352" lon="-0.035">
        <ele>93.87</ele>
        <time>2016-04-03T11:39:34Z</time>
      </trkpt>
      <trkpt lat="44.93515" lon="-0.03517">
        <ele>94.83</ele>
        <time>2016-04-03T11:39:48Z</time>
      </trkpt>
      <trkpt lat="44.93514" lon="-0.03518">
        <ele>94.83</ele>
        <time>2016-04-03T11:40:05Z</time>
      </trkpt>
      <trkpt lat="44.93514" lon="-0.03518">
        <ele>94.83</ele>
        <time>2016-04-03T11:40:21Z</time>
      </trkpt>
      <trkpt lat="44.93516" lon="-0.03529">
        <ele>94.83</ele>
        <time>2016-04-03T11:40:36Z</time>
      </trkpt>
      <trkpt lat="44.93517" lon="-0.03536">
        <ele>94.83</ele>
        <time>2016-04-03T11:40:50Z</time>
      </trkpt>
      <trkpt lat="44.93517" lon="-0.0355">
        <ele>94.83</ele>
        <time>2016-04-03T11:41:00Z</time>
      </trkpt>
      <trkpt lat="44.93514" lon="-0.03576">
        <ele>95.31</ele>
        <time>2016-04-03T11:41:17Z</time>
      </trkpt>
      <trkpt lat="44.93517" lon="-0.03596">
        <ele>95.31</ele>
        <time>2016-04-03T11:41:33Z</time>
      </trkpt>
      <trkpt lat="44.93518" lon="-0.03598">
        <ele>95.31</ele>
        <time>2016-04-03T11:41:35Z</time>
      </trkpt>
      <trkpt lat="44.93534" lon="-0.03606">
        <ele>95.31</ele>
        <time>2016-04-03T11:41:51Z</time>
      </trkpt>
      <trkpt lat="44.93552" lon="-0.03614">
        <ele>95.31</ele>
        <time>2016-04-03T11:42:08Z</time>
      </trkpt>
      <trkpt lat="44.93568" lon="-0.03621">
        <ele>95.31</ele>
        <time>2016-04-03T11:42:22Z</time>
      </trkpt>
      <trkpt lat="44.93584" lon="-0.03628">
        <ele>93.87</ele>
        <time>2016-04-03T11:42:38Z</time>
      </trkpt>
      <trkpt lat="44.93592" lon="-0.03628">
        <ele>93.87</ele>
        <time>2016-04-03T11:42:46Z</time>
      </trkpt>
      <trkpt lat="44.93604" lon="-0.0363">
        <ele>93.87</ele>
        <time>2016-04-03T11:43:01Z</time>
      </trkpt>
      <trkpt lat="44.93621" lon="-0.03634">
        <ele>92.9</ele>
        <time>2016-04-03T11:43:18Z</time>
      </trkpt>
      <trkpt lat="44.93638" lon="-0.03648">
        <ele>91.94</ele>
        <time>2016-04-03T11:43:33Z</time>
      </trkpt>
      <trkpt lat="44.93658" lon="-0.03659">
        <ele>90.5</ele>
        <time>2016-04-03T11:43:51Z</time>
      </trkpt>
      <trkpt lat="44.93662" lon="-0.03658">
        <ele>90.5</ele>
        <time>2016-04-03T11:43:54Z</time>
      </trkpt>
      <trkpt lat="44.93664" lon="-0.03657">
        <ele>90.02</ele>
        <time>2016-04-03T11:43:56Z</time>
      </trkpt>
      <trkpt lat="44.93669" lon="-0.03635">
        <ele>88.1</ele>
        <time>2016-04-03T11:44:11Z</time>
      </trkpt>
      <trkpt lat="44.93673" lon="-0.0361">
        <ele>86.18</ele>
        <time>2016-04-03T11:44:28Z</time>
      </trkpt>
      <trkpt lat="44.93674" lon="-0.03607">
        <ele>86.18</ele>
        <time>2016-04-03T11:44:30Z</time>
      </trkpt>
      <trkpt lat="44.93679" lon="-0.03602">
        <ele>85.69</ele>
        <time>2016-04-03T11:44:36Z</time>
      </trkpt>
      <trkpt lat="44.93697" lon="-0.03603">
        <ele>85.21</ele>
        <time>2016-04-03T11:44:52Z</time>
      </trkpt>
      <trkpt lat="44.937" lon="-0.03603">
        <ele>85.21</ele>
        <time>2016-04-03T11:44:54Z</time>
      </trkpt>
      <trkpt lat="44.93706" lon="-0.03606">
        <ele>85.21</ele>
        <time>2016-04-03T11:44:59Z</time>
      </trkpt>
      <trkpt lat="44.93707" lon="-0.03606">
        <ele>85.21</ele>
        <time>2016-04-03T11:45:01Z</time>
      </trkpt>
      <trkpt lat="44.93712" lon="-0.03606">
        <ele>84.73</ele>
        <time>2016-04-03T11:45:05Z</time>
      </trkpt>
      <trkpt lat="44.93727" lon="-0.03606">
        <ele>82.81</ele>
        <time>2016-04-03T11:45:21Z</time>
      </trkpt>
      <trkpt lat="44.93741" lon="-0.03606">
        <ele>79.93</ele>
        <time>2016-04-03T11:45:36Z</time>
      </trkpt>
      <trkpt lat="44.93752" lon="-0.03609">
        <ele>78.97</ele>
        <time>2016-04-03T11:45:52Z</time>
      </trkpt>
      <trkpt lat="44.93758" lon="-0.03618">
        <ele>77.04</ele>
        <time>2016-04-03T11:46:14Z</time>
      </trkpt>
      <trkpt lat="44.9376" lon="-0.03635">
        <ele>75.6</ele>
        <time>2016-04-03T11:46:28Z</time>
      </trkpt>
      <trkpt lat="44.93762" lon="-0.03654">
        <ele>73.68</ele>
        <time>2016-04-03T11:46:42Z</time>
      </trkpt>
      <trkpt lat="44.93763" lon="-0.03676">
        <ele>72.72</ele>
        <time>2016-04-03T11:46:56Z</time>
      </trkpt>
      <trkpt lat="44.93765" lon="-0.03698">
        <ele>71.76</ele>
        <time>2016-04-03T11:47:09Z</time>
      </trkpt>
      <trkpt lat="44.93771" lon="-0.03726">
        <ele>70.31</ele>
        <time>2016-04-03T11:47:27Z</time>
      </trkpt>
      <trkpt lat="44.93771" lon="-0.03727">
        <ele>69.83</ele>
        <time>2016-04-03T11:47:28Z</time>
      </trkpt>
      <trkpt lat="44.93781" lon="-0.03746">
        <ele>68.39</ele>
        <time>2016-04-03T11:47:42Z</time>
      </trkpt>
      <trkpt lat="44.93792" lon="-0.03766">
        <ele>66.47</ele>
        <time>2016-04-03T11:47:58Z</time>
      </trkpt>
      <trkpt lat="44.93809" lon="-0.03787">
        <ele>65.03</ele>
        <time>2016-04-03T11:48:18Z</time>
      </trkpt>
      <trkpt lat="44.93818" lon="-0.03789">
        <ele>64.07</ele>
        <time>2016-04-03T11:48:26Z</time>
      </trkpt>
      <trkpt lat="44.93839" lon="-0.03793">
        <ele>63.1</ele>
        <time>2016-04-03T11:48:43Z</time>
      </trkpt>
      <trkpt lat="44.93861" lon="-0.03798">
        <ele>62.14</ele>
        <time>2016-04-03T11:49:02Z</time>
      </trkpt>
      <trkpt lat="44.93882" lon="-0.03802">
        <ele>61.18</ele>
        <time>2016-04-03T11:49:19Z</time>
      </trkpt>
      <trkpt lat="44.93905" lon="-0.03808">
        <ele>60.22</ele>
        <time>2016-04-03T11:49:38Z</time>
      </trkpt>
      <trkpt lat="44.93924" lon="-0.03814">
        <ele>58.78</ele>
        <time>2016-04-03T11:49:54Z</time>
      </trkpt>
      <trkpt lat="44.93943" lon="-0.0382">
        <ele>57.82</ele>
        <time>2016-04-03T11:50:10Z</time>
      </trkpt>
      <trkpt lat="44.93961" lon="-0.03825">
        <ele>57.34</ele>
        <time>2016-04-03T11:50:26Z</time>
      </trkpt>
      <trkpt lat="44.93962" lon="-0.03825">
        <ele>57.34</ele>
        <time>2016-04-03T11:50:27Z</time>
      </trkpt>
      <trkpt lat="44.93968" lon="-0.03835">
        <ele>57.34</ele>
        <time>2016-04-03T11:50:35Z</time>
      </trkpt>
      <trkpt lat="44.93967" lon="-0.03847">
        <ele>57.34</ele>
        <time>2016-04-03T11:50:42Z</time>
      </trkpt>
      <trkpt lat="44.93964" lon="-0.03862">
        <ele>57.34</ele>
        <time>2016-04-03T11:50:57Z</time>
      </trkpt>
      <trkpt lat="44.93968" lon="-0.03865">
        <ele>57.34</ele>
        <time>2016-04-03T11:51:10Z</time>
      </trkpt>
      <trkpt lat="44.93964" lon="-0.03866">
        <ele>57.82</ele>
        <time>2016-04-03T11:51:28Z</time>
      </trkpt>
      <trkpt lat="44.9396" lon="-0.03871">
        <ele>57.82</ele>
        <time>2016-04-03T11:51:35Z</time>
      </trkpt>
      <trkpt lat="44.93953" lon="-0.03892">
        <ele>58.78</ele>
        <time>2016-04-03T11:51:51Z</time>
      </trkpt>
      <trkpt lat="44.93949" lon="-0.039">
        <ele>58.78</ele>
        <time>2016-04-03T11:51:57Z</time>
      </trkpt>
      <trkpt lat="44.93944" lon="-0.03913">
        <ele>58.78</ele>
        <time>2016-04-03T11:52:07Z</time>
      </trkpt>
      <trkpt lat="44.93933" lon="-0.03934">
        <ele>59.26</ele>
        <time>2016-04-03T11:52:24Z</time>
      </trkpt>
      <trkpt lat="44.9392" lon="-0.03955">
        <ele>59.26</ele>
        <time>2016-04-03T11:52:42Z</time>
      </trkpt>
      <trkpt lat="44.93909" lon="-0.03976">
        <ele>58.3</ele>
        <time>2016-04-03T11:52:58Z</time>
      </trkpt>
      <trkpt lat="44.93898" lon="-0.03996">
        <ele>58.3</ele>
        <time>2016-04-03T11:53:14Z</time>
      </trkpt>
      <trkpt lat="44.93892" lon="-0.04006">
        <ele>58.3</ele>
        <time>2016-04-03T11:53:27Z</time>
      </trkpt>
      <trkpt lat="44.93894" lon="-0.03994">
        <ele>58.3</ele>
        <time>2016-04-03T11:53:43Z</time>
      </trkpt>
      <trkpt lat="44.9389" lon="-0.03996">
        <ele>58.3</ele>
        <time>2016-04-03T11:54:16Z</time>
      </trkpt>
      <trkpt lat="44.93892" lon="-0.03996">
        <ele>58.3</ele>
        <time>2016-04-03T11:54:50Z</time>
      </trkpt>
      <trkpt lat="44.93892" lon="-0.03993">
        <ele>58.3</ele>
        <time>2016-04-03T11:55:22Z</time>
      </trkpt>
      <trkpt lat="44.93894" lon="-0.03999">
        <ele>58.3</ele>
        <time>2016-04-03T11:55:41Z</time>
      </trkpt>
      <trkpt lat="44.93892" lon="-0.04002">
        <ele>58.3</ele>
        <time>2016-04-03T11:56:01Z</time>
      </trkpt>
      <trkpt lat="44.93886" lon="-0.0402">
        <ele>58.78</ele>
        <time>2016-04-03T11:56:17Z</time>
      </trkpt>
      <trkpt lat="44.93877" lon="-0.04045">
        <ele>58.78</ele>
        <time>2016-04-03T11:56:35Z</time>
      </trkpt>
      <trkpt lat="44.93871" lon="-0.04059">
        <ele>58.78</ele>
        <time>2016-04-03T11:56:46Z</time>
      </trkpt>
      <trkpt lat="44.93862" lon="-0.04088">
        <ele>58.3</ele>
        <time>2016-04-03T11:57:04Z</time>
      </trkpt>
      <trkpt lat="44.93851" lon="-0.04115">
        <ele>58.3</ele>
        <time>2016-04-03T11:57:21Z</time>
      </trkpt>
      <trkpt lat="44.93841" lon="-0.04135">
        <ele>58.3</ele>
        <time>2016-04-03T11:57:35Z</time>
      </trkpt>
      <trkpt lat="44.93832" lon="-0.04155">
        <ele>58.3</ele>
        <time>2016-04-03T11:57:50Z</time>
      </trkpt>
      <trkpt lat="44.93826" lon="-0.04165">
        <ele>59.74</ele>
        <time>2016-04-03T11:57:59Z</time>
      </trkpt>
      <trkpt lat="44.93818" lon="-0.04177">
        <ele>60.22</ele>
        <time>2016-04-03T11:58:09Z</time>
      </trkpt>
      <trkpt lat="44.93804" lon="-0.04201">
        <ele>60.7</ele>
        <time>2016-04-03T11:58:26Z</time>
      </trkpt>
      <trkpt lat="44.93786" lon="-0.0422">
        <ele>61.66</ele>
        <time>2016-04-03T11:58:44Z</time>
      </trkpt>
      <trkpt lat="44.9377" lon="-0.04236">
        <ele>63.1</ele>
        <time>2016-04-03T11:59:00Z</time>
      </trkpt>
      <trkpt lat="44.93753" lon="-0.04254">
        <ele>64.55</ele>
        <time>2016-04-03T11:59:18Z</time>
      </trkpt>
      <trkpt lat="44.93749" lon="-0.0426">
        <ele>64.55</ele>
        <time>2016-04-03T11:59:23Z</time>
      </trkpt>
      <trkpt lat="44.93738" lon="-0.04281">
        <ele>64.55</ele>
        <time>2016-04-03T11:59:40Z</time>
      </trkpt>
      <trkpt lat="44.9373" lon="-0.04304">
        <ele>64.55</ele>
        <time>2016-04-03T11:59:56Z</time>
      </trkpt>
      <trkpt lat="44.93728" lon="-0.04308">
        <ele>64.55</ele>
        <time>2016-04-03T11:59:59Z</time>
      </trkpt>
      <trkpt lat="44.93721" lon="-0.04327">
        <ele>65.03</ele>
        <time>2016-04-03T12:00:14Z</time>
      </trkpt>
      <trkpt lat="44.93715" lon="-0.04349">
        <ele>65.03</ele>
        <time>2016-04-03T12:00:30Z</time>
      </trkpt>
      <trkpt lat="44.93714" lon="-0.04352">
        <ele>65.03</ele>
        <time>2016-04-03T12:00:32Z</time>
      </trkpt>
      <trkpt lat="44.93714" lon="-0.04357">
        <ele>65.03</ele>
        <time>2016-04-03T12:00:35Z</time>
      </trkpt>
      <trkpt lat="44.93713" lon="-0.04362">
        <ele>65.03</ele>
        <time>2016-04-03T12:00:38Z</time>
      </trkpt>
      <trkpt lat="44.93709" lon="-0.04388">
        <ele>65.03</ele>
        <time>2016-04-03T12:00:54Z</time>
      </trkpt>
      <trkpt lat="44.93706" lon="-0.04416">
        <ele>65.03</ele>
        <time>2016-04-03T12:01:10Z</time>
      </trkpt>
      <trkpt lat="44.93704" lon="-0.04445">
        <ele>65.03</ele>
        <time>2016-04-03T12:01:26Z</time>
      </trkpt>
      <trkpt lat="44.93705" lon="-0.04474">
        <ele>65.03</ele>
        <time>2016-04-03T12:01:43Z</time>
      </trkpt>
      <trkpt lat="44.93707" lon="-0.04497">
        <ele>65.03</ele>
        <time>2016-04-03T12:01:57Z</time>
      </trkpt>
      <trkpt lat="44.93704" lon="-0.04518">
        <ele>65.03</ele>
        <time>2016-04-03T12:02:10Z</time>
      </trkpt>
      <trkpt lat="44.93697" lon="-0.04516">
        <ele>65.03</ele>
        <time>2016-04-03T12:02:29Z</time>
      </trkpt>
      <trkpt lat="44.93696" lon="-0.04521">
        <ele>65.03</ele>
        <time>2016-04-03T12:02:45Z</time>
      </trkpt>
      <trkpt lat="44.93697" lon="-0.04523">
        <ele>65.03</ele>
        <time>2016-04-03T12:02:48Z</time>
      </trkpt>
      <trkpt lat="44.93691" lon="-0.04526">
        <ele>65.03</ele>
        <time>2016-04-03T12:02:53Z</time>
      </trkpt>
      <trkpt lat="44.93672" lon="-0.04536">
        <ele>65.51</ele>
        <time>2016-04-03T12:03:10Z</time>
      </trkpt>
      <trkpt lat="44.93652" lon="-0.04542">
        <ele>65.51</ele>
        <time>2016-04-03T12:03:27Z</time>
      </trkpt>
      <trkpt lat="44.93637" lon="-0.04546">
        <ele>65.51</ele>
        <time>2016-04-03T12:03:43Z</time>
      </trkpt>
      <trkpt lat="44.93636" lon="-0.04554">
        <ele>66.47</ele>
        <time>2016-04-03T12:03:59Z</time>
      </trkpt>
      <trkpt lat="44.93637" lon="-0.04555">
        <ele>66.47</ele>
        <time>2016-04-03T12:04:00Z</time>
      </trkpt>
      <trkpt lat="44.93643" lon="-0.04578">
        <ele>66.47</ele>
        <time>2016-04-03T12:04:17Z</time>
      </trkpt>
      <trkpt lat="44.93648" lon="-0.04598">
        <ele>66.47</ele>
        <time>2016-04-03T12:04:32Z</time>
      </trkpt>
      <trkpt lat="44.9365" lon="-0.04606">
        <ele>66.47</ele>
        <time>2016-04-03T12:04:39Z</time>
      </trkpt>
      <trkpt lat="44.9366" lon="-0.04614">
        <ele>67.43</ele>
        <time>2016-04-03T12:04:55Z</time>
      </trkpt>
      <trkpt lat="44.93665" lon="-0.04621">
        <ele>67.43</ele>
        <time>2016-04-03T12:05:08Z</time>
      </trkpt>
      <trkpt lat="44.93664" lon="-0.04623">
        <ele>67.91</ele>
        <time>2016-04-03T12:06:50Z</time>
      </trkpt>
      <trkpt lat="44.93664" lon="-0.04632">
        <ele>67.91</ele>
        <time>2016-04-03T12:08:06Z</time>
      </trkpt>
      <trkpt lat="44.93665" lon="-0.04638">
        <ele>68.39</ele>
        <time>2016-04-03T12:08:16Z</time>
      </trkpt>
      <trkpt lat="44.93664" lon="-0.04664">
        <ele>68.87</ele>
        <time>2016-04-03T12:08:34Z</time>
      </trkpt>
      <trkpt lat="44.93658" lon="-0.04671">
        <ele>70.31</ele>
        <time>2016-04-03T12:11:53Z</time>
      </trkpt>
      <trkpt lat="44.93652" lon="-0.04675">
        <ele>70.31</ele>
        <time>2016-04-03T12:21:23Z</time>
      </trkpt>
      <trkpt lat="44.93647" lon="-0.04677">
        <ele>70.79</ele>
        <time>2016-04-03T12:21:53Z</time>
      </trkpt>
      <trkpt lat="44.93639" lon="-0.04683">
        <ele>70.79</ele>
        <time>2016-04-03T12:22:09Z</time>
      </trkpt>
      <trkpt lat="44.93638" lon="-0.04686">
        <ele>70.79</ele>
        <time>2016-04-03T12:22:14Z</time>
      </trkpt>
      <trkpt lat="44.93622" lon="-0.04697">
        <ele>70.79</ele>
        <time>2016-04-03T12:22:32Z</time>
      </trkpt>
      <trkpt lat="44.93615" lon="-0.04699">
        <ele>70.79</ele>
        <time>2016-04-03T12:22:41Z</time>
      </trkpt>
      <trkpt lat="44.93613" lon="-0.04708">
        <ele>70.79</ele>
        <time>2016-04-03T12:22:49Z</time>
      </trkpt>
      <trkpt lat="44.93617" lon="-0.04734">
        <ele>70.79</ele>
        <time>2016-04-03T12:23:10Z</time>
      </trkpt>
      <trkpt lat="44.93623" lon="-0.04754">
        <ele>69.35</ele>
        <time>2016-04-03T12:23:28Z</time>
      </trkpt>
      <trkpt lat="44.93628" lon="-0.04774">
        <ele>69.35</ele>
        <time>2016-04-03T12:23:44Z</time>
      </trkpt>
      <trkpt lat="44.93635" lon="-0.04795">
        <ele>68.87</ele>
        <time>2016-04-03T12:24:00Z</time>
      </trkpt>
      <trkpt lat="44.93644" lon="-0.04818">
        <ele>68.87</ele>
        <time>2016-04-03T12:24:17Z</time>
      </trkpt>
      <trkpt lat="44.93648" lon="-0.04832">
        <ele>68.87</ele>
        <time>2016-04-03T12:24:34Z</time>
      </trkpt>
      <trkpt lat="44.93648" lon="-0.04836">
        <ele>68.87</ele>
        <time>2016-04-03T12:24:37Z</time>
      </trkpt>
      <trkpt lat="44.93645" lon="-0.0485">
        <ele>68.87</ele>
        <time>2016-04-03T12:24:51Z</time>
      </trkpt>
      <trkpt lat="44.93643" lon="-0.04851">
        <ele>68.87</ele>
        <time>2016-04-03T12:24:53Z</time>
      </trkpt>
      <trkpt lat="44.93627" lon="-0.04854">
        <ele>67.91</ele>
        <time>2016-04-03T12:25:11Z</time>
      </trkpt>
      <trkpt lat="44.93608" lon="-0.04856">
        <ele>66.95</ele>
        <time>2016-04-03T12:25:30Z</time>
      </trkpt>
      <trkpt lat="44.93589" lon="-0.04859">
        <ele>66.95</ele>
        <time>2016-04-03T12:25:48Z</time>
      </trkpt>
      <trkpt lat="44.93574" lon="-0.0486">
        <ele>66.47</ele>
        <time>2016-04-03T12:26:02Z</time>
      </trkpt>
      <trkpt lat="44.93557" lon="-0.04863">
        <ele>65.99</ele>
        <time>2016-04-03T12:26:18Z</time>
      </trkpt>
      <trkpt lat="44.93539" lon="-0.04865">
        <ele>65.51</ele>
        <time>2016-04-03T12:26:35Z</time>
      </trkpt>
      <trkpt lat="44.9352" lon="-0.04867">
        <ele>65.51</ele>
        <time>2016-04-03T12:26:53Z</time>
      </trkpt>
      <trkpt lat="44.935" lon="-0.0487">
        <ele>65.03</ele>
        <time>2016-04-03T12:27:11Z</time>
      </trkpt>
      <trkpt lat="44.9348" lon="-0.04872">
        <ele>65.03</ele>
        <time>2016-04-03T12:27:28Z</time>
      </trkpt>
      <trkpt lat="44.9346" lon="-0.04875">
        <ele>64.55</ele>
        <time>2016-04-03T12:27:46Z</time>
      </trkpt>
      <trkpt lat="44.93441" lon="-0.04878">
        <ele>63.58</ele>
        <time>2016-04-03T12:28:04Z</time>
      </trkpt>
      <trkpt lat="44.93441" lon="-0.04878">
        <ele>63.58</ele>
        <time>2016-04-03T12:28:05Z</time>
      </trkpt>
      <trkpt lat="44.93422" lon="-0.04882">
        <ele>63.58</ele>
        <time>2016-04-03T12:28:23Z</time>
      </trkpt>
      <trkpt lat="44.93404" lon="-0.04885">
        <ele>62.62</ele>
        <time>2016-04-03T12:28:40Z</time>
      </trkpt>
      <trkpt lat="44.93401" lon="-0.04886">
        <ele>62.62</ele>
        <time>2016-04-03T12:28:43Z</time>
      </trkpt>
      <trkpt lat="44.93396" lon="-0.04886">
        <ele>62.62</ele>
        <time>2016-04-03T12:28:48Z</time>
      </trkpt>
      <trkpt lat="44.93379" lon="-0.04891">
        <ele>62.62</ele>
        <time>2016-04-03T12:29:03Z</time>
      </trkpt>
      <trkpt lat="44.93365" lon="-0.04902">
        <ele>63.1</ele>
        <time>2016-04-03T12:29:18Z</time>
      </trkpt>
      <trkpt lat="44.93361" lon="-0.04904">
        <ele>63.1</ele>
        <time>2016-04-03T12:29:22Z</time>
      </trkpt>
      <trkpt lat="44.93341" lon="-0.04904">
        <ele>62.62</ele>
        <time>2016-04-03T12:29:41Z</time>
      </trkpt>
      <trkpt lat="44.93324" lon="-0.04902">
        <ele>62.62</ele>
        <time>2016-04-03T12:29:56Z</time>
      </trkpt>
      <trkpt lat="44.93306" lon="-0.04903">
        <ele>62.62</ele>
        <time>2016-04-03T12:30:13Z</time>
      </trkpt>
      <trkpt lat="44.93293" lon="-0.04904">
        <ele>62.62</ele>
        <time>2016-04-03T12:30:25Z</time>
      </trkpt>
      <trkpt lat="44.93291" lon="-0.04905">
        <ele>62.62</ele>
        <time>2016-04-03T12:30:28Z</time>
      </trkpt>
      <trkpt lat="44.93287" lon="-0.04908">
        <ele>64.07</ele>
        <time>2016-04-03T12:30:32Z</time>
      </trkpt>
      <trkpt lat="44.93269" lon="-0.04927">
        <ele>64.55</ele>
        <time>2016-04-03T12:30:50Z</time>
      </trkpt>
      <trkpt lat="44.93257" lon="-0.04947">
        <ele>64.55</ele>
        <time>2016-04-03T12:31:06Z</time>
      </trkpt>
      <trkpt lat="44.93246" lon="-0.04967">
        <ele>63.1</ele>
        <time>2016-04-03T12:31:21Z</time>
      </trkpt>
      <trkpt lat="44.93233" lon="-0.04988">
        <ele>63.1</ele>
        <time>2016-04-03T12:31:37Z</time>
      </trkpt>
      <trkpt lat="44.93218" lon="-0.05007">
        <ele>62.14</ele>
        <time>2016-04-03T12:31:56Z</time>
      </trkpt>
      <trkpt lat="44.9321" lon="-0.05021">
        <ele>62.14</ele>
        <time>2016-04-03T12:32:11Z</time>
      </trkpt>
      <trkpt lat="44.932" lon="-0.05044">
        <ele>62.14</ele>
        <time>2016-04-03T12:32:28Z</time>
      </trkpt>
      <trkpt lat="44.93187" lon="-0.05067">
        <ele>62.14</ele>
        <time>2016-04-03T12:32:44Z</time>
      </trkpt>
      <trkpt lat="44.93174" lon="-0.05092">
        <ele>63.58</ele>
        <time>2016-04-03T12:33:00Z</time>
      </trkpt>
      <trkpt lat="44.93161" lon="-0.05114">
        <ele>64.07</ele>
        <time>2016-04-03T12:33:18Z</time>
      </trkpt>
      <trkpt lat="44.93146" lon="-0.05141">
        <ele>64.07</ele>
        <time>2016-04-03T12:33:37Z</time>
      </trkpt>
      <trkpt lat="44.93136" lon="-0.05162">
        <ele>64.07</ele>
        <time>2016-04-03T12:33:53Z</time>
      </trkpt>
      <trkpt lat="44.93136" lon="-0.05173">
        <ele>64.07</ele>
        <time>2016-04-03T12:34:00Z</time>
      </trkpt>
      <trkpt lat="44.93142" lon="-0.05184">
        <ele>64.07</ele>
        <time>2016-04-03T12:34:12Z</time>
      </trkpt>
      <trkpt lat="44.93154" lon="-0.05202">
        <ele>66.47</ele>
        <time>2016-04-03T12:34:30Z</time>
      </trkpt>
      <trkpt lat="44.93163" lon="-0.05211">
        <ele>67.91</ele>
        <time>2016-04-03T12:34:44Z</time>
      </trkpt>
      <trkpt lat="44.93163" lon="-0.05219">
        <ele>67.91</ele>
        <time>2016-04-03T12:34:52Z</time>
      </trkpt>
      <trkpt lat="44.93157" lon="-0.0524">
        <ele>68.87</ele>
        <time>2016-04-03T12:35:08Z</time>
      </trkpt>
      <trkpt lat="44.93151" lon="-0.05261">
        <ele>68.87</ele>
        <time>2016-04-03T12:35:24Z</time>
      </trkpt>
      <trkpt lat="44.93148" lon="-0.05268">
        <ele>68.87</ele>
        <time>2016-04-03T12:35:30Z</time>
      </trkpt>
      <trkpt lat="44.93144" lon="-0.05285">
        <ele>68.87</ele>
        <time>2016-04-03T12:35:45Z</time>
      </trkpt>
      <trkpt lat="44.93142" lon="-0.05289">
        <ele>68.87</ele>
        <time>2016-04-03T12:35:49Z</time>
      </trkpt>
      <trkpt lat="44.93133" lon="-0.05307">
        <ele>68.87</ele>
        <time>2016-04-03T12:36:06Z</time>
      </trkpt>
      <trkpt lat="44.9313" lon="-0.05309">
        <ele>68.87</ele>
        <time>2016-04-03T12:36:21Z</time>
      </trkpt>
      <trkpt lat="44.93129" lon="-0.05311">
        <ele>68.87</ele>
        <time>2016-04-03T12:36:40Z</time>
      </trkpt>
      <trkpt lat="44.93128" lon="-0.05312">
        <ele>68.87</ele>
        <time>2016-04-03T12:36:58Z</time>
      </trkpt>
      <trkpt lat="44.93122" lon="-0.05311">
        <ele>69.35</ele>
        <time>2016-04-03T12:37:13Z</time>
      </trkpt>
      <trkpt lat="44.93121" lon="-0.0531">
        <ele>69.35</ele>
        <time>2016-04-03T12:37:16Z</time>
      </trkpt>
      <trkpt lat="44.93105" lon="-0.05301">
        <ele>66.95</ele>
        <time>2016-04-03T12:37:36Z</time>
      </trkpt>
      <trkpt lat="44.93089" lon="-0.05293">
        <ele>65.51</ele>
        <time>2016-04-03T12:37:53Z</time>
      </trkpt>
      <trkpt lat="44.93072" lon="-0.05285">
        <ele>63.1</ele>
        <time>2016-04-03T12:38:13Z</time>
      </trkpt>
      <trkpt lat="44.93057" lon="-0.05277">
        <ele>61.18</ele>
        <time>2016-04-03T12:38:30Z</time>
      </trkpt>
      <trkpt lat="44.93042" lon="-0.0527">
        <ele>59.74</ele>
        <time>2016-04-03T12:38:45Z</time>
      </trkpt>
      <trkpt lat="44.93034" lon="-0.0527">
        <ele>58.78</ele>
        <time>2016-04-03T12:38:58Z</time>
      </trkpt>
      <trkpt lat="44.93036" lon="-0.0529">
        <ele>58.3</ele>
        <time>2016-04-03T12:39:16Z</time>
      </trkpt>
      <trkpt lat="44.93039" lon="-0.05312">
        <ele>58.3</ele>
        <time>2016-04-03T12:39:33Z</time>
      </trkpt>
      <trkpt lat="44.9304" lon="-0.05313">
        <ele>58.3</ele>
        <time>2016-04-03T12:39:34Z</time>
      </trkpt>
      <trkpt lat="44.93043" lon="-0.05337">
        <ele>58.3</ele>
        <time>2016-04-03T12:39:50Z</time>
      </trkpt>
      <trkpt lat="44.93047" lon="-0.05355">
        <ele>58.3</ele>
        <time>2016-04-03T12:40:04Z</time>
      </trkpt>
      <trkpt lat="44.9305" lon="-0.05366">
        <ele>59.74</ele>
        <time>2016-04-03T12:40:18Z</time>
      </trkpt>
      <trkpt lat="44.93049" lon="-0.05368">
        <ele>59.74</ele>
        <time>2016-04-03T12:40:21Z</time>
      </trkpt>
      <trkpt lat="44.93047" lon="-0.05381">
        <ele>60.7</ele>
        <time>2016-04-03T12:40:30Z</time>
      </trkpt>
      <trkpt lat="44.93045" lon="-0.05393">
        <ele>60.7</ele>
        <time>2016-04-03T12:40:44Z</time>
      </trkpt>
      <trkpt lat="44.93045" lon="-0.05393">
        <ele>60.7</ele>
        <time>2016-04-03T12:41:10Z</time>
      </trkpt>
      <trkpt lat="44.93044" lon="-0.05401">
        <ele>60.22</ele>
        <time>2016-04-03T12:41:30Z</time>
      </trkpt>
      <trkpt lat="44.93039" lon="-0.05421">
        <ele>60.22</ele>
        <time>2016-04-03T12:41:45Z</time>
      </trkpt>
      <trkpt lat="44.93038" lon="-0.05423">
        <ele>60.22</ele>
        <time>2016-04-03T12:41:46Z</time>
      </trkpt>
      <trkpt lat="44.93037" lon="-0.05427">
        <ele>59.26</ele>
        <time>2016-04-03T12:41:49Z</time>
      </trkpt>
      <trkpt lat="44.93033" lon="-0.05451">
        <ele>58.78</ele>
        <time>2016-04-03T12:42:07Z</time>
      </trkpt>
      <trkpt lat="44.9303" lon="-0.05458">
        <ele>58.3</ele>
        <time>2016-04-03T12:42:12Z</time>
      </trkpt>
      <trkpt lat="44.9302" lon="-0.05485">
        <ele>57.34</ele>
        <time>2016-04-03T12:42:30Z</time>
      </trkpt>
      <trkpt lat="44.93006" lon="-0.0551">
        <ele>56.37</ele>
        <time>2016-04-03T12:42:49Z</time>
      </trkpt>
      <trkpt lat="44.92992" lon="-0.05533">
        <ele>56.37</ele>
        <time>2016-04-03T12:43:07Z</time>
      </trkpt>
      <trkpt lat="44.92982" lon="-0.05552">
        <ele>57.34</ele>
        <time>2016-04-03T12:43:23Z</time>
      </trkpt>
      <trkpt lat="44.92972" lon="-0.05572">
        <ele>57.82</ele>
        <time>2016-04-03T12:43:39Z</time>
      </trkpt>
      <trkpt lat="44.92974" lon="-0.05594">
        <ele>58.3</ele>
        <time>2016-04-03T12:43:55Z</time>
      </trkpt>
      <trkpt lat="44.92978" lon="-0.05618">
        <ele>57.82</ele>
        <time>2016-04-03T12:44:11Z</time>
      </trkpt>
      <trkpt lat="44.92983" lon="-0.0564">
        <ele>57.82</ele>
        <time>2016-04-03T12:44:26Z</time>
      </trkpt>
      <trkpt lat="44.92991" lon="-0.05659">
        <ele>57.82</ele>
        <time>2016-04-03T12:44:41Z</time>
      </trkpt>
      <trkpt lat="44.92992" lon="-0.05674">
        <ele>56.37</ele>
        <time>2016-04-03T12:44:52Z</time>
      </trkpt>
      <trkpt lat="44.92992" lon="-0.05682">
        <ele>55.89</ele>
        <time>2016-04-03T12:45:05Z</time>
      </trkpt>
      <trkpt lat="44.9299" lon="-0.05688">
        <ele>55.41</ele>
        <time>2016-04-03T12:45:18Z</time>
      </trkpt>
      <trkpt lat="44.92987" lon="-0.05688">
        <ele>55.41</ele>
        <time>2016-04-03T12:45:36Z</time>
      </trkpt>
      <trkpt lat="44.92982" lon="-0.05688">
        <ele>54.93</ele>
        <time>2016-04-03T12:45:45Z</time>
      </trkpt>
      <trkpt lat="44.92978" lon="-0.05689">
        <ele>53.97</ele>
        <time>2016-04-03T12:45:50Z</time>
      </trkpt>
      <trkpt lat="44.92964" lon="-0.0569">
        <ele>53.49</ele>
        <time>2016-04-03T12:46:08Z</time>
      </trkpt>
      <trkpt lat="44.92953" lon="-0.05696">
        <ele>52.53</ele>
        <time>2016-04-03T12:46:22Z</time>
      </trkpt>
      <trkpt lat="44.92941" lon="-0.05707">
        <ele>52.53</ele>
        <time>2016-04-03T12:46:37Z</time>
      </trkpt>
      <trkpt lat="44.92929" lon="-0.05721">
        <ele>52.05</ele>
        <time>2016-04-03T12:46:54Z</time>
      </trkpt>
      <trkpt lat="44.92925" lon="-0.05735">
        <ele>52.05</ele>
        <time>2016-04-03T12:47:08Z</time>
      </trkpt>
      <trkpt lat="44.92924" lon="-0.05757">
        <ele>52.53</ele>
        <time>2016-04-03T12:47:25Z</time>
      </trkpt>
      <trkpt lat="44.92921" lon="-0.05768">
        <ele>53.49</ele>
        <time>2016-04-03T12:47:40Z</time>
      </trkpt>
      <trkpt lat="44.92921" lon="-0.05773">
        <ele>53.49</ele>
        <time>2016-04-03T12:47:46Z</time>
      </trkpt>
      <trkpt lat="44.92915" lon="-0.05776">
        <ele>53.97</ele>
        <time>2016-04-03T12:47:59Z</time>
      </trkpt>
      <trkpt lat="44.92912" lon="-0.05777">
        <ele>53.97</ele>
        <time>2016-04-03T12:48:04Z</time>
      </trkpt>
      <trkpt lat="44.92895" lon="-0.05778">
        <ele>53.97</ele>
        <time>2016-04-03T12:48:22Z</time>
      </trkpt>
      <trkpt lat="44.9288" lon="-0.0578">
        <ele>53.97</ele>
        <time>2016-04-03T12:48:37Z</time>
      </trkpt>
      <trkpt lat="44.92865" lon="-0.05782">
        <ele>53.97</ele>
        <time>2016-04-03T12:48:50Z</time>
      </trkpt>
      <trkpt lat="44.92847" lon="-0.05785">
        <ele>53.97</ele>
        <time>2016-04-03T12:49:06Z</time>
      </trkpt>
      <trkpt lat="44.92835" lon="-0.05787">
        <ele>53.97</ele>
        <time>2016-04-03T12:49:17Z</time>
      </trkpt>
      <trkpt lat="44.92819" lon="-0.0579">
        <ele>52.53</ele>
        <time>2016-04-03T12:49:34Z</time>
      </trkpt>
      <trkpt lat="44.92809" lon="-0.05794">
        <ele>52.53</ele>
        <time>2016-04-03T12:49:45Z</time>
      </trkpt>
      <trkpt lat="44.92793" lon="-0.05807">
        <ele>52.53</ele>
        <time>2016-04-03T12:50:03Z</time>
      </trkpt>
      <trkpt lat="44.92783" lon="-0.05819">
        <ele>52.53</ele>
        <time>2016-04-03T12:50:17Z</time>
      </trkpt>
      <trkpt lat="44.92782" lon="-0.05821">
        <ele>52.53</ele>
        <time>2016-04-03T12:50:19Z</time>
      </trkpt>
      <trkpt lat="44.92777" lon="-0.0584">
        <ele>53.97</ele>
        <time>2016-04-03T12:50:35Z</time>
      </trkpt>
      <trkpt lat="44.92775" lon="-0.05846">
        <ele>53.97</ele>
        <time>2016-04-03T12:50:40Z</time>
      </trkpt>
      <trkpt lat="44.92768" lon="-0.05862">
        <ele>54.45</ele>
        <time>2016-04-03T12:50:56Z</time>
      </trkpt>
      <trkpt lat="44.92766" lon="-0.05869">
        <ele>54.45</ele>
        <time>2016-04-03T12:51:09Z</time>
      </trkpt>
      <trkpt lat="44.92764" lon="-0.05872">
        <ele>54.93</ele>
        <time>2016-04-03T12:51:12Z</time>
      </trkpt>
      <trkpt lat="44.92761" lon="-0.05873">
        <ele>54.93</ele>
        <time>2016-04-03T12:51:15Z</time>
      </trkpt>
      <trkpt lat="44.92751" lon="-0.05886">
        <ele>54.93</ele>
        <time>2016-04-03T12:51:28Z</time>
      </trkpt>
      <trkpt lat="44.92738" lon="-0.05901">
        <ele>55.41</ele>
        <time>2016-04-03T12:51:45Z</time>
      </trkpt>
      <trkpt lat="44.92724" lon="-0.05915">
        <ele>55.89</ele>
        <time>2016-04-03T12:52:02Z</time>
      </trkpt>
      <trkpt lat="44.9271" lon="-0.05925">
        <ele>56.37</ele>
        <time>2016-04-03T12:52:17Z</time>
      </trkpt>
      <trkpt lat="44.92702" lon="-0.05925">
        <ele>56.37</ele>
        <time>2016-04-03T12:52:23Z</time>
      </trkpt>
      <trkpt lat="44.92691" lon="-0.05938">
        <ele>56.37</ele>
        <time>2016-04-03T12:52:35Z</time>
      </trkpt>
      <trkpt lat="44.92679" lon="-0.05961">
        <ele>56.37</ele>
        <time>2016-04-03T12:52:53Z</time>
      </trkpt>
      <trkpt lat="44.92668" lon="-0.05982">
        <ele>56.86</ele>
        <time>2016-04-03T12:53:10Z</time>
      </trkpt>
      <trkpt lat="44.92667" lon="-0.05986">
        <ele>56.86</ele>
        <time>2016-04-03T12:53:13Z</time>
      </trkpt>
      <trkpt lat="44.92659" lon="-0.05989">
        <ele>56.86</ele>
        <time>2016-04-03T12:53:23Z</time>
      </trkpt>
      <trkpt lat="44.92649" lon="-0.05978">
        <ele>55.41</ele>
        <time>2016-04-03T12:53:38Z</time>
      </trkpt>
      <trkpt lat="44.92639" lon="-0.05967">
        <ele>54.93</ele>
        <time>2016-04-03T12:53:53Z</time>
      </trkpt>
      <trkpt lat="44.92635" lon="-0.05969">
        <ele>53.97</ele>
        <time>2016-04-03T12:54:05Z</time>
      </trkpt>
      <trkpt lat="44.92635" lon="-0.05978">
        <ele>53.97</ele>
        <time>2016-04-03T12:54:18Z</time>
      </trkpt>
      <trkpt lat="44.92627" lon="-0.0598">
        <ele>53.01</ele>
        <time>2016-04-03T12:54:29Z</time>
      </trkpt>
      <trkpt lat="44.92612" lon="-0.05984">
        <ele>52.05</ele>
        <time>2016-04-03T12:54:46Z</time>
      </trkpt>
      <trkpt lat="44.92595" lon="-0.05992">
        <ele>51.09</ele>
        <time>2016-04-03T12:55:04Z</time>
      </trkpt>
      <trkpt lat="44.92579" lon="-0.05997">
        <ele>50.61</ele>
        <time>2016-04-03T12:55:21Z</time>
      </trkpt>
      <trkpt lat="44.92564" lon="-0.05997">
        <ele>50.13</ele>
        <time>2016-04-03T12:55:38Z</time>
      </trkpt>
      <trkpt lat="44.92561" lon="-0.05997">
        <ele>49.65</ele>
        <time>2016-04-03T12:55:41Z</time>
      </trkpt>
      <trkpt lat="44.92543" lon="-0.05992">
        <ele>49.65</ele>
        <time>2016-04-03T12:55:57Z</time>
      </trkpt>
      <trkpt lat="44.92528" lon="-0.05983">
        <ele>49.65</ele>
        <time>2016-04-03T12:56:13Z</time>
      </trkpt>
      <trkpt lat="44.92515" lon="-0.05979">
        <ele>49.65</ele>
        <time>2016-04-03T12:56:29Z</time>
      </trkpt>
      <trkpt lat="44.92511" lon="-0.05973">
        <ele>49.65</ele>
        <time>2016-04-03T12:56:48Z</time>
      </trkpt>
      <trkpt lat="44.9251" lon="-0.05971">
        <ele>49.65</ele>
        <time>2016-04-03T12:56:50Z</time>
      </trkpt>
      <trkpt lat="44.92514" lon="-0.05946">
        <ele>49.65</ele>
        <time>2016-04-03T12:57:07Z</time>
      </trkpt>
      <trkpt lat="44.92516" lon="-0.05933">
        <ele>49.65</ele>
        <time>2016-04-03T12:57:19Z</time>
      </trkpt>
      <trkpt lat="44.92517" lon="-0.05911">
        <ele>51.09</ele>
        <time>2016-04-03T12:57:35Z</time>
      </trkpt>
      <trkpt lat="44.92519" lon="-0.0589">
        <ele>51.57</ele>
        <time>2016-04-03T12:57:50Z</time>
      </trkpt>
      <trkpt lat="44.92521" lon="-0.05883">
        <ele>51.57</ele>
        <time>2016-04-03T12:57:55Z</time>
      </trkpt>
      <trkpt lat="44.92522" lon="-0.05854">
        <ele>53.49</ele>
        <time>2016-04-03T12:58:13Z</time>
      </trkpt>
      <trkpt lat="44.92518" lon="-0.05829">
        <ele>55.41</ele>
        <time>2016-04-03T12:58:29Z</time>
      </trkpt>
      <trkpt lat="44.92511" lon="-0.05806">
        <ele>56.86</ele>
        <time>2016-04-03T12:58:45Z</time>
      </trkpt>
      <trkpt lat="44.9251" lon="-0.05802">
        <ele>56.86</ele>
        <time>2016-04-03T12:58:48Z</time>
      </trkpt>
      <trkpt lat="44.92509" lon="-0.05791">
        <ele>57.34</ele>
        <time>2016-04-03T12:58:56Z</time>
      </trkpt>
      <trkpt lat="44.92506" lon="-0.05762">
        <ele>58.78</ele>
        <time>2016-04-03T12:59:13Z</time>
      </trkpt>
      <trkpt lat="44.92506" lon="-0.05746">
        <ele>59.26</ele>
        <time>2016-04-03T12:59:23Z</time>
      </trkpt>
      <trkpt lat="44.92507" lon="-0.05725">
        <ele>59.26</ele>
        <time>2016-04-03T12:59:36Z</time>
      </trkpt>
      <trkpt lat="44.92504" lon="-0.05698">
        <ele>59.74</ele>
        <time>2016-04-03T12:59:53Z</time>
      </trkpt>
      <trkpt lat="44.92501" lon="-0.05678">
        <ele>59.74</ele>
        <time>2016-04-03T13:00:07Z</time>
      </trkpt>
      <trkpt lat="44.92495" lon="-0.05646">
        <ele>59.74</ele>
        <time>2016-04-03T13:00:25Z</time>
      </trkpt>
      <trkpt lat="44.92493" lon="-0.05621">
        <ele>59.74</ele>
        <time>2016-04-03T13:00:40Z</time>
      </trkpt>
      <trkpt lat="44.92489" lon="-0.05592">
        <ele>59.74</ele>
        <time>2016-04-03T13:00:57Z</time>
      </trkpt>
      <trkpt lat="44.92489" lon="-0.05569">
        <ele>60.7</ele>
        <time>2016-04-03T13:01:13Z</time>
      </trkpt>
      <trkpt lat="44.92489" lon="-0.05545">
        <ele>60.7</ele>
        <time>2016-04-03T13:01:28Z</time>
      </trkpt>
      <trkpt lat="44.92489" lon="-0.05512">
        <ele>60.7</ele>
        <time>2016-04-03T13:01:48Z</time>
      </trkpt>
      <trkpt lat="44.92489" lon="-0.05484">
        <ele>59.26</ele>
        <time>2016-04-03T13:02:04Z</time>
      </trkpt>
      <trkpt lat="44.92489" lon="-0.0545">
        <ele>58.3</ele>
        <time>2016-04-03T13:02:23Z</time>
      </trkpt>
      <trkpt lat="44.92488" lon="-0.05421">
        <ele>58.3</ele>
        <time>2016-04-03T13:02:40Z</time>
      </trkpt>
      <trkpt lat="44.9249" lon="-0.05393">
        <ele>57.82</ele>
        <time>2016-04-03T13:02:57Z</time>
      </trkpt>
      <trkpt lat="44.92493" lon="-0.05364">
        <ele>58.78</ele>
        <time>2016-04-03T13:03:14Z</time>
      </trkpt>
      <trkpt lat="44.92504" lon="-0.05337">
        <ele>60.22</ele>
        <time>2016-04-03T13:03:32Z</time>
      </trkpt>
      <trkpt lat="44.92517" lon="-0.05316">
        <ele>62.14</ele>
        <time>2016-04-03T13:03:49Z</time>
      </trkpt>
      <trkpt lat="44.92528" lon="-0.05302">
        <ele>63.58</ele>
        <time>2016-04-03T13:04:03Z</time>
      </trkpt>
      <trkpt lat="44.92544" lon="-0.05282">
        <ele>65.99</ele>
        <time>2016-04-03T13:04:22Z</time>
      </trkpt>
      <trkpt lat="44.92552" lon="-0.05262">
        <ele>68.39</ele>
        <time>2016-04-03T13:04:36Z</time>
      </trkpt>
      <trkpt lat="44.92547" lon="-0.0524">
        <ele>70.79</ele>
        <time>2016-04-03T13:04:51Z</time>
      </trkpt>
      <trkpt lat="44.92545" lon="-0.05226">
        <ele>71.27</ele>
        <time>2016-04-03T13:05:05Z</time>
      </trkpt>
      <trkpt lat="44.92537" lon="-0.05215">
        <ele>73.2</ele>
        <time>2016-04-03T13:05:19Z</time>
      </trkpt>
      <trkpt lat="44.92528" lon="-0.05204">
        <ele>75.12</ele>
        <time>2016-04-03T13:05:34Z</time>
      </trkpt>
      <trkpt lat="44.92519" lon="-0.05193">
        <ele>77.04</ele>
        <time>2016-04-03T13:05:48Z</time>
      </trkpt>
      <trkpt lat="44.92505" lon="-0.05181">
        <ele>78.48</ele>
        <time>2016-04-03T13:06:05Z</time>
      </trkpt>
      <trkpt lat="44.92499" lon="-0.05174">
        <ele>78.97</ele>
        <time>2016-04-03T13:06:13Z</time>
      </trkpt>
      <trkpt lat="44.92483" lon="-0.05174">
        <ele>79.93</ele>
        <time>2016-04-03T13:06:29Z</time>
      </trkpt>
      <trkpt lat="44.92467" lon="-0.05178">
        <ele>80.89</ele>
        <time>2016-04-03T13:06:45Z</time>
      </trkpt>
      <trkpt lat="44.92448" lon="-0.05185">
        <ele>80.89</ele>
        <time>2016-04-03T13:07:00Z</time>
      </trkpt>
      <trkpt lat="44.92444" lon="-0.05187">
        <ele>80.89</ele>
        <time>2016-04-03T13:07:13Z</time>
      </trkpt>
      <trkpt lat="44.92441" lon="-0.05189">
        <ele>80.89</ele>
        <time>2016-04-03T13:07:26Z</time>
      </trkpt>
      <trkpt lat="44.92439" lon="-0.05192">
        <ele>80.89</ele>
        <time>2016-04-03T13:07:40Z</time>
      </trkpt>
      <trkpt lat="44.92436" lon="-0.05194">
        <ele>80.89</ele>
        <time>2016-04-03T13:07:56Z</time>
      </trkpt>
      <trkpt lat="44.92436" lon="-0.05194">
        <ele>80.89</ele>
        <time>2016-04-03T13:08:14Z</time>
      </trkpt>
      <trkpt lat="44.92435" lon="-0.05195">
        <ele>80.89</ele>
        <time>2016-04-03T13:08:32Z</time>
      </trkpt>
      <trkpt lat="44.92434" lon="-0.05195">
        <ele>79.93</ele>
        <time>2016-04-03T13:12:08Z</time>
      </trkpt>
      <trkpt lat="44.92434" lon="-0.05196">
        <ele>79.93</ele>
        <time>2016-04-03T13:12:24Z</time>
      </trkpt>
      <trkpt lat="44.92429" lon="-0.05199">
        <ele>79.93</ele>
        <time>2016-04-03T13:12:40Z</time>
      </trkpt>
      <trkpt lat="44.92425" lon="-0.05203">
        <ele>79.93</ele>
        <time>2016-04-03T13:12:53Z</time>
      </trkpt>
      <trkpt lat="44.9242" lon="-0.05206">
        <ele>79.93</ele>
        <time>2016-04-03T13:13:00Z</time>
      </trkpt>
      <trkpt lat="44.92407" lon="-0.05193">
        <ele>78</ele>
        <time>2016-04-03T13:13:17Z</time>
      </trkpt>
      <trkpt lat="44.92404" lon="-0.0519">
        <ele>78</ele>
        <time>2016-04-03T13:13:20Z</time>
      </trkpt>
      <trkpt lat="44.92386" lon="-0.0517">
        <ele>78</ele>
        <time>2016-04-03T13:13:39Z</time>
      </trkpt>
      <trkpt lat="44.92378" lon="-0.05166">
        <ele>78</ele>
        <time>2016-04-03T13:13:47Z</time>
      </trkpt>
      <trkpt lat="44.92359" lon="-0.05165">
        <ele>78</ele>
        <time>2016-04-03T13:14:05Z</time>
      </trkpt>
      <trkpt lat="44.92338" lon="-0.05169">
        <ele>78</ele>
        <time>2016-04-03T13:14:23Z</time>
      </trkpt>
      <trkpt lat="44.92331" lon="-0.05167">
        <ele>78.97</ele>
        <time>2016-04-03T13:14:28Z</time>
      </trkpt>
      <trkpt lat="44.92323" lon="-0.0516">
        <ele>79.45</ele>
        <time>2016-04-03T13:14:35Z</time>
      </trkpt>
      <trkpt lat="44.9232" lon="-0.05142">
        <ele>79.93</ele>
        <time>2016-04-03T13:14:48Z</time>
      </trkpt>
      <trkpt lat="44.92318" lon="-0.05135">
        <ele>80.41</ele>
        <time>2016-04-03T13:14:53Z</time>
      </trkpt>
      <trkpt lat="44.92313" lon="-0.051">
        <ele>81.37</ele>
        <time>2016-04-03T13:15:14Z</time>
      </trkpt>
      <trkpt lat="44.92309" lon="-0.05075">
        <ele>81.85</ele>
        <time>2016-04-03T13:15:30Z</time>
      </trkpt>
      <trkpt lat="44.92306" lon="-0.05047">
        <ele>83.29</ele>
        <time>2016-04-03T13:15:47Z</time>
      </trkpt>
      <trkpt lat="44.92304" lon="-0.05015">
        <ele>84.25</ele>
        <time>2016-04-03T13:16:06Z</time>
      </trkpt>
      <trkpt lat="44.92303" lon="-0.04987">
        <ele>85.21</ele>
        <time>2016-04-03T13:16:23Z</time>
      </trkpt>
      <trkpt lat="44.92301" lon="-0.04956">
        <ele>85.69</ele>
        <time>2016-04-03T13:16:41Z</time>
      </trkpt>
      <trkpt lat="44.92299" lon="-0.04935">
        <ele>86.66</ele>
        <time>2016-04-03T13:16:54Z</time>
      </trkpt>
      <trkpt lat="44.92299" lon="-0.04909">
        <ele>88.1</ele>
        <time>2016-04-03T13:17:09Z</time>
      </trkpt>
      <trkpt lat="44.92298" lon="-0.04886">
        <ele>89.06</ele>
        <time>2016-04-03T13:17:26Z</time>
      </trkpt>
      <trkpt lat="44.92297" lon="-0.04863">
        <ele>90.02</ele>
        <time>2016-04-03T13:17:39Z</time>
      </trkpt>
      <trkpt lat="44.92299" lon="-0.04835">
        <ele>91.94</ele>
        <time>2016-04-03T13:17:55Z</time>
      </trkpt>
      <trkpt lat="44.92301" lon="-0.04813">
        <ele>92.42</ele>
        <time>2016-04-03T13:18:10Z</time>
      </trkpt>
      <trkpt lat="44.92302" lon="-0.04787">
        <ele>93.39</ele>
        <time>2016-04-03T13:18:24Z</time>
      </trkpt>
      <trkpt lat="44.92301" lon="-0.04752">
        <ele>93.87</ele>
        <time>2016-04-03T13:18:43Z</time>
      </trkpt>
      <trkpt lat="44.92299" lon="-0.04723">
        <ele>94.83</ele>
        <time>2016-04-03T13:19:00Z</time>
      </trkpt>
      <trkpt lat="44.92294" lon="-0.04692">
        <ele>94.83</ele>
        <time>2016-04-03T13:19:19Z</time>
      </trkpt>
      <trkpt lat="44.92292" lon="-0.04663">
        <ele>95.79</ele>
        <time>2016-04-03T13:19:36Z</time>
      </trkpt>
      <trkpt lat="44.92291" lon="-0.04633">
        <ele>96.27</ele>
        <time>2016-04-03T13:19:52Z</time>
      </trkpt>
      <trkpt lat="44.92289" lon="-0.04602">
        <ele>96.75</ele>
        <time>2016-04-03T13:20:09Z</time>
      </trkpt>
      <trkpt lat="44.92287" lon="-0.04578">
        <ele>96.75</ele>
        <time>2016-04-03T13:20:25Z</time>
      </trkpt>
      <trkpt lat="44.92288" lon="-0.04573">
        <ele>96.75</ele>
        <time>2016-04-03T13:20:43Z</time>
      </trkpt>
      <trkpt lat="44.92288" lon="-0.04568">
        <ele>96.27</ele>
        <time>2016-04-03T13:21:08Z</time>
      </trkpt>
      <trkpt lat="44.92286" lon="-0.04558">
        <ele>96.27</ele>
        <time>2016-04-03T13:21:21Z</time>
      </trkpt>
      <trkpt lat="44.92282" lon="-0.04531">
        <ele>96.27</ele>
        <time>2016-04-03T13:21:40Z</time>
      </trkpt>
      <trkpt lat="44.92274" lon="-0.04497">
        <ele>96.75</ele>
        <time>2016-04-03T13:22:03Z</time>
      </trkpt>
      <trkpt lat="44.92267" lon="-0.04473">
        <ele>97.23</ele>
        <time>2016-04-03T13:22:18Z</time>
      </trkpt>
      <trkpt lat="44.92264" lon="-0.04458">
        <ele>97.23</ele>
        <time>2016-04-03T13:22:34Z</time>
      </trkpt>
      <trkpt lat="44.92265" lon="-0.04457">
        <ele>97.23</ele>
        <time>2016-04-03T13:22:46Z</time>
      </trkpt>
      <trkpt lat="44.92264" lon="-0.04455">
        <ele>97.23</ele>
        <time>2016-04-03T13:23:03Z</time>
      </trkpt>
      <trkpt lat="44.92258" lon="-0.04433">
        <ele>97.71</ele>
        <time>2016-04-03T13:23:19Z</time>
      </trkpt>
      <trkpt lat="44.92252" lon="-0.04401">
        <ele>97.71</ele>
        <time>2016-04-03T13:23:40Z</time>
      </trkpt>
      <trkpt lat="44.9225" lon="-0.04372">
        <ele>98.19</ele>
        <time>2016-04-03T13:23:59Z</time>
      </trkpt>
      <trkpt lat="44.92251" lon="-0.04342">
        <ele>98.67</ele>
        <time>2016-04-03T13:24:17Z</time>
      </trkpt>
      <trkpt lat="44.92251" lon="-0.04341">
        <ele>98.67</ele>
        <time>2016-04-03T13:24:18Z</time>
      </trkpt>
      <trkpt lat="44.9225" lon="-0.04316">
        <ele>98.67</ele>
        <time>2016-04-03T13:24:34Z</time>
      </trkpt>
      <trkpt lat="44.92245" lon="-0.04292">
        <ele>98.67</ele>
        <time>2016-04-03T13:24:53Z</time>
      </trkpt>
      <trkpt lat="44.92237" lon="-0.04272">
        <ele>98.67</ele>
        <time>2016-04-03T13:25:10Z</time>
      </trkpt>
      <trkpt lat="44.92225" lon="-0.04246">
        <ele>98.67</ele>
        <time>2016-04-03T13:25:28Z</time>
      </trkpt>
      <trkpt lat="44.92213" lon="-0.04219">
        <ele>98.67</ele>
        <time>2016-04-03T13:25:46Z</time>
      </trkpt>
      <trkpt lat="44.92205" lon="-0.04187">
        <ele>98.67</ele>
        <time>2016-04-03T13:26:04Z</time>
      </trkpt>
      <trkpt lat="44.922" lon="-0.04167">
        <ele>98.67</ele>
        <time>2016-04-03T13:26:16Z</time>
      </trkpt>
      <trkpt lat="44.92196" lon="-0.0416">
        <ele>98.67</ele>
        <time>2016-04-03T13:26:22Z</time>
      </trkpt>
      <trkpt lat="44.92183" lon="-0.04153">
        <ele>98.67</ele>
        <time>2016-04-03T13:26:38Z</time>
      </trkpt>
      <trkpt lat="44.92164" lon="-0.04151">
        <ele>98.67</ele>
        <time>2016-04-03T13:26:55Z</time>
      </trkpt>
      <trkpt lat="44.92145" lon="-0.04151">
        <ele>97.23</ele>
        <time>2016-04-03T13:27:11Z</time>
      </trkpt>
      <trkpt lat="44.92126" lon="-0.04151">
        <ele>97.23</ele>
        <time>2016-04-03T13:27:27Z</time>
      </trkpt>
      <trkpt lat="44.92124" lon="-0.04149">
        <ele>97.23</ele>
        <time>2016-04-03T13:27:30Z</time>
      </trkpt>
      <trkpt lat="44.92118" lon="-0.04124">
        <ele>97.23</ele>
        <time>2016-04-03T13:27:47Z</time>
      </trkpt>
      <trkpt lat="44.92117" lon="-0.04109">
        <ele>97.23</ele>
        <time>2016-04-03T13:27:57Z</time>
      </trkpt>
      <trkpt lat="44.92117" lon="-0.04105">
        <ele>97.23</ele>
        <time>2016-04-03T13:27:59Z</time>
      </trkpt>
      <trkpt lat="44.92116" lon="-0.04085">
        <ele>97.23</ele>
        <time>2016-04-03T13:28:12Z</time>
      </trkpt>
      <trkpt lat="44.92116" lon="-0.04083">
        <ele>97.23</ele>
        <time>2016-04-03T13:28:14Z</time>
      </trkpt>
      <trkpt lat="44.92116" lon="-0.0408">
        <ele>97.23</ele>
        <time>2016-04-03T13:28:16Z</time>
      </trkpt>
      <trkpt lat="44.92114" lon="-0.04056">
        <ele>96.75</ele>
        <time>2016-04-03T13:28:30Z</time>
      </trkpt>
      <trkpt lat="44.92115" lon="-0.04052">
        <ele>96.75</ele>
        <time>2016-04-03T13:28:33Z</time>
      </trkpt>
      <trkpt lat="44.92114" lon="-0.04049">
        <ele>96.75</ele>
        <time>2016-04-03T13:28:35Z</time>
      </trkpt>
      <trkpt lat="44.92113" lon="-0.04016">
        <ele>96.75</ele>
        <time>2016-04-03T13:28:56Z</time>
      </trkpt>
      <trkpt lat="44.92113" lon="-0.03992">
        <ele>96.75</ele>
        <time>2016-04-03T13:29:11Z</time>
      </trkpt>
      <trkpt lat="44.92113" lon="-0.0399">
        <ele>96.75</ele>
        <time>2016-04-03T13:29:12Z</time>
      </trkpt>
      <trkpt lat="44.92109" lon="-0.03963">
        <ele>96.75</ele>
        <time>2016-04-03T13:29:29Z</time>
      </trkpt>
      <trkpt lat="44.92107" lon="-0.03938">
        <ele>96.75</ele>
        <time>2016-04-03T13:29:44Z</time>
      </trkpt>
      <trkpt lat="44.92105" lon="-0.03908">
        <ele>96.27</ele>
        <time>2016-04-03T13:30:02Z</time>
      </trkpt>
      <trkpt lat="44.92105" lon="-0.03896">
        <ele>97.71</ele>
        <time>2016-04-03T13:30:10Z</time>
      </trkpt>
      <trkpt lat="44.92102" lon="-0.03896">
        <ele>97.71</ele>
        <time>2016-04-03T13:32:12Z</time>
      </trkpt>
      <trkpt lat="44.9208" lon="-0.03889">
        <ele>95.79</ele>
        <time>2016-04-03T13:32:32Z</time>
      </trkpt>
      <trkpt lat="44.92061" lon="-0.03885">
        <ele>95.31</ele>
        <time>2016-04-03T13:32:49Z</time>
      </trkpt>
      <trkpt lat="44.92044" lon="-0.03878">
        <ele>95.31</ele>
        <time>2016-04-03T13:33:06Z</time>
      </trkpt>
      <trkpt lat="44.92022" lon="-0.03874">
        <ele>94.83</ele>
        <time>2016-04-03T13:33:25Z</time>
      </trkpt>
      <trkpt lat="44.92002" lon="-0.03874">
        <ele>94.83</ele>
        <time>2016-04-03T13:33:42Z</time>
      </trkpt>
      <trkpt lat="44.91978" lon="-0.03878">
        <ele>94.83</ele>
        <time>2016-04-03T13:34:02Z</time>
      </trkpt>
      <trkpt lat="44.91956" lon="-0.03885">
        <ele>94.83</ele>
        <time>2016-04-03T13:34:20Z</time>
      </trkpt>
      <trkpt lat="44.91933" lon="-0.03892">
        <ele>94.83</ele>
        <time>2016-04-03T13:34:39Z</time>
      </trkpt>
      <trkpt lat="44.91913" lon="-0.039">
        <ele>94.83</ele>
        <time>2016-04-03T13:34:57Z</time>
      </trkpt>
      <trkpt lat="44.91894" lon="-0.03907">
        <ele>95.79</ele>
        <time>2016-04-03T13:35:14Z</time>
      </trkpt>
      <trkpt lat="44.91891" lon="-0.03908">
        <ele>95.79</ele>
        <time>2016-04-03T13:35:17Z</time>
      </trkpt>
      <trkpt lat="44.91887" lon="-0.03906">
        <ele>95.79</ele>
        <time>2016-04-03T13:35:21Z</time>
      </trkpt>
      <trkpt lat="44.91882" lon="-0.03905">
        <ele>94.35</ele>
        <time>2016-04-03T13:35:26Z</time>
      </trkpt>
      <trkpt lat="44.91859" lon="-0.03909">
        <ele>93.87</ele>
        <time>2016-04-03T13:35:45Z</time>
      </trkpt>
      <trkpt lat="44.91835" lon="-0.0391">
        <ele>93.39</ele>
        <time>2016-04-03T13:36:04Z</time>
      </trkpt>
      <trkpt lat="44.91808" lon="-0.03907">
        <ele>93.39</ele>
        <time>2016-04-03T13:36:26Z</time>
      </trkpt>
      <trkpt lat="44.91784" lon="-0.03901">
        <ele>92.9</ele>
        <time>2016-04-03T13:36:45Z</time>
      </trkpt>
      <trkpt lat="44.91759" lon="-0.03895">
        <ele>92.9</ele>
        <time>2016-04-03T13:37:05Z</time>
      </trkpt>
      <trkpt lat="44.91737" lon="-0.03887">
        <ele>92.9</ele>
        <time>2016-04-03T13:37:23Z</time>
      </trkpt>
      <trkpt lat="44.91719" lon="-0.03867">
        <ele>92.42</ele>
        <time>2016-04-03T13:37:41Z</time>
      </trkpt>
      <trkpt lat="44.91712" lon="-0.03838">
        <ele>92.42</ele>
        <time>2016-04-03T13:37:58Z</time>
      </trkpt>
      <trkpt lat="44.91711" lon="-0.03813">
        <ele>92.42</ele>
        <time>2016-04-03T13:38:13Z</time>
      </trkpt>
      <trkpt lat="44.9171" lon="-0.03784">
        <ele>93.39</ele>
        <time>2016-04-03T13:38:30Z</time>
      </trkpt>
      <trkpt lat="44.91703" lon="-0.03757">
        <ele>93.87</ele>
        <time>2016-04-03T13:38:47Z</time>
      </trkpt>
      <trkpt lat="44.917" lon="-0.0375">
        <ele>93.87</ele>
        <time>2016-04-03T13:38:52Z</time>
      </trkpt>
      <trkpt lat="44.91713" lon="-0.03732">
        <ele>94.35</ele>
        <time>2016-04-03T13:39:08Z</time>
      </trkpt>
      <trkpt lat="44.9172" lon="-0.03703">
        <ele>95.31</ele>
        <time>2016-04-03T13:39:27Z</time>
      </trkpt>
      <trkpt lat="44.91718" lon="-0.03676">
        <ele>96.27</ele>
        <time>2016-04-03T13:39:44Z</time>
      </trkpt>
      <trkpt lat="44.91717" lon="-0.03647">
        <ele>97.71</ele>
        <time>2016-04-03T13:40:01Z</time>
      </trkpt>
      <trkpt lat="44.91716" lon="-0.03621">
        <ele>98.19</ele>
        <time>2016-04-03T13:40:17Z</time>
      </trkpt>
      <trkpt lat="44.91712" lon="-0.03589">
        <ele>98.67</ele>
        <time>2016-04-03T13:40:36Z</time>
      </trkpt>
      <trkpt lat="44.91708" lon="-0.03563">
        <ele>99.63</ele>
        <time>2016-04-03T13:40:52Z</time>
      </trkpt>
      <trkpt lat="44.91704" lon="-0.03541">
        <ele>99.63</ele>
        <time>2016-04-03T13:41:07Z</time>
      </trkpt>
      <trkpt lat="44.917" lon="-0.0351">
        <ele>100.11</ele>
        <time>2016-04-03T13:41:26Z</time>
      </trkpt>
      <trkpt lat="44.91698" lon="-0.03483">
        <ele>100.6</ele>
        <time>2016-04-03T13:41:43Z</time>
      </trkpt>
      <trkpt lat="44.91697" lon="-0.03454">
        <ele>100.6</ele>
        <time>2016-04-03T13:42:00Z</time>
      </trkpt>
      <trkpt lat="44.91697" lon="-0.03422">
        <ele>101.56</ele>
        <time>2016-04-03T13:42:19Z</time>
      </trkpt>
      <trkpt lat="44.91702" lon="-0.03394">
        <ele>102.04</ele>
        <time>2016-04-03T13:42:36Z</time>
      </trkpt>
      <trkpt lat="44.91706" lon="-0.03367">
        <ele>102.52</ele>
        <time>2016-04-03T13:42:53Z</time>
      </trkpt>
      <trkpt lat="44.9171" lon="-0.03335">
        <ele>103</ele>
        <time>2016-04-03T13:43:12Z</time>
      </trkpt>
      <trkpt lat="44.91713" lon="-0.03308">
        <ele>103.96</ele>
        <time>2016-04-03T13:43:28Z</time>
      </trkpt>
      <trkpt lat="44.91717" lon="-0.03278">
        <ele>104.92</ele>
        <time>2016-04-03T13:43:46Z</time>
      </trkpt>
      <trkpt lat="44.91721" lon="-0.03248">
        <ele>105.88</ele>
        <time>2016-04-03T13:44:04Z</time>
      </trkpt>
      <trkpt lat="44.91715" lon="-0.03243">
        <ele>106.36</ele>
        <time>2016-04-03T13:44:17Z</time>
      </trkpt>
      <trkpt lat="44.91709" lon="-0.03241">
        <ele>106.36</ele>
        <time>2016-04-03T13:44:27Z</time>
      </trkpt>
      <trkpt lat="44.91694" lon="-0.03232">
        <ele>105.88</ele>
        <time>2016-04-03T13:44:43Z</time>
      </trkpt>
      <trkpt lat="44.91677" lon="-0.03227">
        <ele>106.36</ele>
        <time>2016-04-03T13:44:59Z</time>
      </trkpt>
      <trkpt lat="44.91659" lon="-0.03223">
        <ele>106.36</ele>
        <time>2016-04-03T13:45:15Z</time>
      </trkpt>
      <trkpt lat="44.91638" lon="-0.03218">
        <ele>106.36</ele>
        <time>2016-04-03T13:45:33Z</time>
      </trkpt>
      <trkpt lat="44.91619" lon="-0.03214">
        <ele>106.36</ele>
        <time>2016-04-03T13:45:49Z</time>
      </trkpt>
      <trkpt lat="44.91598" lon="-0.03211">
        <ele>106.36</ele>
        <time>2016-04-03T13:46:07Z</time>
      </trkpt>
      <trkpt lat="44.91578" lon="-0.03208">
        <ele>105.88</ele>
        <time>2016-04-03T13:46:24Z</time>
      </trkpt>
      <trkpt lat="44.9156" lon="-0.03205">
        <ele>105.88</ele>
        <time>2016-04-03T13:46:40Z</time>
      </trkpt>
      <trkpt lat="44.9154" lon="-0.03204">
        <ele>105.88</ele>
        <time>2016-04-03T13:46:57Z</time>
      </trkpt>
      <trkpt lat="44.91522" lon="-0.03201">
        <ele>105.88</ele>
        <time>2016-04-03T13:47:12Z</time>
      </trkpt>
      <trkpt lat="44.91504" lon="-0.03198">
        <ele>106.36</ele>
        <time>2016-04-03T13:47:29Z</time>
      </trkpt>
      <trkpt lat="44.9149" lon="-0.03195">
        <ele>106.36</ele>
        <time>2016-04-03T13:47:44Z</time>
      </trkpt>
      <trkpt lat="44.91481" lon="-0.03196">
        <ele>106.36</ele>
        <time>2016-04-03T13:47:50Z</time>
      </trkpt>
      <trkpt lat="44.91478" lon="-0.03197">
        <ele>106.36</ele>
        <time>2016-04-03T13:47:52Z</time>
      </trkpt>
      <trkpt lat="44.91476" lon="-0.03195">
        <ele>106.36</ele>
        <time>2016-04-03T13:47:54Z</time>
      </trkpt>
      <trkpt lat="44.91471" lon="-0.03165">
        <ele>106.36</ele>
        <time>2016-04-03T13:48:12Z</time>
      </trkpt>
      <trkpt lat="44.91471" lon="-0.03164">
        <ele>106.36</ele>
        <time>2016-04-03T13:48:13Z</time>
      </trkpt>
      <trkpt lat="44.91468" lon="-0.0315">
        <ele>106.36</ele>
        <time>2016-04-03T13:48:23Z</time>
      </trkpt>
      <trkpt lat="44.91467" lon="-0.03147">
        <ele>106.36</ele>
        <time>2016-04-03T13:48:26Z</time>
      </trkpt>
      <trkpt lat="44.9145" lon="-0.03144">
        <ele>106.36</ele>
        <time>2016-04-03T13:48:42Z</time>
      </trkpt>
      <trkpt lat="44.91429" lon="-0.03143">
        <ele>106.36</ele>
        <time>2016-04-03T13:49:01Z</time>
      </trkpt>
      <trkpt lat="44.91415" lon="-0.03133">
        <ele>105.88</ele>
        <time>2016-04-03T13:49:16Z</time>
      </trkpt>
      <trkpt lat="44.91413" lon="-0.03133">
        <ele>104.92</ele>
        <time>2016-04-03T13:49:18Z</time>
      </trkpt>
      <trkpt lat="44.91408" lon="-0.03125">
        <ele>104.44</ele>
        <time>2016-04-03T13:49:29Z</time>
      </trkpt>
      <trkpt lat="44.91407" lon="-0.0312">
        <ele>105.4</ele>
        <time>2016-04-03T13:49:52Z</time>
      </trkpt>
      <trkpt lat="44.91408" lon="-0.03122">
        <ele>105.4</ele>
        <time>2016-04-03T13:50:08Z</time>
      </trkpt>
      <trkpt lat="44.91408" lon="-0.03121">
        <ele>105.4</ele>
        <time>2016-04-03T13:50:36Z</time>
      </trkpt>
      <trkpt lat="44.91408" lon="-0.03121">
        <ele>105.4</ele>
        <time>2016-04-03T13:50:37Z</time>
      </trkpt>
    </trkseg>
  </trk>
</gpx>